<?xml version="1.0" encoding="UTF-8" standalone="no" ?>
<gpx xmlns="http://www.topografix.com/GPX/1/1" xmlns:xsi="http://www.w3.org/2001/XMLSchema-instance" xsi:schemaLocation="http://www.topografix.com/GPX/1/1 http://www.topografix.com/GPX/1/1/gpx.xsd" version="1.1" creator="VisuGPX - https://www.visugpx.com">
  <metadata>
    <name>Jouy le Moutier - Bords de l'Oise - Cergy</name>
  </metadata>
  <trk>
    <name><![CDATA[Jouy le Moutier - Bords de l'Oise - Cergy_1]]></name>
    <extensions>
      <line xmlns="http://www.topografix.com/GPX/gpx_style/0/2">
        <color>0000FF</color>
        <width>4</width>
      </line>
    </extensions>
    <trkseg>
      <trkpt lat="49.01432" lon="2.05842">
        <ele>25</ele>
        <time>2022-06-28T08:36:01Z</time>
      </trkpt>
      <trkpt lat="49.01399" lon="2.05769">
        <ele>25.2</ele>
      </trkpt>
      <trkpt lat="49.0141" lon="2.0575">
        <ele>27.5</ele>
      </trkpt>
      <trkpt lat="49.01334" lon="2.05581">
        <ele>27.5</ele>
      </trkpt>
      <trkpt lat="49.01363" lon="2.05564">
        <ele>23</ele>
      </trkpt>
      <trkpt lat="49.01379" lon="2.05563">
        <ele>22.8</ele>
      </trkpt>
      <trkpt lat="49.01388" lon="2.05578">
        <ele>22.2</ele>
      </trkpt>
      <trkpt lat="49.01513" lon="2.05322">
        <ele>22.3</ele>
      </trkpt>
      <trkpt lat="49.01708" lon="2.05013">
        <ele>22.5</ele>
      </trkpt>
      <trkpt lat="49.01849" lon="2.04801">
        <ele>22</ele>
      </trkpt>
      <trkpt lat="49.01907" lon="2.0473">
        <ele>22.8</ele>
      </trkpt>
      <trkpt lat="49.02018" lon="2.04602">
        <ele>22.1</ele>
      </trkpt>
      <trkpt lat="49.02132" lon="2.04463">
        <ele>21.8</ele>
      </trkpt>
      <trkpt lat="49.0216" lon="2.04404">
        <ele>21.7</ele>
      </trkpt>
      <trkpt lat="49.02215" lon="2.04294">
        <ele>21.8</ele>
      </trkpt>
      <trkpt lat="49.0225" lon="2.0425">
        <ele>23</ele>
      </trkpt>
      <trkpt lat="49.02301" lon="2.04201">
        <ele>21.9</ele>
      </trkpt>
      <trkpt lat="49.02368" lon="2.04163">
        <ele>21.9</ele>
      </trkpt>
      <trkpt lat="49.02417" lon="2.04133">
        <ele>21.2</ele>
      </trkpt>
      <trkpt lat="49.02488" lon="2.04076">
        <ele>21.8</ele>
      </trkpt>
      <trkpt lat="49.02525" lon="2.04043">
        <ele>22</ele>
      </trkpt>
      <trkpt lat="49.02662" lon="2.03935">
        <ele>21.9</ele>
      </trkpt>
      <trkpt lat="49.02781" lon="2.03801">
        <ele>22.8</ele>
      </trkpt>
      <trkpt lat="49.02881" lon="2.03697">
        <ele>22.2</ele>
      </trkpt>
      <trkpt lat="49.02967" lon="2.0361">
        <ele>22.2</ele>
      </trkpt>
      <trkpt lat="49.03044" lon="2.03543">
        <ele>28.6</ele>
        <time>2022-06-28T08:36:06Z</time>
      </trkpt>
      <trkpt lat="49.03049" lon="2.0354">
        <ele>28.3</ele>
        <time>2022-06-28T08:36:11Z</time>
      </trkpt>
      <trkpt lat="49.03053" lon="2.03539">
        <ele>26.7</ele>
        <time>2022-06-28T08:36:14Z</time>
      </trkpt>
      <trkpt lat="49.03059" lon="2.03538">
        <ele>23.7</ele>
        <time>2022-06-28T08:36:18Z</time>
      </trkpt>
      <trkpt lat="49.03063" lon="2.03538">
        <ele>23.2</ele>
        <time>2022-06-28T08:36:22Z</time>
      </trkpt>
      <trkpt lat="49.03068" lon="2.03537">
        <ele>22.6</ele>
        <time>2022-06-28T08:36:26Z</time>
      </trkpt>
      <trkpt lat="49.03073" lon="2.03536">
        <ele>24.6</ele>
        <time>2022-06-28T08:36:32Z</time>
      </trkpt>
      <trkpt lat="49.03077" lon="2.03537">
        <ele>24.4</ele>
        <time>2022-06-28T08:36:36Z</time>
      </trkpt>
      <trkpt lat="49.03083" lon="2.03539">
        <ele>25</ele>
        <time>2022-06-28T08:36:41Z</time>
      </trkpt>
      <trkpt lat="49.03088" lon="2.03537">
        <ele>24.9</ele>
        <time>2022-06-28T08:36:45Z</time>
      </trkpt>
      <trkpt lat="49.03092" lon="2.03533">
        <ele>24.5</ele>
        <time>2022-06-28T08:36:49Z</time>
      </trkpt>
      <trkpt lat="49.03095" lon="2.03528">
        <ele>23.8</ele>
        <time>2022-06-28T08:36:55Z</time>
      </trkpt>
      <trkpt lat="49.03095" lon="2.0352">
        <ele>26.9</ele>
        <time>2022-06-28T08:37:03Z</time>
      </trkpt>
      <trkpt lat="49.03099" lon="2.03517">
        <ele>27.3</ele>
        <time>2022-06-28T08:37:09Z</time>
      </trkpt>
      <trkpt lat="49.03104" lon="2.03516">
        <ele>31.8</ele>
        <time>2022-06-28T08:37:12Z</time>
      </trkpt>
      <trkpt lat="49.03109" lon="2.03518">
        <ele>27.2</ele>
        <time>2022-06-28T08:37:16Z</time>
      </trkpt>
      <trkpt lat="49.03114" lon="2.03519">
        <ele>23.6</ele>
        <time>2022-06-28T08:37:19Z</time>
      </trkpt>
      <trkpt lat="49.0312" lon="2.03519">
        <ele>23.2</ele>
        <time>2022-06-28T08:37:23Z</time>
      </trkpt>
      <trkpt lat="49.03128" lon="2.03517">
        <ele>18.6</ele>
        <time>2022-06-28T08:37:27Z</time>
      </trkpt>
      <trkpt lat="49.03133" lon="2.03514">
        <ele>16.9</ele>
        <time>2022-06-28T08:37:31Z</time>
      </trkpt>
      <trkpt lat="49.03137" lon="2.03511">
        <ele>16</ele>
        <time>2022-06-28T08:37:34Z</time>
      </trkpt>
      <trkpt lat="49.0314" lon="2.03518">
        <ele>13.3</ele>
        <time>2022-06-28T08:37:40Z</time>
      </trkpt>
      <trkpt lat="49.03142" lon="2.03527">
        <ele>9.3</ele>
        <time>2022-06-28T08:37:48Z</time>
      </trkpt>
      <trkpt lat="49.0314" lon="2.03535">
        <ele>7.9</ele>
        <time>2022-06-28T08:37:57Z</time>
      </trkpt>
      <trkpt lat="49.03139" lon="2.03545">
        <ele>7.7</ele>
        <time>2022-06-28T08:38:02Z</time>
      </trkpt>
      <trkpt lat="49.03135" lon="2.03552">
        <ele>8.8</ele>
        <time>2022-06-28T08:38:06Z</time>
      </trkpt>
      <trkpt lat="49.03131" lon="2.03556">
        <ele>7.6</ele>
        <time>2022-06-28T08:38:16Z</time>
      </trkpt>
      <trkpt lat="49.03133" lon="2.03562">
        <ele>-4</ele>
        <time>2022-06-28T08:38:31Z</time>
      </trkpt>
      <trkpt lat="49.0314" lon="2.03559">
        <ele>-0.9</ele>
        <time>2022-06-28T08:38:34Z</time>
      </trkpt>
      <trkpt lat="49.03146" lon="2.03557">
        <ele>1.6</ele>
        <time>2022-06-28T08:38:37Z</time>
      </trkpt>
      <trkpt lat="49.03151" lon="2.03558">
        <ele>0.9</ele>
        <time>2022-06-28T08:38:40Z</time>
      </trkpt>
      <trkpt lat="49.03155" lon="2.0356">
        <ele>0.8</ele>
        <time>2022-06-28T08:38:43Z</time>
      </trkpt>
      <trkpt lat="49.03161" lon="2.03561">
        <ele>4.4</ele>
        <time>2022-06-28T08:38:46Z</time>
      </trkpt>
      <trkpt lat="49.03166" lon="2.03562">
        <ele>6</ele>
        <time>2022-06-28T08:38:48Z</time>
      </trkpt>
      <trkpt lat="49.0317" lon="2.03563">
        <ele>6.1</ele>
        <time>2022-06-28T08:38:51Z</time>
      </trkpt>
      <trkpt lat="49.03176" lon="2.03564">
        <ele>5.9</ele>
        <time>2022-06-28T08:38:54Z</time>
      </trkpt>
      <trkpt lat="49.03182" lon="2.03565">
        <ele>8.3</ele>
        <time>2022-06-28T08:38:57Z</time>
      </trkpt>
      <trkpt lat="49.03188" lon="2.03568">
        <ele>9.5</ele>
        <time>2022-06-28T08:39:01Z</time>
      </trkpt>
      <trkpt lat="49.03193" lon="2.03571">
        <ele>11.3</ele>
        <time>2022-06-28T08:39:04Z</time>
      </trkpt>
      <trkpt lat="49.03197" lon="2.03573">
        <ele>12.2</ele>
        <time>2022-06-28T08:39:07Z</time>
      </trkpt>
      <trkpt lat="49.03202" lon="2.03575">
        <ele>10.6</ele>
        <time>2022-06-28T08:39:11Z</time>
      </trkpt>
      <trkpt lat="49.03208" lon="2.03577">
        <ele>11.5</ele>
        <time>2022-06-28T08:39:16Z</time>
      </trkpt>
      <trkpt lat="49.03214" lon="2.03579">
        <ele>9.3</ele>
        <time>2022-06-28T08:39:20Z</time>
      </trkpt>
      <trkpt lat="49.03218" lon="2.0358">
        <ele>9.9</ele>
        <time>2022-06-28T08:39:23Z</time>
      </trkpt>
      <trkpt lat="49.03223" lon="2.03583">
        <ele>7.5</ele>
        <time>2022-06-28T08:39:27Z</time>
      </trkpt>
      <trkpt lat="49.03228" lon="2.03585">
        <ele>7</ele>
        <time>2022-06-28T08:39:31Z</time>
      </trkpt>
      <trkpt lat="49.03232" lon="2.03588">
        <ele>6.4</ele>
        <time>2022-06-28T08:39:35Z</time>
      </trkpt>
      <trkpt lat="49.03236" lon="2.03591">
        <ele>5.7</ele>
        <time>2022-06-28T08:39:40Z</time>
      </trkpt>
      <trkpt lat="49.03241" lon="2.03595">
        <ele>5.7</ele>
        <time>2022-06-28T08:39:44Z</time>
      </trkpt>
      <trkpt lat="49.03245" lon="2.03598">
        <ele>3</ele>
        <time>2022-06-28T08:39:48Z</time>
      </trkpt>
      <trkpt lat="49.0325" lon="2.036">
        <ele>2.9</ele>
        <time>2022-06-28T08:39:52Z</time>
      </trkpt>
      <trkpt lat="49.03255" lon="2.03603">
        <ele>5.4</ele>
        <time>2022-06-28T08:39:56Z</time>
      </trkpt>
      <trkpt lat="49.0326" lon="2.03606">
        <ele>3.8</ele>
        <time>2022-06-28T08:40:00Z</time>
      </trkpt>
      <trkpt lat="49.03264" lon="2.0361">
        <ele>2.2</ele>
        <time>2022-06-28T08:40:05Z</time>
      </trkpt>
      <trkpt lat="49.03269" lon="2.03613">
        <ele>3.5</ele>
        <time>2022-06-28T08:40:10Z</time>
      </trkpt>
      <trkpt lat="49.03273" lon="2.03617">
        <ele>2.8</ele>
        <time>2022-06-28T08:40:14Z</time>
      </trkpt>
      <trkpt lat="49.03278" lon="2.03619">
        <ele>1.4</ele>
        <time>2022-06-28T08:40:18Z</time>
      </trkpt>
      <trkpt lat="49.03283" lon="2.03618">
        <ele>0.2</ele>
        <time>2022-06-28T08:40:28Z</time>
      </trkpt>
      <trkpt lat="49.03288" lon="2.03623">
        <ele>-0.5</ele>
        <time>2022-06-28T08:40:32Z</time>
      </trkpt>
      <trkpt lat="49.03292" lon="2.03627">
        <ele>-1.5</ele>
        <time>2022-06-28T08:40:36Z</time>
      </trkpt>
      <trkpt lat="49.03296" lon="2.03628">
        <ele>-4.2</ele>
        <time>2022-06-28T08:40:40Z</time>
      </trkpt>
      <trkpt lat="49.03301" lon="2.03631">
        <ele>-4.6</ele>
        <time>2022-06-28T08:40:45Z</time>
      </trkpt>
      <trkpt lat="49.03306" lon="2.03633">
        <ele>-7.1</ele>
        <time>2022-06-28T08:40:49Z</time>
      </trkpt>
      <trkpt lat="49.03312" lon="2.03635">
        <ele>-5.4</ele>
        <time>2022-06-28T08:40:54Z</time>
      </trkpt>
      <trkpt lat="49.03316" lon="2.03642">
        <ele>-5.2</ele>
        <time>2022-06-28T08:40:58Z</time>
      </trkpt>
      <trkpt lat="49.03318" lon="2.03649">
        <ele>-4.5</ele>
        <time>2022-06-28T08:41:01Z</time>
      </trkpt>
      <trkpt lat="49.03321" lon="2.03656">
        <ele>-3.8</ele>
        <time>2022-06-28T08:41:06Z</time>
      </trkpt>
      <trkpt lat="49.03324" lon="2.03662">
        <ele>-1.8</ele>
        <time>2022-06-28T08:41:10Z</time>
      </trkpt>
      <trkpt lat="49.03327" lon="2.03667">
        <ele>-2.9</ele>
        <time>2022-06-28T08:41:14Z</time>
      </trkpt>
      <trkpt lat="49.03333" lon="2.03668">
        <ele>-5.2</ele>
        <time>2022-06-28T08:41:19Z</time>
      </trkpt>
      <trkpt lat="49.03337" lon="2.03671">
        <ele>-5.1</ele>
        <time>2022-06-28T08:41:23Z</time>
      </trkpt>
      <trkpt lat="49.03341" lon="2.03675">
        <ele>-6.6</ele>
        <time>2022-06-28T08:41:28Z</time>
      </trkpt>
      <trkpt lat="49.03346" lon="2.03678">
        <ele>-6.2</ele>
        <time>2022-06-28T08:41:32Z</time>
      </trkpt>
      <trkpt lat="49.0335" lon="2.0368">
        <ele>-2.8</ele>
        <time>2022-06-28T08:41:36Z</time>
      </trkpt>
      <trkpt lat="49.03355" lon="2.03683">
        <ele>-1.5</ele>
        <time>2022-06-28T08:41:41Z</time>
      </trkpt>
      <trkpt lat="49.03359" lon="2.03687">
        <ele>-3.6</ele>
        <time>2022-06-28T08:41:45Z</time>
      </trkpt>
      <trkpt lat="49.03363" lon="2.03691">
        <ele>-4.3</ele>
        <time>2022-06-28T08:41:49Z</time>
      </trkpt>
      <trkpt lat="49.03367" lon="2.03696">
        <ele>-5.9</ele>
        <time>2022-06-28T08:41:53Z</time>
      </trkpt>
      <trkpt lat="49.03372" lon="2.037">
        <ele>-5.7</ele>
        <time>2022-06-28T08:41:57Z</time>
      </trkpt>
      <trkpt lat="49.03375" lon="2.03705">
        <ele>-3</ele>
        <time>2022-06-28T08:42:01Z</time>
      </trkpt>
      <trkpt lat="49.0338" lon="2.03709">
        <ele>-1.7</ele>
        <time>2022-06-28T08:42:06Z</time>
      </trkpt>
      <trkpt lat="49.03385" lon="2.03712">
        <ele>-3.3</ele>
        <time>2022-06-28T08:42:10Z</time>
      </trkpt>
      <trkpt lat="49.0339" lon="2.03715">
        <ele>-3.6</ele>
        <time>2022-06-28T08:42:15Z</time>
      </trkpt>
      <trkpt lat="49.03395" lon="2.03718">
        <ele>-1.5</ele>
        <time>2022-06-28T08:42:19Z</time>
      </trkpt>
      <trkpt lat="49.03399" lon="2.03721">
        <ele>-0.7</ele>
        <time>2022-06-28T08:42:23Z</time>
      </trkpt>
      <trkpt lat="49.03404" lon="2.03726">
        <ele>0.9</ele>
        <time>2022-06-28T08:42:27Z</time>
      </trkpt>
      <trkpt lat="49.03408" lon="2.0373">
        <ele>2.1</ele>
        <time>2022-06-28T08:42:31Z</time>
      </trkpt>
      <trkpt lat="49.03413" lon="2.03735">
        <ele>0.9</ele>
        <time>2022-06-28T08:42:35Z</time>
      </trkpt>
      <trkpt lat="49.03417" lon="2.03738">
        <ele>-1.6</ele>
        <time>2022-06-28T08:42:39Z</time>
      </trkpt>
      <trkpt lat="49.03421" lon="2.03742">
        <ele>-1.6</ele>
        <time>2022-06-28T08:42:42Z</time>
      </trkpt>
      <trkpt lat="49.03426" lon="2.03747">
        <ele>0.2</ele>
        <time>2022-06-28T08:42:46Z</time>
      </trkpt>
      <trkpt lat="49.0343" lon="2.0375">
        <ele>0.9</ele>
        <time>2022-06-28T08:42:51Z</time>
      </trkpt>
      <trkpt lat="49.03435" lon="2.03753">
        <ele>0.6</ele>
        <time>2022-06-28T08:42:56Z</time>
      </trkpt>
      <trkpt lat="49.03439" lon="2.03757">
        <ele>1.2</ele>
        <time>2022-06-28T08:43:00Z</time>
      </trkpt>
      <trkpt lat="49.03444" lon="2.0376">
        <ele>-1.1</ele>
        <time>2022-06-28T08:43:04Z</time>
      </trkpt>
      <trkpt lat="49.03448" lon="2.03764">
        <ele>-1.4</ele>
        <time>2022-06-28T08:43:08Z</time>
      </trkpt>
      <trkpt lat="49.03452" lon="2.03768">
        <ele>-0.7</ele>
        <time>2022-06-28T08:43:12Z</time>
      </trkpt>
      <trkpt lat="49.03456" lon="2.03773">
        <ele>1.4</ele>
        <time>2022-06-28T08:43:16Z</time>
      </trkpt>
      <trkpt lat="49.0346" lon="2.03777">
        <ele>3.1</ele>
        <time>2022-06-28T08:43:20Z</time>
      </trkpt>
      <trkpt lat="49.03463" lon="2.03782">
        <ele>2.6</ele>
        <time>2022-06-28T08:43:24Z</time>
      </trkpt>
      <trkpt lat="49.03468" lon="2.03785">
        <ele>4.3</ele>
        <time>2022-06-28T08:43:28Z</time>
      </trkpt>
      <trkpt lat="49.03472" lon="2.03789">
        <ele>6.8</ele>
        <time>2022-06-28T08:43:32Z</time>
      </trkpt>
      <trkpt lat="49.03477" lon="2.03793">
        <ele>7.6</ele>
        <time>2022-06-28T08:43:37Z</time>
      </trkpt>
      <trkpt lat="49.03481" lon="2.03796">
        <ele>6.9</ele>
        <time>2022-06-28T08:43:42Z</time>
      </trkpt>
      <trkpt lat="49.03485" lon="2.03801">
        <ele>7.1</ele>
        <time>2022-06-28T08:43:46Z</time>
      </trkpt>
      <trkpt lat="49.03489" lon="2.03806">
        <ele>7.7</ele>
        <time>2022-06-28T08:43:50Z</time>
      </trkpt>
      <trkpt lat="49.03493" lon="2.03812">
        <ele>7.4</ele>
        <time>2022-06-28T08:43:54Z</time>
      </trkpt>
      <trkpt lat="49.03497" lon="2.03818">
        <ele>6.8</ele>
        <time>2022-06-28T08:43:58Z</time>
      </trkpt>
      <trkpt lat="49.03501" lon="2.03824">
        <ele>6.4</ele>
        <time>2022-06-28T08:44:02Z</time>
      </trkpt>
      <trkpt lat="49.03504" lon="2.03829">
        <ele>8.4</ele>
        <time>2022-06-28T08:44:06Z</time>
      </trkpt>
      <trkpt lat="49.03508" lon="2.03835">
        <ele>8.5</ele>
        <time>2022-06-28T08:44:10Z</time>
      </trkpt>
      <trkpt lat="49.03513" lon="2.03841">
        <ele>7.6</ele>
        <time>2022-06-28T08:44:15Z</time>
      </trkpt>
      <trkpt lat="49.03516" lon="2.03846">
        <ele>6.7</ele>
        <time>2022-06-28T08:44:19Z</time>
      </trkpt>
      <trkpt lat="49.0352" lon="2.03852">
        <ele>7.1</ele>
        <time>2022-06-28T08:44:24Z</time>
      </trkpt>
      <trkpt lat="49.03523" lon="2.03858">
        <ele>6.2</ele>
        <time>2022-06-28T08:44:27Z</time>
      </trkpt>
      <trkpt lat="49.03526" lon="2.03863">
        <ele>4.6</ele>
        <time>2022-06-28T08:44:31Z</time>
      </trkpt>
      <trkpt lat="49.03531" lon="2.0387">
        <ele>5.9</ele>
        <time>2022-06-28T08:44:35Z</time>
      </trkpt>
      <trkpt lat="49.03535" lon="2.03877">
        <ele>6.2</ele>
        <time>2022-06-28T08:44:39Z</time>
      </trkpt>
      <trkpt lat="49.03539" lon="2.03881">
        <ele>5.9</ele>
        <time>2022-06-28T08:44:43Z</time>
      </trkpt>
      <trkpt lat="49.03543" lon="2.03886">
        <ele>6.7</ele>
        <time>2022-06-28T08:44:47Z</time>
      </trkpt>
      <trkpt lat="49.03548" lon="2.03889">
        <ele>4.3</ele>
        <time>2022-06-28T08:44:51Z</time>
      </trkpt>
      <trkpt lat="49.03553" lon="2.03891">
        <ele>5.3</ele>
        <time>2022-06-28T08:44:55Z</time>
      </trkpt>
      <trkpt lat="49.03558" lon="2.03894">
        <ele>3.1</ele>
        <time>2022-06-28T08:44:59Z</time>
      </trkpt>
      <trkpt lat="49.03562" lon="2.03897">
        <ele>4.7</ele>
        <time>2022-06-28T08:45:03Z</time>
      </trkpt>
      <trkpt lat="49.03567" lon="2.039">
        <ele>3.5</ele>
        <time>2022-06-28T08:45:07Z</time>
      </trkpt>
      <trkpt lat="49.03571" lon="2.03903">
        <ele>2.5</ele>
        <time>2022-06-28T08:45:11Z</time>
      </trkpt>
      <trkpt lat="49.03575" lon="2.03907">
        <ele>2.7</ele>
        <time>2022-06-28T08:45:15Z</time>
      </trkpt>
      <trkpt lat="49.03579" lon="2.03911">
        <ele>1.3</ele>
        <time>2022-06-28T08:45:19Z</time>
      </trkpt>
      <trkpt lat="49.03584" lon="2.03914">
        <ele>0.5</ele>
        <time>2022-06-28T08:45:23Z</time>
      </trkpt>
      <trkpt lat="49.03588" lon="2.03916">
        <ele>0.2</ele>
        <time>2022-06-28T08:45:27Z</time>
      </trkpt>
      <trkpt lat="49.03593" lon="2.03919">
        <ele>0.7</ele>
        <time>2022-06-28T08:45:31Z</time>
      </trkpt>
      <trkpt lat="49.03597" lon="2.03922">
        <ele>1.8</ele>
        <time>2022-06-28T08:45:35Z</time>
      </trkpt>
      <trkpt lat="49.03602" lon="2.03927">
        <ele>0.9</ele>
        <time>2022-06-28T08:45:40Z</time>
      </trkpt>
      <trkpt lat="49.03606" lon="2.03929">
        <ele>0.1</ele>
        <time>2022-06-28T08:45:44Z</time>
      </trkpt>
      <trkpt lat="49.03611" lon="2.03932">
        <ele>-2.4</ele>
        <time>2022-06-28T08:45:48Z</time>
      </trkpt>
      <trkpt lat="49.03615" lon="2.03935">
        <ele>-2.1</ele>
        <time>2022-06-28T08:45:52Z</time>
      </trkpt>
      <trkpt lat="49.0362" lon="2.03939">
        <ele>-0.7</ele>
        <time>2022-06-28T08:45:56Z</time>
      </trkpt>
      <trkpt lat="49.03625" lon="2.03943">
        <ele>-0.3</ele>
        <time>2022-06-28T08:46:01Z</time>
      </trkpt>
      <trkpt lat="49.03629" lon="2.03947">
        <ele>-0.8</ele>
        <time>2022-06-28T08:46:05Z</time>
      </trkpt>
      <trkpt lat="49.03633" lon="2.0395">
        <ele>-2.2</ele>
        <time>2022-06-28T08:46:09Z</time>
      </trkpt>
      <trkpt lat="49.03638" lon="2.03955">
        <ele>-2</ele>
        <time>2022-06-28T08:46:13Z</time>
      </trkpt>
      <trkpt lat="49.03643" lon="2.03959">
        <ele>-0.7</ele>
        <time>2022-06-28T08:46:18Z</time>
      </trkpt>
      <trkpt lat="49.03648" lon="2.03963">
        <ele>0.3</ele>
        <time>2022-06-28T08:46:22Z</time>
      </trkpt>
      <trkpt lat="49.03653" lon="2.03967">
        <ele>1.5</ele>
        <time>2022-06-28T08:46:27Z</time>
      </trkpt>
      <trkpt lat="49.03657" lon="2.03972">
        <ele>2.9</ele>
        <time>2022-06-28T08:46:31Z</time>
      </trkpt>
      <trkpt lat="49.03663" lon="2.03975">
        <ele>3.7</ele>
        <time>2022-06-28T08:46:36Z</time>
      </trkpt>
      <trkpt lat="49.03668" lon="2.03978">
        <ele>3.5</ele>
        <time>2022-06-28T08:46:40Z</time>
      </trkpt>
      <trkpt lat="49.03674" lon="2.0398">
        <ele>3.9</ele>
        <time>2022-06-28T08:46:45Z</time>
      </trkpt>
      <trkpt lat="49.03679" lon="2.03983">
        <ele>7.4</ele>
        <time>2022-06-28T08:46:49Z</time>
      </trkpt>
      <trkpt lat="49.03684" lon="2.03987">
        <ele>6.3</ele>
        <time>2022-06-28T08:46:54Z</time>
      </trkpt>
      <trkpt lat="49.03689" lon="2.03992">
        <ele>4.9</ele>
        <time>2022-06-28T08:46:58Z</time>
      </trkpt>
      <trkpt lat="49.03692" lon="2.03997">
        <ele>5</ele>
        <time>2022-06-28T08:47:01Z</time>
      </trkpt>
      <trkpt lat="49.03695" lon="2.04003">
        <ele>3.8</ele>
        <time>2022-06-28T08:47:05Z</time>
      </trkpt>
      <trkpt lat="49.03699" lon="2.0401">
        <ele>4.1</ele>
        <time>2022-06-28T08:47:09Z</time>
      </trkpt>
      <trkpt lat="49.03703" lon="2.04015">
        <ele>3.3</ele>
        <time>2022-06-28T08:47:13Z</time>
      </trkpt>
      <trkpt lat="49.03707" lon="2.04019">
        <ele>1.7</ele>
        <time>2022-06-28T08:47:17Z</time>
      </trkpt>
      <trkpt lat="49.03711" lon="2.04024">
        <ele>2.5</ele>
        <time>2022-06-28T08:47:21Z</time>
      </trkpt>
      <trkpt lat="49.03716" lon="2.04028">
        <ele>3.7</ele>
        <time>2022-06-28T08:47:25Z</time>
      </trkpt>
      <trkpt lat="49.03721" lon="2.04032">
        <ele>2.3</ele>
        <time>2022-06-28T08:47:29Z</time>
      </trkpt>
      <trkpt lat="49.03726" lon="2.04037">
        <ele>4.6</ele>
        <time>2022-06-28T08:47:33Z</time>
      </trkpt>
      <trkpt lat="49.0373" lon="2.04042">
        <ele>5.1</ele>
        <time>2022-06-28T08:47:37Z</time>
      </trkpt>
      <trkpt lat="49.03733" lon="2.04049">
        <ele>7.4</ele>
        <time>2022-06-28T08:47:41Z</time>
      </trkpt>
      <trkpt lat="49.03737" lon="2.04055">
        <ele>9.3</ele>
        <time>2022-06-28T08:47:45Z</time>
      </trkpt>
      <trkpt lat="49.0374" lon="2.04061">
        <ele>8.7</ele>
        <time>2022-06-28T08:47:49Z</time>
      </trkpt>
      <trkpt lat="49.03744" lon="2.04066">
        <ele>7.2</ele>
        <time>2022-06-28T08:47:53Z</time>
      </trkpt>
      <trkpt lat="49.03749" lon="2.04071">
        <ele>5.3</ele>
        <time>2022-06-28T08:47:57Z</time>
      </trkpt>
      <trkpt lat="49.03753" lon="2.04075">
        <ele>7.3</ele>
        <time>2022-06-28T08:48:01Z</time>
      </trkpt>
      <trkpt lat="49.03757" lon="2.0408">
        <ele>6.7</ele>
        <time>2022-06-28T08:48:05Z</time>
      </trkpt>
      <trkpt lat="49.03761" lon="2.04086">
        <ele>7.8</ele>
        <time>2022-06-28T08:48:09Z</time>
      </trkpt>
      <trkpt lat="49.03765" lon="2.04091">
        <ele>8.7</ele>
        <time>2022-06-28T08:48:13Z</time>
      </trkpt>
      <trkpt lat="49.03769" lon="2.04097">
        <ele>9.4</ele>
        <time>2022-06-28T08:48:17Z</time>
      </trkpt>
      <trkpt lat="49.03773" lon="2.04102">
        <ele>8.5</ele>
        <time>2022-06-28T08:48:21Z</time>
      </trkpt>
      <trkpt lat="49.03776" lon="2.04108">
        <ele>9.5</ele>
        <time>2022-06-28T08:48:25Z</time>
      </trkpt>
      <trkpt lat="49.03779" lon="2.04115">
        <ele>9.7</ele>
        <time>2022-06-28T08:48:29Z</time>
      </trkpt>
      <trkpt lat="49.03781" lon="2.04122">
        <ele>9.6</ele>
        <time>2022-06-28T08:48:33Z</time>
      </trkpt>
      <trkpt lat="49.03784" lon="2.0413">
        <ele>10.4</ele>
        <time>2022-06-28T08:48:37Z</time>
      </trkpt>
      <trkpt lat="49.03788" lon="2.04134">
        <ele>8.7</ele>
        <time>2022-06-28T08:48:42Z</time>
      </trkpt>
      <trkpt lat="49.03792" lon="2.0413">
        <ele>5.5</ele>
        <time>2022-06-28T08:48:46Z</time>
      </trkpt>
      <trkpt lat="49.03796" lon="2.04124">
        <ele>1.4</ele>
        <time>2022-06-28T08:48:51Z</time>
      </trkpt>
      <trkpt lat="49.03799" lon="2.0412">
        <ele>2</ele>
        <time>2022-06-28T08:48:56Z</time>
      </trkpt>
      <trkpt lat="49.03803" lon="2.04116">
        <ele>-0.2</ele>
        <time>2022-06-28T08:49:05Z</time>
      </trkpt>
      <trkpt lat="49.03807" lon="2.04112">
        <ele>0.2</ele>
        <time>2022-06-28T08:49:12Z</time>
      </trkpt>
      <trkpt lat="49.03811" lon="2.04108">
        <ele>1.3</ele>
        <time>2022-06-28T08:49:19Z</time>
      </trkpt>
      <trkpt lat="49.03817" lon="2.04106">
        <ele>2.9</ele>
        <time>2022-06-28T08:49:27Z</time>
      </trkpt>
      <trkpt lat="49.03822" lon="2.04106">
        <ele>5.1</ele>
        <time>2022-06-28T08:49:34Z</time>
      </trkpt>
      <trkpt lat="49.03828" lon="2.04108">
        <ele>3.4</ele>
        <time>2022-06-28T08:49:42Z</time>
      </trkpt>
      <trkpt lat="49.03831" lon="2.04113">
        <ele>13.9</ele>
        <time>2022-06-28T08:50:22Z</time>
      </trkpt>
      <trkpt lat="49.03836" lon="2.04111">
        <ele>12.9</ele>
        <time>2022-06-28T08:50:59Z</time>
      </trkpt>
      <trkpt lat="49.0384" lon="2.04106">
        <ele>14.9</ele>
        <time>2022-06-28T08:51:34Z</time>
      </trkpt>
      <trkpt lat="49.03843" lon="2.04102">
        <ele>19.9</ele>
        <time>2022-06-28T08:53:48Z</time>
      </trkpt>
      <trkpt lat="49.03848" lon="2.04097">
        <ele>18.6</ele>
        <time>2022-06-28T08:53:54Z</time>
      </trkpt>
      <trkpt lat="49.03854" lon="2.04095">
        <ele>20.3</ele>
        <time>2022-06-28T08:53:58Z</time>
      </trkpt>
      <trkpt lat="49.03859" lon="2.04093">
        <ele>18.7</ele>
        <time>2022-06-28T08:54:02Z</time>
      </trkpt>
      <trkpt lat="49.03863" lon="2.04091">
        <ele>17.7</ele>
        <time>2022-06-28T08:54:06Z</time>
      </trkpt>
      <trkpt lat="49.03868" lon="2.0409">
        <ele>17.6</ele>
        <time>2022-06-28T08:54:11Z</time>
      </trkpt>
      <trkpt lat="49.03873" lon="2.04088">
        <ele>18.4</ele>
        <time>2022-06-28T08:54:15Z</time>
      </trkpt>
      <trkpt lat="49.03878" lon="2.04086">
        <ele>17.8</ele>
        <time>2022-06-28T08:54:19Z</time>
      </trkpt>
      <trkpt lat="49.03883" lon="2.04082">
        <ele>17.7</ele>
        <time>2022-06-28T08:54:23Z</time>
      </trkpt>
      <trkpt lat="49.03887" lon="2.04078">
        <ele>18.9</ele>
        <time>2022-06-28T08:54:27Z</time>
      </trkpt>
      <trkpt lat="49.03892" lon="2.04074">
        <ele>19.6</ele>
        <time>2022-06-28T08:54:31Z</time>
      </trkpt>
      <trkpt lat="49.03896" lon="2.04072">
        <ele>18.6</ele>
        <time>2022-06-28T08:54:35Z</time>
      </trkpt>
      <trkpt lat="49.03901" lon="2.0407">
        <ele>18.4</ele>
        <time>2022-06-28T08:54:38Z</time>
      </trkpt>
      <trkpt lat="49.03906" lon="2.04071">
        <ele>16.9</ele>
        <time>2022-06-28T08:54:42Z</time>
      </trkpt>
      <trkpt lat="49.03912" lon="2.04069">
        <ele>18.4</ele>
        <time>2022-06-28T08:54:46Z</time>
      </trkpt>
      <trkpt lat="49.03916" lon="2.04073">
        <ele>15.7</ele>
        <time>2022-06-28T08:54:52Z</time>
      </trkpt>
      <trkpt lat="49.0392" lon="2.04077">
        <ele>12.3</ele>
        <time>2022-06-28T08:54:57Z</time>
      </trkpt>
      <trkpt lat="49.03924" lon="2.04076">
        <ele>5.7</ele>
        <time>2022-06-28T08:55:02Z</time>
      </trkpt>
      <trkpt lat="49.03929" lon="2.04079">
        <ele>3.3</ele>
        <time>2022-06-28T08:55:09Z</time>
      </trkpt>
      <trkpt lat="49.03931" lon="2.04085">
        <ele>3.8</ele>
        <time>2022-06-28T08:55:13Z</time>
      </trkpt>
      <trkpt lat="49.03928" lon="2.04091">
        <ele>4.6</ele>
        <time>2022-06-28T08:55:16Z</time>
      </trkpt>
      <trkpt lat="49.03927" lon="2.04099">
        <ele>4</ele>
        <time>2022-06-28T08:55:20Z</time>
      </trkpt>
      <trkpt lat="49.03925" lon="2.04109">
        <ele>13.8</ele>
        <time>2022-06-28T08:55:48Z</time>
      </trkpt>
      <trkpt lat="49.03926" lon="2.04118">
        <ele>12.6</ele>
        <time>2022-06-28T08:55:51Z</time>
      </trkpt>
      <trkpt lat="49.03927" lon="2.04127">
        <ele>12</ele>
        <time>2022-06-28T08:55:55Z</time>
      </trkpt>
      <trkpt lat="49.03931" lon="2.04132">
        <ele>11.5</ele>
        <time>2022-06-28T08:55:58Z</time>
      </trkpt>
      <trkpt lat="49.03936" lon="2.0413">
        <ele>12</ele>
        <time>2022-06-28T08:56:02Z</time>
      </trkpt>
      <trkpt lat="49.0394" lon="2.04132">
        <ele>12.3</ele>
        <time>2022-06-28T08:56:05Z</time>
      </trkpt>
      <trkpt lat="49.03943" lon="2.04138">
        <ele>12.7</ele>
        <time>2022-06-28T08:56:10Z</time>
      </trkpt>
      <trkpt lat="49.03947" lon="2.04145">
        <ele>13.4</ele>
        <time>2022-06-28T08:56:15Z</time>
      </trkpt>
      <trkpt lat="49.0395" lon="2.04151">
        <ele>13</ele>
        <time>2022-06-28T08:56:19Z</time>
      </trkpt>
      <trkpt lat="49.03954" lon="2.04156">
        <ele>12.4</ele>
        <time>2022-06-28T08:56:23Z</time>
      </trkpt>
      <trkpt lat="49.03959" lon="2.04161">
        <ele>11.4</ele>
        <time>2022-06-28T08:56:29Z</time>
      </trkpt>
      <trkpt lat="49.03964" lon="2.04159">
        <ele>13.8</ele>
        <time>2022-06-28T08:56:35Z</time>
      </trkpt>
      <trkpt lat="49.03967" lon="2.04154">
        <ele>12.4</ele>
        <time>2022-06-28T08:56:40Z</time>
      </trkpt>
      <trkpt lat="49.03971" lon="2.04149">
        <ele>13.3</ele>
        <time>2022-06-28T08:56:46Z</time>
      </trkpt>
      <trkpt lat="49.03975" lon="2.04147">
        <ele>18.4</ele>
        <time>2022-06-28T08:56:55Z</time>
      </trkpt>
      <trkpt lat="49.03979" lon="2.04141">
        <ele>19.9</ele>
        <time>2022-06-28T08:57:04Z</time>
      </trkpt>
      <trkpt lat="49.03981" lon="2.04135">
        <ele>24.1</ele>
        <time>2022-06-28T08:57:11Z</time>
      </trkpt>
      <trkpt lat="49.0398" lon="2.04128">
        <ele>28.5</ele>
        <time>2022-06-28T08:57:18Z</time>
      </trkpt>
      <trkpt lat="49.0398" lon="2.0412">
        <ele>29.3</ele>
        <time>2022-06-28T08:57:25Z</time>
      </trkpt>
      <trkpt lat="49.03979" lon="2.04112">
        <ele>28.6</ele>
        <time>2022-06-28T08:57:29Z</time>
      </trkpt>
      <trkpt lat="49.03978" lon="2.04105">
        <ele>30.5</ele>
        <time>2022-06-28T08:57:34Z</time>
      </trkpt>
      <trkpt lat="49.03977" lon="2.04097">
        <ele>30.6</ele>
        <time>2022-06-28T08:57:38Z</time>
      </trkpt>
      <trkpt lat="49.03976" lon="2.04088">
        <ele>29.2</ele>
        <time>2022-06-28T08:57:44Z</time>
      </trkpt>
      <trkpt lat="49.03973" lon="2.04081">
        <ele>30.3</ele>
        <time>2022-06-28T08:57:49Z</time>
      </trkpt>
      <trkpt lat="49.03972" lon="2.04074">
        <ele>30.2</ele>
        <time>2022-06-28T08:57:54Z</time>
      </trkpt>
      <trkpt lat="49.03974" lon="2.04067">
        <ele>30.8</ele>
        <time>2022-06-28T08:58:00Z</time>
      </trkpt>
      <trkpt lat="49.03979" lon="2.04063">
        <ele>31.3</ele>
        <time>2022-06-28T08:58:05Z</time>
      </trkpt>
      <trkpt lat="49.03983" lon="2.04059">
        <ele>28.4</ele>
        <time>2022-06-28T08:58:10Z</time>
      </trkpt>
      <trkpt lat="49.03987" lon="2.04055">
        <ele>28.2</ele>
        <time>2022-06-28T08:58:14Z</time>
      </trkpt>
      <trkpt lat="49.03991" lon="2.04051">
        <ele>28.2</ele>
        <time>2022-06-28T08:58:19Z</time>
      </trkpt>
      <trkpt lat="49.03995" lon="2.04045">
        <ele>27.1</ele>
        <time>2022-06-28T08:58:24Z</time>
      </trkpt>
      <trkpt lat="49.03999" lon="2.04041">
        <ele>27.8</ele>
        <time>2022-06-28T08:58:29Z</time>
      </trkpt>
      <trkpt lat="49.04004" lon="2.04036">
        <ele>27.5</ele>
        <time>2022-06-28T08:58:34Z</time>
      </trkpt>
      <trkpt lat="49.04008" lon="2.04032">
        <ele>25.5</ele>
        <time>2022-06-28T08:58:39Z</time>
      </trkpt>
      <trkpt lat="49.04012" lon="2.04027">
        <ele>26.8</ele>
        <time>2022-06-28T08:58:43Z</time>
      </trkpt>
      <trkpt lat="49.04016" lon="2.04021">
        <ele>30.3</ele>
        <time>2022-06-28T08:58:48Z</time>
      </trkpt>
      <trkpt lat="49.04021" lon="2.04018">
        <ele>31.6</ele>
        <time>2022-06-28T08:58:55Z</time>
      </trkpt>
      <trkpt lat="49.04024" lon="2.04013">
        <ele>31.7</ele>
        <time>2022-06-28T08:58:59Z</time>
      </trkpt>
      <trkpt lat="49.04029" lon="2.04007">
        <ele>32.6</ele>
        <time>2022-06-28T08:59:05Z</time>
      </trkpt>
      <trkpt lat="49.04032" lon="2.04003">
        <ele>34.2</ele>
        <time>2022-06-28T08:59:11Z</time>
      </trkpt>
      <trkpt lat="49.04037" lon="2.04">
        <ele>35.4</ele>
        <time>2022-06-28T08:59:16Z</time>
      </trkpt>
      <trkpt lat="49.04041" lon="2.03996">
        <ele>36.4</ele>
        <time>2022-06-28T08:59:22Z</time>
      </trkpt>
      <trkpt lat="49.04045" lon="2.03992">
        <ele>38.6</ele>
        <time>2022-06-28T08:59:27Z</time>
      </trkpt>
      <trkpt lat="49.04049" lon="2.03988">
        <ele>39.3</ele>
        <time>2022-06-28T08:59:32Z</time>
      </trkpt>
      <trkpt lat="49.04053" lon="2.03984">
        <ele>39.2</ele>
        <time>2022-06-28T08:59:37Z</time>
      </trkpt>
      <trkpt lat="49.04057" lon="2.0398">
        <ele>40.5</ele>
        <time>2022-06-28T08:59:41Z</time>
      </trkpt>
      <trkpt lat="49.04061" lon="2.03975">
        <ele>39.4</ele>
        <time>2022-06-28T08:59:46Z</time>
      </trkpt>
      <trkpt lat="49.04065" lon="2.0397">
        <ele>39.7</ele>
        <time>2022-06-28T08:59:51Z</time>
      </trkpt>
      <trkpt lat="49.04069" lon="2.03964">
        <ele>39.3</ele>
        <time>2022-06-28T08:59:56Z</time>
      </trkpt>
      <trkpt lat="49.04072" lon="2.03959">
        <ele>38.7</ele>
        <time>2022-06-28T09:00:01Z</time>
      </trkpt>
      <trkpt lat="49.04077" lon="2.03955">
        <ele>38.2</ele>
        <time>2022-06-28T09:00:07Z</time>
      </trkpt>
      <trkpt lat="49.0408" lon="2.03949">
        <ele>36.4</ele>
        <time>2022-06-28T09:00:12Z</time>
      </trkpt>
      <trkpt lat="49.04085" lon="2.03941">
        <ele>35.4</ele>
        <time>2022-06-28T09:00:16Z</time>
      </trkpt>
      <trkpt lat="49.04089" lon="2.03936">
        <ele>35.5</ele>
        <time>2022-06-28T09:00:21Z</time>
      </trkpt>
      <trkpt lat="49.04094" lon="2.0393">
        <ele>39.2</ele>
        <time>2022-06-28T09:00:26Z</time>
      </trkpt>
      <trkpt lat="49.04098" lon="2.03925">
        <ele>42.3</ele>
        <time>2022-06-28T09:00:31Z</time>
      </trkpt>
      <trkpt lat="49.04102" lon="2.03922">
        <ele>41.4</ele>
        <time>2022-06-28T09:00:36Z</time>
      </trkpt>
      <trkpt lat="49.04106" lon="2.03918">
        <ele>42.2</ele>
        <time>2022-06-28T09:00:42Z</time>
      </trkpt>
      <trkpt lat="49.04111" lon="2.03914">
        <ele>41.8</ele>
        <time>2022-06-28T09:00:48Z</time>
      </trkpt>
      <trkpt lat="49.04115" lon="2.03909">
        <ele>42.7</ele>
        <time>2022-06-28T09:00:54Z</time>
      </trkpt>
      <trkpt lat="49.04119" lon="2.03903">
        <ele>44.9</ele>
        <time>2022-06-28T09:00:59Z</time>
      </trkpt>
      <trkpt lat="49.04122" lon="2.03898">
        <ele>45.4</ele>
        <time>2022-06-28T09:01:03Z</time>
      </trkpt>
      <trkpt lat="49.04126" lon="2.03894">
        <ele>45.6</ele>
        <time>2022-06-28T09:01:09Z</time>
      </trkpt>
      <trkpt lat="49.04131" lon="2.0389">
        <ele>44.3</ele>
        <time>2022-06-28T09:01:13Z</time>
      </trkpt>
      <trkpt lat="49.04134" lon="2.03884">
        <ele>45</ele>
        <time>2022-06-28T09:01:18Z</time>
      </trkpt>
      <trkpt lat="49.04138" lon="2.0388">
        <ele>43.9</ele>
        <time>2022-06-28T09:01:22Z</time>
      </trkpt>
      <trkpt lat="49.04142" lon="2.03875">
        <ele>43.7</ele>
        <time>2022-06-28T09:01:27Z</time>
      </trkpt>
      <trkpt lat="49.04149" lon="2.03863">
        <ele>40</ele>
        <time>2022-06-28T09:01:37Z</time>
      </trkpt>
      <trkpt lat="49.04151" lon="2.03857">
        <ele>40</ele>
        <time>2022-06-28T09:01:42Z</time>
      </trkpt>
      <trkpt lat="49.04155" lon="2.03852">
        <ele>39.5</ele>
        <time>2022-06-28T09:01:49Z</time>
      </trkpt>
      <trkpt lat="49.04159" lon="2.03849">
        <ele>40.7</ele>
        <time>2022-06-28T09:01:58Z</time>
      </trkpt>
      <trkpt lat="49.04164" lon="2.03848">
        <ele>39.2</ele>
        <time>2022-06-28T09:02:06Z</time>
      </trkpt>
      <trkpt lat="49.04168" lon="2.03843">
        <ele>42.7</ele>
        <time>2022-06-28T09:02:16Z</time>
      </trkpt>
      <trkpt lat="49.04172" lon="2.0384">
        <ele>58.1</ele>
        <time>2022-06-28T09:03:17Z</time>
      </trkpt>
      <trkpt lat="49.04176" lon="2.03838">
        <ele>59.7</ele>
        <time>2022-06-28T09:03:23Z</time>
      </trkpt>
      <trkpt lat="49.0418" lon="2.03834">
        <ele>60.5</ele>
        <time>2022-06-28T09:03:28Z</time>
      </trkpt>
      <trkpt lat="49.04185" lon="2.0383">
        <ele>63</ele>
        <time>2022-06-28T09:03:35Z</time>
      </trkpt>
      <trkpt lat="49.04189" lon="2.03826">
        <ele>62.8</ele>
        <time>2022-06-28T09:03:41Z</time>
      </trkpt>
      <trkpt lat="49.04194" lon="2.03822">
        <ele>64.4</ele>
        <time>2022-06-28T09:03:47Z</time>
      </trkpt>
      <trkpt lat="49.04198" lon="2.03817">
        <ele>67.4</ele>
        <time>2022-06-28T09:03:54Z</time>
      </trkpt>
      <trkpt lat="49.04202" lon="2.03812">
        <ele>70.4</ele>
        <time>2022-06-28T09:04:01Z</time>
      </trkpt>
      <trkpt lat="49.04205" lon="2.03808">
        <ele>69.8</ele>
        <time>2022-06-28T09:04:07Z</time>
      </trkpt>
      <trkpt lat="49.04208" lon="2.03802">
        <ele>73.6</ele>
        <time>2022-06-28T09:04:18Z</time>
      </trkpt>
      <trkpt lat="49.04212" lon="2.03798">
        <ele>82</ele>
        <time>2022-06-28T09:04:28Z</time>
      </trkpt>
      <trkpt lat="49.04214" lon="2.03792">
        <ele>82.3</ele>
        <time>2022-06-28T09:04:33Z</time>
      </trkpt>
      <trkpt lat="49.04217" lon="2.03787">
        <ele>82.4</ele>
        <time>2022-06-28T09:04:39Z</time>
      </trkpt>
      <trkpt lat="49.0422" lon="2.03781">
        <ele>83.3</ele>
        <time>2022-06-28T09:04:51Z</time>
      </trkpt>
      <trkpt lat="49.04218" lon="2.03788">
        <ele>88.6</ele>
        <time>2022-06-28T09:06:31Z</time>
      </trkpt>
      <trkpt lat="49.04222" lon="2.03783">
        <ele>85.5</ele>
        <time>2022-06-28T09:07:01Z</time>
      </trkpt>
      <trkpt lat="49.04219" lon="2.03789">
        <ele>90</ele>
        <time>2022-06-28T09:09:48Z</time>
      </trkpt>
      <trkpt lat="49.04216" lon="2.03795">
        <ele>87.6</ele>
        <time>2022-06-28T09:12:43Z</time>
      </trkpt>
      <trkpt lat="49.04212" lon="2.03798">
        <ele>85.3</ele>
        <time>2022-06-28T09:12:48Z</time>
      </trkpt>
      <trkpt lat="49.04207" lon="2.03801">
        <ele>83.4</ele>
        <time>2022-06-28T09:12:54Z</time>
      </trkpt>
      <trkpt lat="49.04203" lon="2.03804">
        <ele>80.9</ele>
        <time>2022-06-28T09:13:02Z</time>
      </trkpt>
      <trkpt lat="49.04198" lon="2.03809">
        <ele>81.2</ele>
        <time>2022-06-28T09:13:07Z</time>
      </trkpt>
      <trkpt lat="49.04195" lon="2.03815">
        <ele>79.9</ele>
        <time>2022-06-28T09:13:28Z</time>
      </trkpt>
      <trkpt lat="49.04191" lon="2.03819">
        <ele>77.8</ele>
        <time>2022-06-28T09:13:33Z</time>
      </trkpt>
      <trkpt lat="49.04188" lon="2.03824">
        <ele>74.9</ele>
        <time>2022-06-28T09:13:40Z</time>
      </trkpt>
      <trkpt lat="49.04184" lon="2.03829">
        <ele>73.3</ele>
        <time>2022-06-28T09:13:47Z</time>
      </trkpt>
      <trkpt lat="49.0418" lon="2.03832">
        <ele>71.5</ele>
        <time>2022-06-28T09:13:57Z</time>
      </trkpt>
      <trkpt lat="49.04176" lon="2.03835">
        <ele>70.7</ele>
        <time>2022-06-28T09:14:03Z</time>
      </trkpt>
      <trkpt lat="49.04172" lon="2.0384">
        <ele>71</ele>
        <time>2022-06-28T09:14:07Z</time>
      </trkpt>
      <trkpt lat="49.04168" lon="2.03844">
        <ele>69</ele>
        <time>2022-06-28T09:14:11Z</time>
      </trkpt>
      <trkpt lat="49.04164" lon="2.03849">
        <ele>66.9</ele>
        <time>2022-06-28T09:14:19Z</time>
      </trkpt>
      <trkpt lat="49.04161" lon="2.03854">
        <ele>65.9</ele>
        <time>2022-06-28T09:14:25Z</time>
      </trkpt>
      <trkpt lat="49.04159" lon="2.0386">
        <ele>66.1</ele>
        <time>2022-06-28T09:14:32Z</time>
      </trkpt>
      <trkpt lat="49.04163" lon="2.03859">
        <ele>62.7</ele>
        <time>2022-06-28T09:15:14Z</time>
      </trkpt>
      <trkpt lat="49.04162" lon="2.03851">
        <ele>60.8</ele>
        <time>2022-06-28T09:17:29Z</time>
      </trkpt>
      <trkpt lat="49.0416" lon="2.03844">
        <ele>59.4</ele>
        <time>2022-06-28T09:17:34Z</time>
      </trkpt>
      <trkpt lat="49.04156" lon="2.03839">
        <ele>60</ele>
        <time>2022-06-28T09:17:38Z</time>
      </trkpt>
      <trkpt lat="49.04153" lon="2.03832">
        <ele>61.5</ele>
        <time>2022-06-28T09:17:42Z</time>
      </trkpt>
      <trkpt lat="49.0415" lon="2.03826">
        <ele>62.8</ele>
        <time>2022-06-28T09:17:47Z</time>
      </trkpt>
      <trkpt lat="49.04146" lon="2.03821">
        <ele>61.9</ele>
        <time>2022-06-28T09:17:51Z</time>
      </trkpt>
      <trkpt lat="49.04143" lon="2.03816">
        <ele>60.2</ele>
        <time>2022-06-28T09:17:55Z</time>
      </trkpt>
      <trkpt lat="49.04139" lon="2.03811">
        <ele>60.3</ele>
        <time>2022-06-28T09:18:00Z</time>
      </trkpt>
      <trkpt lat="49.04135" lon="2.03805">
        <ele>61</ele>
        <time>2022-06-28T09:18:04Z</time>
      </trkpt>
      <trkpt lat="49.04131" lon="2.038">
        <ele>60.9</ele>
        <time>2022-06-28T09:18:08Z</time>
      </trkpt>
      <trkpt lat="49.04127" lon="2.03794">
        <ele>61.3</ele>
        <time>2022-06-28T09:18:12Z</time>
      </trkpt>
      <trkpt lat="49.04124" lon="2.03789">
        <ele>61.7</ele>
        <time>2022-06-28T09:18:15Z</time>
      </trkpt>
      <trkpt lat="49.0412" lon="2.03783">
        <ele>63</ele>
        <time>2022-06-28T09:18:19Z</time>
      </trkpt>
      <trkpt lat="49.04116" lon="2.03778">
        <ele>60.9</ele>
        <time>2022-06-28T09:18:23Z</time>
      </trkpt>
      <trkpt lat="49.04112" lon="2.03772">
        <ele>64.2</ele>
        <time>2022-06-28T09:18:27Z</time>
      </trkpt>
      <trkpt lat="49.04108" lon="2.03767">
        <ele>63.2</ele>
        <time>2022-06-28T09:18:31Z</time>
      </trkpt>
      <trkpt lat="49.041" lon="2.03769">
        <ele>63.5</ele>
        <time>2022-06-28T09:18:47Z</time>
      </trkpt>
      <trkpt lat="49.04097" lon="2.03763">
        <ele>63.2</ele>
        <time>2022-06-28T09:18:50Z</time>
      </trkpt>
      <trkpt lat="49.04094" lon="2.03756">
        <ele>63.9</ele>
        <time>2022-06-28T09:18:55Z</time>
      </trkpt>
      <trkpt lat="49.04093" lon="2.03749">
        <ele>63.1</ele>
        <time>2022-06-28T09:19:01Z</time>
      </trkpt>
      <trkpt lat="49.04084" lon="2.0373">
        <ele>65.7</ele>
        <time>2022-06-28T09:19:08Z</time>
      </trkpt>
      <trkpt lat="49.0408" lon="2.03724">
        <ele>64.3</ele>
        <time>2022-06-28T09:19:11Z</time>
      </trkpt>
      <trkpt lat="49.04076" lon="2.03719">
        <ele>64.7</ele>
        <time>2022-06-28T09:19:14Z</time>
      </trkpt>
      <trkpt lat="49.04072" lon="2.03713">
        <ele>64.6</ele>
        <time>2022-06-28T09:19:17Z</time>
      </trkpt>
      <trkpt lat="49.04069" lon="2.03709">
        <ele>65</ele>
        <time>2022-06-28T09:19:20Z</time>
      </trkpt>
      <trkpt lat="49.04065" lon="2.03703">
        <ele>65.1</ele>
        <time>2022-06-28T09:19:23Z</time>
      </trkpt>
      <trkpt lat="49.04061" lon="2.03699">
        <ele>64.8</ele>
        <time>2022-06-28T09:19:26Z</time>
      </trkpt>
      <trkpt lat="49.04057" lon="2.03694">
        <ele>64.3</ele>
        <time>2022-06-28T09:19:30Z</time>
      </trkpt>
      <trkpt lat="49.04053" lon="2.03689">
        <ele>65.5</ele>
        <time>2022-06-28T09:19:34Z</time>
      </trkpt>
      <trkpt lat="49.04048" lon="2.03684">
        <ele>61.5</ele>
        <time>2022-06-28T09:19:38Z</time>
      </trkpt>
      <trkpt lat="49.04044" lon="2.03679">
        <ele>60.6</ele>
        <time>2022-06-28T09:19:42Z</time>
      </trkpt>
      <trkpt lat="49.0404" lon="2.03675">
        <ele>58.2</ele>
        <time>2022-06-28T09:19:46Z</time>
      </trkpt>
      <trkpt lat="49.04036" lon="2.03669">
        <ele>57.4</ele>
        <time>2022-06-28T09:19:50Z</time>
      </trkpt>
      <trkpt lat="49.04033" lon="2.03662">
        <ele>57.2</ele>
        <time>2022-06-28T09:19:54Z</time>
      </trkpt>
      <trkpt lat="49.04029" lon="2.03657">
        <ele>56.5</ele>
        <time>2022-06-28T09:19:58Z</time>
      </trkpt>
      <trkpt lat="49.04024" lon="2.03653">
        <ele>57</ele>
        <time>2022-06-28T09:20:02Z</time>
      </trkpt>
      <trkpt lat="49.0402" lon="2.03648">
        <ele>57.4</ele>
        <time>2022-06-28T09:20:06Z</time>
      </trkpt>
      <trkpt lat="49.04016" lon="2.03643">
        <ele>59.6</ele>
        <time>2022-06-28T09:20:10Z</time>
      </trkpt>
      <trkpt lat="49.04012" lon="2.03639">
        <ele>61.5</ele>
        <time>2022-06-28T09:20:14Z</time>
      </trkpt>
      <trkpt lat="49.04008" lon="2.03635">
        <ele>59.8</ele>
        <time>2022-06-28T09:20:18Z</time>
      </trkpt>
      <trkpt lat="49.04003" lon="2.0363">
        <ele>57.1</ele>
        <time>2022-06-28T09:20:22Z</time>
      </trkpt>
      <trkpt lat="49.03999" lon="2.03627">
        <ele>57</ele>
        <time>2022-06-28T09:20:26Z</time>
      </trkpt>
      <trkpt lat="49.03995" lon="2.03623">
        <ele>57.1</ele>
        <time>2022-06-28T09:20:29Z</time>
      </trkpt>
      <trkpt lat="49.0399" lon="2.03616">
        <ele>56.8</ele>
        <time>2022-06-28T09:20:33Z</time>
      </trkpt>
      <trkpt lat="49.03987" lon="2.03612">
        <ele>55.9</ele>
        <time>2022-06-28T09:20:37Z</time>
      </trkpt>
      <trkpt lat="49.03982" lon="2.03606">
        <ele>55.9</ele>
        <time>2022-06-28T09:20:41Z</time>
      </trkpt>
      <trkpt lat="49.03979" lon="2.03601">
        <ele>54.8</ele>
        <time>2022-06-28T09:20:45Z</time>
      </trkpt>
      <trkpt lat="49.03975" lon="2.03595">
        <ele>55.3</ele>
        <time>2022-06-28T09:20:49Z</time>
      </trkpt>
      <trkpt lat="49.03971" lon="2.03591">
        <ele>56.7</ele>
        <time>2022-06-28T09:20:52Z</time>
      </trkpt>
      <trkpt lat="49.03966" lon="2.03587">
        <ele>58.7</ele>
        <time>2022-06-28T09:20:57Z</time>
      </trkpt>
      <trkpt lat="49.0396" lon="2.03582">
        <ele>60.2</ele>
        <time>2022-06-28T09:21:02Z</time>
      </trkpt>
      <trkpt lat="49.03955" lon="2.03578">
        <ele>58.2</ele>
        <time>2022-06-28T09:21:06Z</time>
      </trkpt>
      <trkpt lat="49.0395" lon="2.03575">
        <ele>55.7</ele>
        <time>2022-06-28T09:21:10Z</time>
      </trkpt>
      <trkpt lat="49.03946" lon="2.03571">
        <ele>56.2</ele>
        <time>2022-06-28T09:21:14Z</time>
      </trkpt>
      <trkpt lat="49.03941" lon="2.03567">
        <ele>55.6</ele>
        <time>2022-06-28T09:21:18Z</time>
      </trkpt>
      <trkpt lat="49.03937" lon="2.03563">
        <ele>54.8</ele>
        <time>2022-06-28T09:21:22Z</time>
      </trkpt>
      <trkpt lat="49.03933" lon="2.03557">
        <ele>53.5</ele>
        <time>2022-06-28T09:21:26Z</time>
      </trkpt>
      <trkpt lat="49.03929" lon="2.03552">
        <ele>54.1</ele>
        <time>2022-06-28T09:21:30Z</time>
      </trkpt>
      <trkpt lat="49.03925" lon="2.03547">
        <ele>54.1</ele>
        <time>2022-06-28T09:21:34Z</time>
      </trkpt>
      <trkpt lat="49.03921" lon="2.03543">
        <ele>55.7</ele>
        <time>2022-06-28T09:21:38Z</time>
      </trkpt>
      <trkpt lat="49.03917" lon="2.03537">
        <ele>55.4</ele>
        <time>2022-06-28T09:21:42Z</time>
      </trkpt>
      <trkpt lat="49.03913" lon="2.03533">
        <ele>55.9</ele>
        <time>2022-06-28T09:21:46Z</time>
      </trkpt>
      <trkpt lat="49.03908" lon="2.03529">
        <ele>54.1</ele>
        <time>2022-06-28T09:21:50Z</time>
      </trkpt>
      <trkpt lat="49.03904" lon="2.03526">
        <ele>54.4</ele>
        <time>2022-06-28T09:21:54Z</time>
      </trkpt>
      <trkpt lat="49.03899" lon="2.03523">
        <ele>54.1</ele>
        <time>2022-06-28T09:21:58Z</time>
      </trkpt>
      <trkpt lat="49.03894" lon="2.03519">
        <ele>54.4</ele>
        <time>2022-06-28T09:22:02Z</time>
      </trkpt>
      <trkpt lat="49.0389" lon="2.03515">
        <ele>52</ele>
        <time>2022-06-28T09:22:06Z</time>
      </trkpt>
      <trkpt lat="49.03886" lon="2.0351">
        <ele>52</ele>
        <time>2022-06-28T09:22:10Z</time>
      </trkpt>
      <trkpt lat="49.03882" lon="2.03506">
        <ele>51.3</ele>
        <time>2022-06-28T09:22:14Z</time>
      </trkpt>
      <trkpt lat="49.03877" lon="2.03502">
        <ele>51.1</ele>
        <time>2022-06-28T09:22:18Z</time>
      </trkpt>
      <trkpt lat="49.03872" lon="2.03498">
        <ele>49.5</ele>
        <time>2022-06-28T09:22:23Z</time>
      </trkpt>
      <trkpt lat="49.03867" lon="2.03493">
        <ele>50.1</ele>
        <time>2022-06-28T09:22:28Z</time>
      </trkpt>
      <trkpt lat="49.03862" lon="2.03488">
        <ele>52.7</ele>
        <time>2022-06-28T09:22:32Z</time>
      </trkpt>
      <trkpt lat="49.03858" lon="2.03483">
        <ele>50.9</ele>
        <time>2022-06-28T09:22:36Z</time>
      </trkpt>
      <trkpt lat="49.03853" lon="2.03479">
        <ele>50.7</ele>
        <time>2022-06-28T09:22:40Z</time>
      </trkpt>
      <trkpt lat="49.03848" lon="2.03476">
        <ele>50.5</ele>
        <time>2022-06-28T09:22:44Z</time>
      </trkpt>
      <trkpt lat="49.03844" lon="2.03472">
        <ele>50</ele>
        <time>2022-06-28T09:22:48Z</time>
      </trkpt>
      <trkpt lat="49.0384" lon="2.03468">
        <ele>50.6</ele>
        <time>2022-06-28T09:22:52Z</time>
      </trkpt>
      <trkpt lat="49.03836" lon="2.03464">
        <ele>49.9</ele>
        <time>2022-06-28T09:22:56Z</time>
      </trkpt>
      <trkpt lat="49.03831" lon="2.03459">
        <ele>50.4</ele>
        <time>2022-06-28T09:23:00Z</time>
      </trkpt>
      <trkpt lat="49.03826" lon="2.03455">
        <ele>50.1</ele>
        <time>2022-06-28T09:23:05Z</time>
      </trkpt>
      <trkpt lat="49.03821" lon="2.03451">
        <ele>48.7</ele>
        <time>2022-06-28T09:23:09Z</time>
      </trkpt>
      <trkpt lat="49.03817" lon="2.03447">
        <ele>49.8</ele>
        <time>2022-06-28T09:23:13Z</time>
      </trkpt>
      <trkpt lat="49.03811" lon="2.03443">
        <ele>49.3</ele>
        <time>2022-06-28T09:23:18Z</time>
      </trkpt>
      <trkpt lat="49.03807" lon="2.0344">
        <ele>50.3</ele>
        <time>2022-06-28T09:23:22Z</time>
      </trkpt>
      <trkpt lat="49.03802" lon="2.03437">
        <ele>50.1</ele>
        <time>2022-06-28T09:23:26Z</time>
      </trkpt>
      <trkpt lat="49.03797" lon="2.03435">
        <ele>51.7</ele>
        <time>2022-06-28T09:23:30Z</time>
      </trkpt>
      <trkpt lat="49.03791" lon="2.03431">
        <ele>52.5</ele>
        <time>2022-06-28T09:23:34Z</time>
      </trkpt>
      <trkpt lat="49.03787" lon="2.03427">
        <ele>54.3</ele>
        <time>2022-06-28T09:23:38Z</time>
      </trkpt>
      <trkpt lat="49.03782" lon="2.03422">
        <ele>53.2</ele>
        <time>2022-06-28T09:23:42Z</time>
      </trkpt>
      <trkpt lat="49.03777" lon="2.03418">
        <ele>53.1</ele>
        <time>2022-06-28T09:23:46Z</time>
      </trkpt>
      <trkpt lat="49.03772" lon="2.03415">
        <ele>52</ele>
        <time>2022-06-28T09:23:50Z</time>
      </trkpt>
      <trkpt lat="49.03768" lon="2.03412">
        <ele>51.9</ele>
        <time>2022-06-28T09:23:54Z</time>
      </trkpt>
      <trkpt lat="49.03763" lon="2.03408">
        <ele>52</ele>
        <time>2022-06-28T09:23:58Z</time>
      </trkpt>
      <trkpt lat="49.03759" lon="2.03402">
        <ele>50.7</ele>
        <time>2022-06-28T09:24:02Z</time>
      </trkpt>
      <trkpt lat="49.03755" lon="2.03397">
        <ele>49.1</ele>
        <time>2022-06-28T09:24:06Z</time>
      </trkpt>
      <trkpt lat="49.03752" lon="2.03391">
        <ele>49.9</ele>
        <time>2022-06-28T09:24:10Z</time>
      </trkpt>
      <trkpt lat="49.03748" lon="2.03385">
        <ele>49.6</ele>
        <time>2022-06-28T09:24:15Z</time>
      </trkpt>
      <trkpt lat="49.03744" lon="2.03379">
        <ele>47.2</ele>
        <time>2022-06-28T09:24:19Z</time>
      </trkpt>
      <trkpt lat="49.0374" lon="2.03372">
        <ele>45.1</ele>
        <time>2022-06-28T09:24:24Z</time>
      </trkpt>
      <trkpt lat="49.03737" lon="2.03365">
        <ele>45.1</ele>
        <time>2022-06-28T09:24:28Z</time>
      </trkpt>
      <trkpt lat="49.03734" lon="2.0336">
        <ele>45.7</ele>
        <time>2022-06-28T09:24:32Z</time>
      </trkpt>
      <trkpt lat="49.0373" lon="2.03354">
        <ele>44.9</ele>
        <time>2022-06-28T09:24:36Z</time>
      </trkpt>
      <trkpt lat="49.03727" lon="2.03348">
        <ele>44.9</ele>
        <time>2022-06-28T09:24:40Z</time>
      </trkpt>
      <trkpt lat="49.03725" lon="2.03342">
        <ele>45.6</ele>
        <time>2022-06-28T09:24:44Z</time>
      </trkpt>
      <trkpt lat="49.03722" lon="2.03334">
        <ele>43.7</ele>
        <time>2022-06-28T09:24:48Z</time>
      </trkpt>
      <trkpt lat="49.03719" lon="2.03328">
        <ele>45.7</ele>
        <time>2022-06-28T09:24:52Z</time>
      </trkpt>
      <trkpt lat="49.03717" lon="2.03321">
        <ele>46.5</ele>
        <time>2022-06-28T09:24:56Z</time>
      </trkpt>
      <trkpt lat="49.03715" lon="2.03313">
        <ele>46.7</ele>
        <time>2022-06-28T09:25:00Z</time>
      </trkpt>
      <trkpt lat="49.03712" lon="2.03306">
        <ele>47.5</ele>
        <time>2022-06-28T09:25:04Z</time>
      </trkpt>
      <trkpt lat="49.0371" lon="2.03298">
        <ele>49.6</ele>
        <time>2022-06-28T09:25:08Z</time>
      </trkpt>
      <trkpt lat="49.03707" lon="2.03291">
        <ele>50.9</ele>
        <time>2022-06-28T09:25:13Z</time>
      </trkpt>
      <trkpt lat="49.03705" lon="2.03285">
        <ele>50.9</ele>
        <time>2022-06-28T09:25:16Z</time>
      </trkpt>
      <trkpt lat="49.03702" lon="2.03276">
        <ele>48.6</ele>
        <time>2022-06-28T09:25:21Z</time>
      </trkpt>
      <trkpt lat="49.03699" lon="2.03269">
        <ele>48.3</ele>
        <time>2022-06-28T09:25:25Z</time>
      </trkpt>
      <trkpt lat="49.03697" lon="2.03262">
        <ele>46.3</ele>
        <time>2022-06-28T09:25:28Z</time>
      </trkpt>
      <trkpt lat="49.03696" lon="2.03254">
        <ele>44.4</ele>
        <time>2022-06-28T09:25:33Z</time>
      </trkpt>
      <trkpt lat="49.03695" lon="2.03245">
        <ele>47.6</ele>
        <time>2022-06-28T09:25:38Z</time>
      </trkpt>
      <trkpt lat="49.03695" lon="2.03236">
        <ele>47.9</ele>
        <time>2022-06-28T09:25:42Z</time>
      </trkpt>
      <trkpt lat="49.03694" lon="2.03228">
        <ele>46.3</ele>
        <time>2022-06-28T09:25:46Z</time>
      </trkpt>
      <trkpt lat="49.03693" lon="2.0322">
        <ele>47.1</ele>
        <time>2022-06-28T09:25:50Z</time>
      </trkpt>
      <trkpt lat="49.03692" lon="2.03212">
        <ele>45.7</ele>
        <time>2022-06-28T09:25:54Z</time>
      </trkpt>
      <trkpt lat="49.03693" lon="2.03204">
        <ele>48.1</ele>
        <time>2022-06-28T09:25:58Z</time>
      </trkpt>
      <trkpt lat="49.03692" lon="2.03196">
        <ele>48</ele>
        <time>2022-06-28T09:26:02Z</time>
      </trkpt>
      <trkpt lat="49.03691" lon="2.03187">
        <ele>47.7</ele>
        <time>2022-06-28T09:26:06Z</time>
      </trkpt>
      <trkpt lat="49.0369" lon="2.0318">
        <ele>49.5</ele>
        <time>2022-06-28T09:26:09Z</time>
      </trkpt>
      <trkpt lat="49.03689" lon="2.03174">
        <ele>48.4</ele>
        <time>2022-06-28T09:26:13Z</time>
      </trkpt>
      <trkpt lat="49.03688" lon="2.03166">
        <ele>48</ele>
        <time>2022-06-28T09:26:17Z</time>
      </trkpt>
      <trkpt lat="49.03687" lon="2.03158">
        <ele>48.5</ele>
        <time>2022-06-28T09:26:21Z</time>
      </trkpt>
      <trkpt lat="49.03687" lon="2.03151">
        <ele>49.2</ele>
        <time>2022-06-28T09:26:24Z</time>
      </trkpt>
      <trkpt lat="49.03685" lon="2.03141">
        <ele>48.2</ele>
        <time>2022-06-28T09:26:29Z</time>
      </trkpt>
      <trkpt lat="49.03684" lon="2.03131">
        <ele>47.7</ele>
        <time>2022-06-28T09:26:34Z</time>
      </trkpt>
      <trkpt lat="49.03682" lon="2.03122">
        <ele>48.1</ele>
        <time>2022-06-28T09:26:39Z</time>
      </trkpt>
      <trkpt lat="49.03681" lon="2.03115">
        <ele>47.3</ele>
        <time>2022-06-28T09:26:44Z</time>
      </trkpt>
      <trkpt lat="49.0368" lon="2.03107">
        <ele>46</ele>
        <time>2022-06-28T09:26:48Z</time>
      </trkpt>
      <trkpt lat="49.03679" lon="2.03099">
        <ele>47.1</ele>
        <time>2022-06-28T09:26:52Z</time>
      </trkpt>
      <trkpt lat="49.03677" lon="2.03091">
        <ele>46.8</ele>
        <time>2022-06-28T09:26:56Z</time>
      </trkpt>
      <trkpt lat="49.03675" lon="2.03084">
        <ele>48.2</ele>
        <time>2022-06-28T09:27:00Z</time>
      </trkpt>
      <trkpt lat="49.03674" lon="2.03076">
        <ele>49</ele>
        <time>2022-06-28T09:27:04Z</time>
      </trkpt>
      <trkpt lat="49.03672" lon="2.03068">
        <ele>48</ele>
        <time>2022-06-28T09:27:08Z</time>
      </trkpt>
      <trkpt lat="49.0367" lon="2.03061">
        <ele>47.6</ele>
        <time>2022-06-28T09:27:13Z</time>
      </trkpt>
      <trkpt lat="49.03667" lon="2.03053">
        <ele>46.3</ele>
        <time>2022-06-28T09:27:17Z</time>
      </trkpt>
      <trkpt lat="49.03665" lon="2.03047">
        <ele>46.2</ele>
        <time>2022-06-28T09:27:21Z</time>
      </trkpt>
      <trkpt lat="49.03663" lon="2.0304">
        <ele>46.5</ele>
        <time>2022-06-28T09:27:24Z</time>
      </trkpt>
      <trkpt lat="49.03661" lon="2.03032">
        <ele>46.6</ele>
        <time>2022-06-28T09:27:28Z</time>
      </trkpt>
      <trkpt lat="49.03658" lon="2.03025">
        <ele>44.2</ele>
        <time>2022-06-28T09:27:32Z</time>
      </trkpt>
      <trkpt lat="49.03655" lon="2.03018">
        <ele>44.2</ele>
        <time>2022-06-28T09:27:36Z</time>
      </trkpt>
      <trkpt lat="49.03652" lon="2.03012">
        <ele>42.9</ele>
        <time>2022-06-28T09:27:40Z</time>
      </trkpt>
      <trkpt lat="49.03648" lon="2.03007">
        <ele>43</ele>
        <time>2022-06-28T09:27:44Z</time>
      </trkpt>
      <trkpt lat="49.03643" lon="2.03002">
        <ele>44.1</ele>
        <time>2022-06-28T09:27:48Z</time>
      </trkpt>
      <trkpt lat="49.03639" lon="2.02998">
        <ele>41.9</ele>
        <time>2022-06-28T09:27:52Z</time>
      </trkpt>
      <trkpt lat="49.03635" lon="2.02994">
        <ele>41.9</ele>
        <time>2022-06-28T09:27:56Z</time>
      </trkpt>
      <trkpt lat="49.0363" lon="2.02989">
        <ele>39.8</ele>
        <time>2022-06-28T09:28:00Z</time>
      </trkpt>
      <trkpt lat="49.03626" lon="2.02986">
        <ele>41.3</ele>
        <time>2022-06-28T09:28:04Z</time>
      </trkpt>
      <trkpt lat="49.03621" lon="2.02982">
        <ele>41.8</ele>
        <time>2022-06-28T09:28:08Z</time>
      </trkpt>
      <trkpt lat="49.03617" lon="2.02979">
        <ele>41.9</ele>
        <time>2022-06-28T09:28:12Z</time>
      </trkpt>
      <trkpt lat="49.03613" lon="2.02976">
        <ele>41.7</ele>
        <time>2022-06-28T09:28:15Z</time>
      </trkpt>
      <trkpt lat="49.03607" lon="2.02973">
        <ele>44</ele>
        <time>2022-06-28T09:28:19Z</time>
      </trkpt>
      <trkpt lat="49.03602" lon="2.02971">
        <ele>42.3</ele>
        <time>2022-06-28T09:28:23Z</time>
      </trkpt>
      <trkpt lat="49.03596" lon="2.02969">
        <ele>40</ele>
        <time>2022-06-28T09:28:27Z</time>
      </trkpt>
      <trkpt lat="49.03592" lon="2.02967">
        <ele>41.7</ele>
        <time>2022-06-28T09:28:31Z</time>
      </trkpt>
      <trkpt lat="49.03588" lon="2.02965">
        <ele>42.9</ele>
        <time>2022-06-28T09:28:34Z</time>
      </trkpt>
      <trkpt lat="49.03583" lon="2.02963">
        <ele>42.7</ele>
        <time>2022-06-28T09:28:37Z</time>
      </trkpt>
      <trkpt lat="49.03578" lon="2.02962">
        <ele>42.3</ele>
        <time>2022-06-28T09:28:42Z</time>
      </trkpt>
      <trkpt lat="49.03573" lon="2.02961">
        <ele>41.8</ele>
        <time>2022-06-28T09:28:45Z</time>
      </trkpt>
      <trkpt lat="49.03568" lon="2.02961">
        <ele>40</ele>
        <time>2022-06-28T09:28:49Z</time>
      </trkpt>
      <trkpt lat="49.03562" lon="2.02962">
        <ele>42.5</ele>
        <time>2022-06-28T09:28:53Z</time>
      </trkpt>
      <trkpt lat="49.03557" lon="2.02963">
        <ele>43.5</ele>
        <time>2022-06-28T09:28:58Z</time>
      </trkpt>
      <trkpt lat="49.03552" lon="2.02965">
        <ele>39.8</ele>
        <time>2022-06-28T09:29:02Z</time>
      </trkpt>
      <trkpt lat="49.03547" lon="2.02967">
        <ele>38</ele>
        <time>2022-06-28T09:29:06Z</time>
      </trkpt>
      <trkpt lat="49.03542" lon="2.02968">
        <ele>36.8</ele>
        <time>2022-06-28T09:29:10Z</time>
      </trkpt>
      <trkpt lat="49.03537" lon="2.0297">
        <ele>37.3</ele>
        <time>2022-06-28T09:29:14Z</time>
      </trkpt>
      <trkpt lat="49.03532" lon="2.02972">
        <ele>40.7</ele>
        <time>2022-06-28T09:29:18Z</time>
      </trkpt>
      <trkpt lat="49.03527" lon="2.02974">
        <ele>40.6</ele>
        <time>2022-06-28T09:29:22Z</time>
      </trkpt>
      <trkpt lat="49.03521" lon="2.02976">
        <ele>41.7</ele>
        <time>2022-06-28T09:29:26Z</time>
      </trkpt>
      <trkpt lat="49.03516" lon="2.02978">
        <ele>45.2</ele>
        <time>2022-06-28T09:29:30Z</time>
      </trkpt>
      <trkpt lat="49.03512" lon="2.02982">
        <ele>47.4</ele>
        <time>2022-06-28T09:29:35Z</time>
      </trkpt>
      <trkpt lat="49.03508" lon="2.02987">
        <ele>46.9</ele>
        <time>2022-06-28T09:29:39Z</time>
      </trkpt>
      <trkpt lat="49.03503" lon="2.0299">
        <ele>46.4</ele>
        <time>2022-06-28T09:29:44Z</time>
      </trkpt>
      <trkpt lat="49.03498" lon="2.02991">
        <ele>46.7</ele>
        <time>2022-06-28T09:29:49Z</time>
      </trkpt>
      <trkpt lat="49.03496" lon="2.03">
        <ele>47.9</ele>
        <time>2022-06-28T09:29:56Z</time>
      </trkpt>
      <trkpt lat="49.03497" lon="2.03007">
        <ele>48.9</ele>
        <time>2022-06-28T09:30:01Z</time>
      </trkpt>
      <trkpt lat="49.035" lon="2.03002">
        <ele>47.1</ele>
        <time>2022-06-28T09:30:17Z</time>
      </trkpt>
      <trkpt lat="49.03501" lon="2.02994">
        <ele>45.5</ele>
        <time>2022-06-28T09:33:35Z</time>
      </trkpt>
      <trkpt lat="49.03501" lon="2.03001">
        <ele>46.3</ele>
        <time>2022-06-28T09:35:37Z</time>
      </trkpt>
      <trkpt lat="49.03502" lon="2.0301">
        <ele>47.3</ele>
        <time>2022-06-28T09:35:42Z</time>
      </trkpt>
      <trkpt lat="49.03503" lon="2.03017">
        <ele>47</ele>
        <time>2022-06-28T09:35:45Z</time>
      </trkpt>
      <trkpt lat="49.03505" lon="2.03026">
        <ele>47.7</ele>
        <time>2022-06-28T09:35:48Z</time>
      </trkpt>
      <trkpt lat="49.03506" lon="2.03033">
        <ele>48.4</ele>
        <time>2022-06-28T09:35:51Z</time>
      </trkpt>
      <trkpt lat="49.03507" lon="2.03043">
        <ele>48.5</ele>
        <time>2022-06-28T09:35:55Z</time>
      </trkpt>
      <trkpt lat="49.03503" lon="2.03048">
        <ele>48.9</ele>
        <time>2022-06-28T09:35:59Z</time>
      </trkpt>
      <trkpt lat="49.03501" lon="2.03054">
        <ele>46.4</ele>
        <time>2022-06-28T09:36:03Z</time>
      </trkpt>
      <trkpt lat="49.03501" lon="2.03062">
        <ele>45</ele>
        <time>2022-06-28T09:36:07Z</time>
      </trkpt>
      <trkpt lat="49.03501" lon="2.0307">
        <ele>43.7</ele>
        <time>2022-06-28T09:36:12Z</time>
      </trkpt>
      <trkpt lat="49.03498" lon="2.03078">
        <ele>44.8</ele>
        <time>2022-06-28T09:36:17Z</time>
      </trkpt>
      <trkpt lat="49.03495" lon="2.03083">
        <ele>43.6</ele>
        <time>2022-06-28T09:36:21Z</time>
      </trkpt>
      <trkpt lat="49.03491" lon="2.03088">
        <ele>43.6</ele>
        <time>2022-06-28T09:36:25Z</time>
      </trkpt>
      <trkpt lat="49.03487" lon="2.03093">
        <ele>44.8</ele>
        <time>2022-06-28T09:36:30Z</time>
      </trkpt>
      <trkpt lat="49.03484" lon="2.031">
        <ele>46.1</ele>
        <time>2022-06-28T09:36:35Z</time>
      </trkpt>
      <trkpt lat="49.03482" lon="2.03106">
        <ele>45.9</ele>
        <time>2022-06-28T09:36:39Z</time>
      </trkpt>
      <trkpt lat="49.03479" lon="2.03112">
        <ele>44.6</ele>
        <time>2022-06-28T09:36:43Z</time>
      </trkpt>
      <trkpt lat="49.03476" lon="2.03119">
        <ele>43.8</ele>
        <time>2022-06-28T09:36:47Z</time>
      </trkpt>
      <trkpt lat="49.03474" lon="2.03126">
        <ele>44.1</ele>
        <time>2022-06-28T09:36:51Z</time>
      </trkpt>
      <trkpt lat="49.03471" lon="2.03132">
        <ele>46.5</ele>
        <time>2022-06-28T09:36:55Z</time>
      </trkpt>
      <trkpt lat="49.03468" lon="2.03138">
        <ele>46</ele>
        <time>2022-06-28T09:36:59Z</time>
      </trkpt>
      <trkpt lat="49.03463" lon="2.0314">
        <ele>43.8</ele>
        <time>2022-06-28T09:37:04Z</time>
      </trkpt>
      <trkpt lat="49.03458" lon="2.03138">
        <ele>44.2</ele>
        <time>2022-06-28T09:37:08Z</time>
      </trkpt>
      <trkpt lat="49.03453" lon="2.03135">
        <ele>45.5</ele>
        <time>2022-06-28T09:37:12Z</time>
      </trkpt>
      <trkpt lat="49.03448" lon="2.03132">
        <ele>45.3</ele>
        <time>2022-06-28T09:37:17Z</time>
      </trkpt>
      <trkpt lat="49.03443" lon="2.0313">
        <ele>46</ele>
        <time>2022-06-28T09:37:22Z</time>
      </trkpt>
      <trkpt lat="49.03438" lon="2.0313">
        <ele>46.6</ele>
        <time>2022-06-28T09:37:27Z</time>
      </trkpt>
      <trkpt lat="49.03432" lon="2.03132">
        <ele>47.3</ele>
        <time>2022-06-28T09:37:32Z</time>
      </trkpt>
      <trkpt lat="49.03427" lon="2.03133">
        <ele>48.4</ele>
        <time>2022-06-28T09:37:37Z</time>
      </trkpt>
      <trkpt lat="49.03422" lon="2.03132">
        <ele>47.5</ele>
        <time>2022-06-28T09:37:41Z</time>
      </trkpt>
      <trkpt lat="49.03417" lon="2.03133">
        <ele>46.2</ele>
        <time>2022-06-28T09:37:46Z</time>
      </trkpt>
      <trkpt lat="49.03413" lon="2.03137">
        <ele>46</ele>
        <time>2022-06-28T09:37:50Z</time>
      </trkpt>
      <trkpt lat="49.0341" lon="2.03142">
        <ele>44.6</ele>
        <time>2022-06-28T09:37:54Z</time>
      </trkpt>
      <trkpt lat="49.03406" lon="2.03148">
        <ele>45.8</ele>
        <time>2022-06-28T09:37:58Z</time>
      </trkpt>
      <trkpt lat="49.03401" lon="2.03151">
        <ele>45.1</ele>
        <time>2022-06-28T09:38:02Z</time>
      </trkpt>
      <trkpt lat="49.03397" lon="2.03153">
        <ele>43.9</ele>
        <time>2022-06-28T09:38:06Z</time>
      </trkpt>
      <trkpt lat="49.03391" lon="2.03156">
        <ele>40.4</ele>
        <time>2022-06-28T09:38:11Z</time>
      </trkpt>
      <trkpt lat="49.03387" lon="2.03158">
        <ele>39.2</ele>
        <time>2022-06-28T09:38:15Z</time>
      </trkpt>
      <trkpt lat="49.03382" lon="2.03158">
        <ele>40.3</ele>
        <time>2022-06-28T09:38:19Z</time>
      </trkpt>
      <trkpt lat="49.03377" lon="2.03158">
        <ele>41.1</ele>
        <time>2022-06-28T09:38:23Z</time>
      </trkpt>
      <trkpt lat="49.03372" lon="2.03159">
        <ele>43.3</ele>
        <time>2022-06-28T09:38:27Z</time>
      </trkpt>
      <trkpt lat="49.03367" lon="2.03156">
        <ele>45.1</ele>
        <time>2022-06-28T09:38:31Z</time>
      </trkpt>
      <trkpt lat="49.03367" lon="2.03147">
        <ele>49.1</ele>
        <time>2022-06-28T09:38:36Z</time>
      </trkpt>
      <trkpt lat="49.03368" lon="2.03139">
        <ele>51.5</ele>
        <time>2022-06-28T09:38:40Z</time>
      </trkpt>
      <trkpt lat="49.03368" lon="2.03131">
        <ele>49.9</ele>
        <time>2022-06-28T09:38:44Z</time>
      </trkpt>
      <trkpt lat="49.0337" lon="2.03124">
        <ele>45.7</ele>
        <time>2022-06-28T09:38:48Z</time>
      </trkpt>
      <trkpt lat="49.03372" lon="2.03117">
        <ele>48.9</ele>
        <time>2022-06-28T09:38:52Z</time>
      </trkpt>
      <trkpt lat="49.03375" lon="2.0311">
        <ele>51.5</ele>
        <time>2022-06-28T09:38:57Z</time>
      </trkpt>
      <trkpt lat="49.03378" lon="2.03105">
        <ele>52.4</ele>
        <time>2022-06-28T09:39:02Z</time>
      </trkpt>
      <trkpt lat="49.03381" lon="2.031">
        <ele>54.5</ele>
        <time>2022-06-28T09:39:07Z</time>
      </trkpt>
      <trkpt lat="49.03381" lon="2.03091">
        <ele>54</ele>
        <time>2022-06-28T09:39:12Z</time>
      </trkpt>
      <trkpt lat="49.03382" lon="2.03084">
        <ele>54.7</ele>
        <time>2022-06-28T09:39:18Z</time>
      </trkpt>
      <trkpt lat="49.03384" lon="2.03076">
        <ele>53.6</ele>
        <time>2022-06-28T09:39:24Z</time>
      </trkpt>
      <trkpt lat="49.03385" lon="2.03069">
        <ele>54.8</ele>
        <time>2022-06-28T09:39:29Z</time>
      </trkpt>
      <trkpt lat="49.03386" lon="2.03062">
        <ele>53.5</ele>
        <time>2022-06-28T09:39:34Z</time>
      </trkpt>
      <trkpt lat="49.03389" lon="2.03054">
        <ele>55.8</ele>
        <time>2022-06-28T09:39:39Z</time>
      </trkpt>
      <trkpt lat="49.03391" lon="2.03046">
        <ele>56.4</ele>
        <time>2022-06-28T09:39:44Z</time>
      </trkpt>
      <trkpt lat="49.03393" lon="2.03039">
        <ele>55</ele>
        <time>2022-06-28T09:39:48Z</time>
      </trkpt>
      <trkpt lat="49.03395" lon="2.03032">
        <ele>58.5</ele>
        <time>2022-06-28T09:39:53Z</time>
      </trkpt>
      <trkpt lat="49.03397" lon="2.03023">
        <ele>60.8</ele>
        <time>2022-06-28T09:39:57Z</time>
      </trkpt>
      <trkpt lat="49.03398" lon="2.03016">
        <ele>60.4</ele>
        <time>2022-06-28T09:40:01Z</time>
      </trkpt>
      <trkpt lat="49.034" lon="2.03008">
        <ele>60</ele>
        <time>2022-06-28T09:40:05Z</time>
      </trkpt>
      <trkpt lat="49.03401" lon="2.03001">
        <ele>62.5</ele>
        <time>2022-06-28T09:40:10Z</time>
      </trkpt>
      <trkpt lat="49.03403" lon="2.02994">
        <ele>63.9</ele>
        <time>2022-06-28T09:40:14Z</time>
      </trkpt>
      <trkpt lat="49.03405" lon="2.02986">
        <ele>62.8</ele>
        <time>2022-06-28T09:40:19Z</time>
      </trkpt>
      <trkpt lat="49.03407" lon="2.02979">
        <ele>62.5</ele>
        <time>2022-06-28T09:40:24Z</time>
      </trkpt>
      <trkpt lat="49.03408" lon="2.02972">
        <ele>63.1</ele>
        <time>2022-06-28T09:40:28Z</time>
      </trkpt>
      <trkpt lat="49.03408" lon="2.02963">
        <ele>64.6</ele>
        <time>2022-06-28T09:40:33Z</time>
      </trkpt>
      <trkpt lat="49.03408" lon="2.02956">
        <ele>64.4</ele>
        <time>2022-06-28T09:40:37Z</time>
      </trkpt>
      <trkpt lat="49.03404" lon="2.0296">
        <ele>61.5</ele>
        <time>2022-06-28T09:40:43Z</time>
      </trkpt>
      <trkpt lat="49.03403" lon="2.02968">
        <ele>61.8</ele>
        <time>2022-06-28T09:40:48Z</time>
      </trkpt>
      <trkpt lat="49.03402" lon="2.02976">
        <ele>60.7</ele>
        <time>2022-06-28T09:40:52Z</time>
      </trkpt>
      <trkpt lat="49.034" lon="2.02983">
        <ele>62.9</ele>
        <time>2022-06-28T09:40:56Z</time>
      </trkpt>
      <trkpt lat="49.03399" lon="2.02991">
        <ele>62</ele>
        <time>2022-06-28T09:41:00Z</time>
      </trkpt>
      <trkpt lat="49.03397" lon="2.02998">
        <ele>62.3</ele>
        <time>2022-06-28T09:41:05Z</time>
      </trkpt>
      <trkpt lat="49.03393" lon="2.03003">
        <ele>64.1</ele>
        <time>2022-06-28T09:41:09Z</time>
      </trkpt>
      <trkpt lat="49.03388" lon="2.03004">
        <ele>68</ele>
        <time>2022-06-28T09:41:14Z</time>
      </trkpt>
      <trkpt lat="49.03383" lon="2.03004">
        <ele>66.7</ele>
        <time>2022-06-28T09:41:18Z</time>
      </trkpt>
      <trkpt lat="49.03377" lon="2.03003">
        <ele>66.1</ele>
        <time>2022-06-28T09:41:22Z</time>
      </trkpt>
      <trkpt lat="49.03372" lon="2.03002">
        <ele>67.3</ele>
        <time>2022-06-28T09:41:27Z</time>
      </trkpt>
      <trkpt lat="49.03367" lon="2.03">
        <ele>70.6</ele>
        <time>2022-06-28T09:41:31Z</time>
      </trkpt>
      <trkpt lat="49.03362" lon="2.02997">
        <ele>70.6</ele>
        <time>2022-06-28T09:41:36Z</time>
      </trkpt>
      <trkpt lat="49.03357" lon="2.02992">
        <ele>73.2</ele>
        <time>2022-06-28T09:41:41Z</time>
      </trkpt>
      <trkpt lat="49.03353" lon="2.02987">
        <ele>72.8</ele>
        <time>2022-06-28T09:41:48Z</time>
      </trkpt>
      <trkpt lat="49.03348" lon="2.02983">
        <ele>70.4</ele>
        <time>2022-06-28T09:41:53Z</time>
      </trkpt>
      <trkpt lat="49.03344" lon="2.02985">
        <ele>73.4</ele>
        <time>2022-06-28T09:41:57Z</time>
      </trkpt>
      <trkpt lat="49.03339" lon="2.02989">
        <ele>73.7</ele>
        <time>2022-06-28T09:42:02Z</time>
      </trkpt>
      <trkpt lat="49.03334" lon="2.02992">
        <ele>75</ele>
        <time>2022-06-28T09:42:06Z</time>
      </trkpt>
      <trkpt lat="49.0333" lon="2.02991">
        <ele>74.8</ele>
        <time>2022-06-28T09:42:11Z</time>
      </trkpt>
      <trkpt lat="49.03326" lon="2.02984">
        <ele>76.1</ele>
        <time>2022-06-28T09:42:16Z</time>
      </trkpt>
      <trkpt lat="49.03324" lon="2.02977">
        <ele>76.1</ele>
        <time>2022-06-28T09:42:19Z</time>
      </trkpt>
      <trkpt lat="49.03322" lon="2.02969">
        <ele>73</ele>
        <time>2022-06-28T09:42:24Z</time>
      </trkpt>
      <trkpt lat="49.03319" lon="2.02962">
        <ele>71.2</ele>
        <time>2022-06-28T09:42:28Z</time>
      </trkpt>
      <trkpt lat="49.03317" lon="2.02956">
        <ele>70.8</ele>
        <time>2022-06-28T09:42:33Z</time>
      </trkpt>
      <trkpt lat="49.03317" lon="2.02949">
        <ele>71.9</ele>
        <time>2022-06-28T09:42:37Z</time>
      </trkpt>
      <trkpt lat="49.03314" lon="2.02943">
        <ele>72.3</ele>
        <time>2022-06-28T09:42:43Z</time>
      </trkpt>
      <trkpt lat="49.03309" lon="2.02941">
        <ele>76.1</ele>
        <time>2022-06-28T09:42:47Z</time>
      </trkpt>
      <trkpt lat="49.03304" lon="2.02939">
        <ele>74.8</ele>
        <time>2022-06-28T09:42:52Z</time>
      </trkpt>
      <trkpt lat="49.03299" lon="2.02944">
        <ele>76.9</ele>
        <time>2022-06-28T09:42:56Z</time>
      </trkpt>
      <trkpt lat="49.03295" lon="2.02946">
        <ele>80</ele>
        <time>2022-06-28T09:43:00Z</time>
      </trkpt>
      <trkpt lat="49.03291" lon="2.02942">
        <ele>83.1</ele>
        <time>2022-06-28T09:43:06Z</time>
      </trkpt>
      <trkpt lat="49.03285" lon="2.02939">
        <ele>83.7</ele>
        <time>2022-06-28T09:43:11Z</time>
      </trkpt>
      <trkpt lat="49.03281" lon="2.02935">
        <ele>83.6</ele>
        <time>2022-06-28T09:43:16Z</time>
      </trkpt>
      <trkpt lat="49.03277" lon="2.02934">
        <ele>83.8</ele>
        <time>2022-06-28T09:43:21Z</time>
      </trkpt>
      <trkpt lat="49.03273" lon="2.02938">
        <ele>83.6</ele>
        <time>2022-06-28T09:43:25Z</time>
      </trkpt>
      <trkpt lat="49.03269" lon="2.02942">
        <ele>84.9</ele>
        <time>2022-06-28T09:43:29Z</time>
      </trkpt>
      <trkpt lat="49.03264" lon="2.02944">
        <ele>88</ele>
        <time>2022-06-28T09:43:34Z</time>
      </trkpt>
      <trkpt lat="49.03259" lon="2.02941">
        <ele>87</ele>
        <time>2022-06-28T09:43:39Z</time>
      </trkpt>
      <trkpt lat="49.03254" lon="2.02938">
        <ele>88.6</ele>
        <time>2022-06-28T09:43:43Z</time>
      </trkpt>
      <trkpt lat="49.03249" lon="2.02934">
        <ele>87.7</ele>
        <time>2022-06-28T09:43:48Z</time>
      </trkpt>
      <trkpt lat="49.03246" lon="2.02928">
        <ele>90</ele>
        <time>2022-06-28T09:43:53Z</time>
      </trkpt>
      <trkpt lat="49.03241" lon="2.02927">
        <ele>87.8</ele>
        <time>2022-06-28T09:43:58Z</time>
      </trkpt>
      <trkpt lat="49.03236" lon="2.02927">
        <ele>88.6</ele>
        <time>2022-06-28T09:44:03Z</time>
      </trkpt>
      <trkpt lat="49.0323" lon="2.02927">
        <ele>88.3</ele>
        <time>2022-06-28T09:44:08Z</time>
      </trkpt>
      <trkpt lat="49.03225" lon="2.02928">
        <ele>89.9</ele>
        <time>2022-06-28T09:44:13Z</time>
      </trkpt>
      <trkpt lat="49.03219" lon="2.02929">
        <ele>90.3</ele>
        <time>2022-06-28T09:44:18Z</time>
      </trkpt>
      <trkpt lat="49.03215" lon="2.02928">
        <ele>90.1</ele>
        <time>2022-06-28T09:44:22Z</time>
      </trkpt>
      <trkpt lat="49.0321" lon="2.02925">
        <ele>89.7</ele>
        <time>2022-06-28T09:44:26Z</time>
      </trkpt>
      <trkpt lat="49.03207" lon="2.0292">
        <ele>86.2</ele>
        <time>2022-06-28T09:44:30Z</time>
      </trkpt>
      <trkpt lat="49.03205" lon="2.02913">
        <ele>85.5</ele>
        <time>2022-06-28T09:44:35Z</time>
      </trkpt>
      <trkpt lat="49.03204" lon="2.02906">
        <ele>86.3</ele>
        <time>2022-06-28T09:44:39Z</time>
      </trkpt>
      <trkpt lat="49.03202" lon="2.02897">
        <ele>84.6</ele>
        <time>2022-06-28T09:44:44Z</time>
      </trkpt>
      <trkpt lat="49.032" lon="2.0289">
        <ele>85.1</ele>
        <time>2022-06-28T09:44:48Z</time>
      </trkpt>
      <trkpt lat="49.03196" lon="2.02884">
        <ele>85.3</ele>
        <time>2022-06-28T09:44:52Z</time>
      </trkpt>
      <trkpt lat="49.03194" lon="2.02877">
        <ele>84.2</ele>
        <time>2022-06-28T09:44:57Z</time>
      </trkpt>
      <trkpt lat="49.03192" lon="2.02869">
        <ele>83.3</ele>
        <time>2022-06-28T09:45:01Z</time>
      </trkpt>
      <trkpt lat="49.03191" lon="2.02862">
        <ele>83.5</ele>
        <time>2022-06-28T09:45:06Z</time>
      </trkpt>
      <trkpt lat="49.03186" lon="2.02863">
        <ele>80.3</ele>
        <time>2022-06-28T09:48:02Z</time>
      </trkpt>
      <trkpt lat="49.0318" lon="2.02864">
        <ele>81.2</ele>
        <time>2022-06-28T09:48:07Z</time>
      </trkpt>
      <trkpt lat="49.03175" lon="2.02867">
        <ele>81.8</ele>
        <time>2022-06-28T09:48:11Z</time>
      </trkpt>
      <trkpt lat="49.03171" lon="2.0287">
        <ele>80.6</ele>
        <time>2022-06-28T09:48:15Z</time>
      </trkpt>
      <trkpt lat="49.03166" lon="2.02872">
        <ele>82</ele>
        <time>2022-06-28T09:48:19Z</time>
      </trkpt>
      <trkpt lat="49.0316" lon="2.02874">
        <ele>81.2</ele>
        <time>2022-06-28T09:48:23Z</time>
      </trkpt>
      <trkpt lat="49.03156" lon="2.02875">
        <ele>83.2</ele>
        <time>2022-06-28T09:48:27Z</time>
      </trkpt>
      <trkpt lat="49.03151" lon="2.02878">
        <ele>83.2</ele>
        <time>2022-06-28T09:48:31Z</time>
      </trkpt>
      <trkpt lat="49.03147" lon="2.02881">
        <ele>83.1</ele>
        <time>2022-06-28T09:48:35Z</time>
      </trkpt>
      <trkpt lat="49.03142" lon="2.02882">
        <ele>82.1</ele>
        <time>2022-06-28T09:48:40Z</time>
      </trkpt>
      <trkpt lat="49.03137" lon="2.02883">
        <ele>80.1</ele>
        <time>2022-06-28T09:48:44Z</time>
      </trkpt>
      <trkpt lat="49.03132" lon="2.02885">
        <ele>83.2</ele>
        <time>2022-06-28T09:48:48Z</time>
      </trkpt>
      <trkpt lat="49.03128" lon="2.02887">
        <ele>81.4</ele>
        <time>2022-06-28T09:48:53Z</time>
      </trkpt>
      <trkpt lat="49.03123" lon="2.02889">
        <ele>80.1</ele>
        <time>2022-06-28T09:48:57Z</time>
      </trkpt>
      <trkpt lat="49.03119" lon="2.02891">
        <ele>77.9</ele>
        <time>2022-06-28T09:49:02Z</time>
      </trkpt>
      <trkpt lat="49.03114" lon="2.02892">
        <ele>76.7</ele>
        <time>2022-06-28T09:49:06Z</time>
      </trkpt>
      <trkpt lat="49.03108" lon="2.0289">
        <ele>79.6</ele>
        <time>2022-06-28T09:49:12Z</time>
      </trkpt>
      <trkpt lat="49.03103" lon="2.0289">
        <ele>78.8</ele>
        <time>2022-06-28T09:49:16Z</time>
      </trkpt>
      <trkpt lat="49.03099" lon="2.02892">
        <ele>78.6</ele>
        <time>2022-06-28T09:49:21Z</time>
      </trkpt>
      <trkpt lat="49.03094" lon="2.02893">
        <ele>79</ele>
        <time>2022-06-28T09:49:28Z</time>
      </trkpt>
      <trkpt lat="49.03091" lon="2.02904">
        <ele>75.6</ele>
        <time>2022-06-28T09:49:53Z</time>
      </trkpt>
      <trkpt lat="49.03092" lon="2.02912">
        <ele>81</ele>
        <time>2022-06-28T09:49:59Z</time>
      </trkpt>
      <trkpt lat="49.03088" lon="2.02908">
        <ele>88.2</ele>
        <time>2022-06-28T09:50:44Z</time>
      </trkpt>
      <trkpt lat="49.03086" lon="2.02902">
        <ele>87.3</ele>
        <time>2022-06-28T09:51:59Z</time>
      </trkpt>
      <trkpt lat="49.03084" lon="2.02894">
        <ele>87.4</ele>
        <time>2022-06-28T09:52:05Z</time>
      </trkpt>
      <trkpt lat="49.03086" lon="2.02886">
        <ele>86.2</ele>
        <time>2022-06-28T09:52:11Z</time>
      </trkpt>
      <trkpt lat="49.0309" lon="2.02889">
        <ele>83.8</ele>
        <time>2022-06-28T09:52:30Z</time>
      </trkpt>
      <trkpt lat="49.03095" lon="2.02888">
        <ele>84.1</ele>
        <time>2022-06-28T09:52:35Z</time>
      </trkpt>
      <trkpt lat="49.031" lon="2.02885">
        <ele>82.1</ele>
        <time>2022-06-28T09:52:39Z</time>
      </trkpt>
      <trkpt lat="49.03105" lon="2.02883">
        <ele>83.3</ele>
        <time>2022-06-28T09:52:43Z</time>
      </trkpt>
      <trkpt lat="49.0311" lon="2.02882">
        <ele>86.7</ele>
        <time>2022-06-28T09:52:47Z</time>
      </trkpt>
      <trkpt lat="49.03115" lon="2.02884">
        <ele>85.6</ele>
        <time>2022-06-28T09:52:53Z</time>
      </trkpt>
      <trkpt lat="49.0312" lon="2.02886">
        <ele>84.1</ele>
        <time>2022-06-28T09:52:59Z</time>
      </trkpt>
      <trkpt lat="49.03125" lon="2.02884">
        <ele>87</ele>
        <time>2022-06-28T09:53:04Z</time>
      </trkpt>
      <trkpt lat="49.03129" lon="2.02891">
        <ele>84.1</ele>
        <time>2022-06-28T09:53:12Z</time>
      </trkpt>
      <trkpt lat="49.03129" lon="2.02899">
        <ele>81.7</ele>
        <time>2022-06-28T09:53:17Z</time>
      </trkpt>
      <trkpt lat="49.03128" lon="2.02907">
        <ele>80.7</ele>
        <time>2022-06-28T09:53:22Z</time>
      </trkpt>
      <trkpt lat="49.03129" lon="2.02916">
        <ele>80.9</ele>
        <time>2022-06-28T09:53:27Z</time>
      </trkpt>
      <trkpt lat="49.03127" lon="2.02923">
        <ele>82.1</ele>
        <time>2022-06-28T09:53:31Z</time>
      </trkpt>
      <trkpt lat="49.03125" lon="2.0293">
        <ele>80.2</ele>
        <time>2022-06-28T09:53:35Z</time>
      </trkpt>
      <trkpt lat="49.03124" lon="2.02937">
        <ele>82.3</ele>
        <time>2022-06-28T09:53:40Z</time>
      </trkpt>
      <trkpt lat="49.03123" lon="2.02944">
        <ele>82.2</ele>
        <time>2022-06-28T09:53:45Z</time>
      </trkpt>
      <trkpt lat="49.03124" lon="2.02951">
        <ele>82</ele>
        <time>2022-06-28T09:53:50Z</time>
      </trkpt>
      <trkpt lat="49.03127" lon="2.02956">
        <ele>81.9</ele>
        <time>2022-06-28T09:53:53Z</time>
      </trkpt>
      <trkpt lat="49.03129" lon="2.02964">
        <ele>79.7</ele>
        <time>2022-06-28T09:53:58Z</time>
      </trkpt>
      <trkpt lat="49.0313" lon="2.02971">
        <ele>77.1</ele>
        <time>2022-06-28T09:54:05Z</time>
      </trkpt>
      <trkpt lat="49.03131" lon="2.02978">
        <ele>77.2</ele>
        <time>2022-06-28T09:54:12Z</time>
      </trkpt>
      <trkpt lat="49.03132" lon="2.02986">
        <ele>76.6</ele>
        <time>2022-06-28T09:54:19Z</time>
      </trkpt>
      <trkpt lat="49.03132" lon="2.02994">
        <ele>77.6</ele>
        <time>2022-06-28T09:54:27Z</time>
      </trkpt>
      <trkpt lat="49.03129" lon="2.02999">
        <ele>78.1</ele>
        <time>2022-06-28T09:54:36Z</time>
      </trkpt>
      <trkpt lat="49.03125" lon="2.03002">
        <ele>78.5</ele>
        <time>2022-06-28T09:54:43Z</time>
      </trkpt>
      <trkpt lat="49.03121" lon="2.03006">
        <ele>80.3</ele>
        <time>2022-06-28T09:54:50Z</time>
      </trkpt>
      <trkpt lat="49.0312" lon="2.03013">
        <ele>79.2</ele>
        <time>2022-06-28T09:54:57Z</time>
      </trkpt>
      <trkpt lat="49.03121" lon="2.03021">
        <ele>76.4</ele>
        <time>2022-06-28T09:55:08Z</time>
      </trkpt>
      <trkpt lat="49.03121" lon="2.03029">
        <ele>73.2</ele>
        <time>2022-06-28T09:55:18Z</time>
      </trkpt>
      <trkpt lat="49.0312" lon="2.03037">
        <ele>71.9</ele>
        <time>2022-06-28T09:55:25Z</time>
      </trkpt>
      <trkpt lat="49.03119" lon="2.03045">
        <ele>66.6</ele>
        <time>2022-06-28T09:55:30Z</time>
      </trkpt>
      <trkpt lat="49.03119" lon="2.03052">
        <ele>64</ele>
        <time>2022-06-28T09:55:36Z</time>
      </trkpt>
      <trkpt lat="49.03118" lon="2.0306">
        <ele>64.1</ele>
        <time>2022-06-28T09:55:42Z</time>
      </trkpt>
      <trkpt lat="49.03118" lon="2.03068">
        <ele>64.3</ele>
        <time>2022-06-28T09:55:48Z</time>
      </trkpt>
      <trkpt lat="49.03113" lon="2.0307">
        <ele>63.7</ele>
        <time>2022-06-28T09:55:54Z</time>
      </trkpt>
      <trkpt lat="49.03108" lon="2.03067">
        <ele>61</ele>
        <time>2022-06-28T09:55:58Z</time>
      </trkpt>
      <trkpt lat="49.03104" lon="2.03063">
        <ele>59.5</ele>
        <time>2022-06-28T09:56:02Z</time>
      </trkpt>
      <trkpt lat="49.03099" lon="2.03059">
        <ele>59.6</ele>
        <time>2022-06-28T09:56:08Z</time>
      </trkpt>
      <trkpt lat="49.03095" lon="2.03056">
        <ele>61.3</ele>
        <time>2022-06-28T09:56:13Z</time>
      </trkpt>
      <trkpt lat="49.0309" lon="2.03055">
        <ele>57</ele>
        <time>2022-06-28T09:56:18Z</time>
      </trkpt>
      <trkpt lat="49.03084" lon="2.03053">
        <ele>55</ele>
        <time>2022-06-28T09:56:23Z</time>
      </trkpt>
      <trkpt lat="49.03079" lon="2.03052">
        <ele>56.5</ele>
        <time>2022-06-28T09:56:28Z</time>
      </trkpt>
      <trkpt lat="49.03074" lon="2.03051">
        <ele>53.7</ele>
        <time>2022-06-28T09:56:33Z</time>
      </trkpt>
      <trkpt lat="49.03069" lon="2.03051">
        <ele>50.9</ele>
        <time>2022-06-28T09:56:38Z</time>
      </trkpt>
      <trkpt lat="49.03064" lon="2.03052">
        <ele>50.2</ele>
        <time>2022-06-28T09:56:42Z</time>
      </trkpt>
      <trkpt lat="49.03059" lon="2.03053">
        <ele>50.7</ele>
        <time>2022-06-28T09:56:47Z</time>
      </trkpt>
      <trkpt lat="49.03054" lon="2.03054">
        <ele>50.4</ele>
        <time>2022-06-28T09:56:53Z</time>
      </trkpt>
      <trkpt lat="49.0305" lon="2.03051">
        <ele>51.3</ele>
        <time>2022-06-28T09:57:04Z</time>
      </trkpt>
      <trkpt lat="49.03044" lon="2.03053">
        <ele>50.5</ele>
        <time>2022-06-28T09:57:08Z</time>
      </trkpt>
      <trkpt lat="49.03038" lon="2.03056">
        <ele>48.9</ele>
        <time>2022-06-28T09:57:12Z</time>
      </trkpt>
      <trkpt lat="49.03032" lon="2.03059">
        <ele>49.5</ele>
        <time>2022-06-28T09:57:17Z</time>
      </trkpt>
      <trkpt lat="49.03027" lon="2.03062">
        <ele>50.6</ele>
        <time>2022-06-28T09:57:22Z</time>
      </trkpt>
      <trkpt lat="49.03022" lon="2.03065">
        <ele>50</ele>
        <time>2022-06-28T09:57:27Z</time>
      </trkpt>
      <trkpt lat="49.03018" lon="2.03067">
        <ele>49.8</ele>
        <time>2022-06-28T09:57:33Z</time>
      </trkpt>
      <trkpt lat="49.03013" lon="2.03069">
        <ele>51.1</ele>
        <time>2022-06-28T09:57:39Z</time>
      </trkpt>
      <trkpt lat="49.03008" lon="2.03072">
        <ele>53.4</ele>
        <time>2022-06-28T09:57:45Z</time>
      </trkpt>
      <trkpt lat="49.03004" lon="2.03075">
        <ele>54.4</ele>
        <time>2022-06-28T09:57:50Z</time>
      </trkpt>
      <trkpt lat="49.03" lon="2.03078">
        <ele>56.8</ele>
        <time>2022-06-28T09:57:54Z</time>
      </trkpt>
      <trkpt lat="49.02995" lon="2.03079">
        <ele>49.6</ele>
        <time>2022-06-28T09:58:00Z</time>
      </trkpt>
      <trkpt lat="49.02991" lon="2.03079">
        <ele>46.9</ele>
        <time>2022-06-28T09:58:05Z</time>
      </trkpt>
      <trkpt lat="49.02985" lon="2.03079">
        <ele>47.4</ele>
        <time>2022-06-28T09:58:11Z</time>
      </trkpt>
      <trkpt lat="49.02981" lon="2.03081">
        <ele>44.4</ele>
        <time>2022-06-28T09:58:15Z</time>
      </trkpt>
      <trkpt lat="49.02975" lon="2.03084">
        <ele>45.7</ele>
        <time>2022-06-28T09:58:20Z</time>
      </trkpt>
      <trkpt lat="49.02971" lon="2.03086">
        <ele>47.6</ele>
        <time>2022-06-28T09:58:24Z</time>
      </trkpt>
      <trkpt lat="49.02966" lon="2.03089">
        <ele>48.7</ele>
        <time>2022-06-28T09:58:28Z</time>
      </trkpt>
      <trkpt lat="49.0296" lon="2.03089">
        <ele>50.8</ele>
        <time>2022-06-28T09:58:33Z</time>
      </trkpt>
      <trkpt lat="49.02954" lon="2.03089">
        <ele>52</ele>
        <time>2022-06-28T09:58:38Z</time>
      </trkpt>
      <trkpt lat="49.02949" lon="2.03092">
        <ele>51.5</ele>
        <time>2022-06-28T09:58:43Z</time>
      </trkpt>
      <trkpt lat="49.02943" lon="2.03096">
        <ele>51.2</ele>
        <time>2022-06-28T09:58:48Z</time>
      </trkpt>
      <trkpt lat="49.02939" lon="2.03095">
        <ele>50.8</ele>
        <time>2022-06-28T09:58:53Z</time>
      </trkpt>
      <trkpt lat="49.02934" lon="2.03096">
        <ele>51.1</ele>
        <time>2022-06-28T09:58:58Z</time>
      </trkpt>
      <trkpt lat="49.02928" lon="2.03097">
        <ele>51.2</ele>
        <time>2022-06-28T09:59:03Z</time>
      </trkpt>
      <trkpt lat="49.02923" lon="2.03098">
        <ele>51.4</ele>
        <time>2022-06-28T09:59:08Z</time>
      </trkpt>
      <trkpt lat="49.02917" lon="2.031">
        <ele>49.5</ele>
        <time>2022-06-28T09:59:13Z</time>
      </trkpt>
      <trkpt lat="49.02911" lon="2.03103">
        <ele>51.2</ele>
        <time>2022-06-28T09:59:18Z</time>
      </trkpt>
      <trkpt lat="49.02906" lon="2.03105">
        <ele>51.3</ele>
        <time>2022-06-28T09:59:23Z</time>
      </trkpt>
      <trkpt lat="49.02901" lon="2.03106">
        <ele>52.4</ele>
        <time>2022-06-28T09:59:28Z</time>
      </trkpt>
      <trkpt lat="49.02895" lon="2.03108">
        <ele>54.8</ele>
        <time>2022-06-28T09:59:33Z</time>
      </trkpt>
      <trkpt lat="49.0289" lon="2.0311">
        <ele>57</ele>
        <time>2022-06-28T09:59:38Z</time>
      </trkpt>
      <trkpt lat="49.02885" lon="2.03114">
        <ele>54.3</ele>
        <time>2022-06-28T09:59:42Z</time>
      </trkpt>
      <trkpt lat="49.0288" lon="2.03117">
        <ele>54.1</ele>
        <time>2022-06-28T09:59:46Z</time>
      </trkpt>
      <trkpt lat="49.02875" lon="2.03121">
        <ele>58</ele>
        <time>2022-06-28T09:59:50Z</time>
      </trkpt>
      <trkpt lat="49.0287" lon="2.03124">
        <ele>59.3</ele>
        <time>2022-06-28T09:59:55Z</time>
      </trkpt>
      <trkpt lat="49.02865" lon="2.03128">
        <ele>59.9</ele>
        <time>2022-06-28T09:59:59Z</time>
      </trkpt>
      <trkpt lat="49.02861" lon="2.03131">
        <ele>56.4</ele>
        <time>2022-06-28T10:00:03Z</time>
      </trkpt>
      <trkpt lat="49.02855" lon="2.03134">
        <ele>57.6</ele>
        <time>2022-06-28T10:00:07Z</time>
      </trkpt>
      <trkpt lat="49.0285" lon="2.03138">
        <ele>56.4</ele>
        <time>2022-06-28T10:00:12Z</time>
      </trkpt>
      <trkpt lat="49.02845" lon="2.0314">
        <ele>55.4</ele>
        <time>2022-06-28T10:00:16Z</time>
      </trkpt>
      <trkpt lat="49.0284" lon="2.03143">
        <ele>53.5</ele>
        <time>2022-06-28T10:00:20Z</time>
      </trkpt>
      <trkpt lat="49.02834" lon="2.03145">
        <ele>51.4</ele>
        <time>2022-06-28T10:00:24Z</time>
      </trkpt>
      <trkpt lat="49.0283" lon="2.03148">
        <ele>50.2</ele>
        <time>2022-06-28T10:00:28Z</time>
      </trkpt>
      <trkpt lat="49.02825" lon="2.03152">
        <ele>50.2</ele>
        <time>2022-06-28T10:00:32Z</time>
      </trkpt>
      <trkpt lat="49.0282" lon="2.03154">
        <ele>52.8</ele>
        <time>2022-06-28T10:00:36Z</time>
      </trkpt>
      <trkpt lat="49.02815" lon="2.03157">
        <ele>54.9</ele>
        <time>2022-06-28T10:00:41Z</time>
      </trkpt>
      <trkpt lat="49.0281" lon="2.03161">
        <ele>54.6</ele>
        <time>2022-06-28T10:00:45Z</time>
      </trkpt>
      <trkpt lat="49.02805" lon="2.03163">
        <ele>55.1</ele>
        <time>2022-06-28T10:00:49Z</time>
      </trkpt>
      <trkpt lat="49.02801" lon="2.03166">
        <ele>56.5</ele>
        <time>2022-06-28T10:00:53Z</time>
      </trkpt>
      <trkpt lat="49.02796" lon="2.03169">
        <ele>59.2</ele>
        <time>2022-06-28T10:00:58Z</time>
      </trkpt>
      <trkpt lat="49.02792" lon="2.03172">
        <ele>57.7</ele>
        <time>2022-06-28T10:01:02Z</time>
      </trkpt>
      <trkpt lat="49.02787" lon="2.03176">
        <ele>58.5</ele>
        <time>2022-06-28T10:01:07Z</time>
      </trkpt>
      <trkpt lat="49.02783" lon="2.0318">
        <ele>58.8</ele>
        <time>2022-06-28T10:01:10Z</time>
      </trkpt>
      <trkpt lat="49.02779" lon="2.03185">
        <ele>58.7</ele>
        <time>2022-06-28T10:01:15Z</time>
      </trkpt>
      <trkpt lat="49.02776" lon="2.03192">
        <ele>59.1</ele>
        <time>2022-06-28T10:01:19Z</time>
      </trkpt>
      <trkpt lat="49.02775" lon="2.03199">
        <ele>59.2</ele>
        <time>2022-06-28T10:01:24Z</time>
      </trkpt>
      <trkpt lat="49.02775" lon="2.03207">
        <ele>58.8</ele>
        <time>2022-06-28T10:01:29Z</time>
      </trkpt>
      <trkpt lat="49.02777" lon="2.03213">
        <ele>58.1</ele>
        <time>2022-06-28T10:01:33Z</time>
      </trkpt>
      <trkpt lat="49.0278" lon="2.03221">
        <ele>56.1</ele>
        <time>2022-06-28T10:01:52Z</time>
      </trkpt>
      <trkpt lat="49.02782" lon="2.03228">
        <ele>53.1</ele>
        <time>2022-06-28T10:01:56Z</time>
      </trkpt>
      <trkpt lat="49.02782" lon="2.03236">
        <ele>52</ele>
        <time>2022-06-28T10:01:59Z</time>
      </trkpt>
      <trkpt lat="49.02784" lon="2.03243">
        <ele>52.7</ele>
        <time>2022-06-28T10:02:03Z</time>
      </trkpt>
      <trkpt lat="49.02787" lon="2.03238">
        <ele>49.2</ele>
        <time>2022-06-28T10:02:17Z</time>
      </trkpt>
      <trkpt lat="49.02789" lon="2.03245">
        <ele>49.4</ele>
        <time>2022-06-28T10:02:32Z</time>
      </trkpt>
      <trkpt lat="49.0279" lon="2.03252">
        <ele>49.4</ele>
        <time>2022-06-28T10:02:36Z</time>
      </trkpt>
      <trkpt lat="49.02792" lon="2.03259">
        <ele>49.4</ele>
        <time>2022-06-28T10:02:41Z</time>
      </trkpt>
      <trkpt lat="49.02795" lon="2.03266">
        <ele>48.2</ele>
        <time>2022-06-28T10:02:47Z</time>
      </trkpt>
      <trkpt lat="49.02797" lon="2.03272">
        <ele>46</ele>
        <time>2022-06-28T10:02:52Z</time>
      </trkpt>
      <trkpt lat="49.02799" lon="2.03279">
        <ele>44.8</ele>
        <time>2022-06-28T10:02:57Z</time>
      </trkpt>
      <trkpt lat="49.02801" lon="2.03286">
        <ele>46.5</ele>
        <time>2022-06-28T10:03:01Z</time>
      </trkpt>
      <trkpt lat="49.028" lon="2.03293">
        <ele>49.6</ele>
        <time>2022-06-28T10:03:06Z</time>
      </trkpt>
      <trkpt lat="49.02797" lon="2.03283">
        <ele>47.6</ele>
        <time>2022-06-28T10:03:14Z</time>
      </trkpt>
      <trkpt lat="49.02786" lon="2.03291">
        <ele>46.5</ele>
        <time>2022-06-28T10:03:45Z</time>
      </trkpt>
      <trkpt lat="49.02784" lon="2.03298">
        <ele>45.7</ele>
        <time>2022-06-28T10:03:49Z</time>
      </trkpt>
      <trkpt lat="49.02783" lon="2.03305">
        <ele>51.2</ele>
        <time>2022-06-28T10:03:58Z</time>
      </trkpt>
      <trkpt lat="49.02779" lon="2.03309">
        <ele>49.3</ele>
        <time>2022-06-28T10:04:02Z</time>
      </trkpt>
      <trkpt lat="49.02777" lon="2.03316">
        <ele>49.2</ele>
        <time>2022-06-28T10:04:09Z</time>
      </trkpt>
      <trkpt lat="49.02773" lon="2.0332">
        <ele>49.5</ele>
        <time>2022-06-28T10:04:13Z</time>
      </trkpt>
      <trkpt lat="49.02769" lon="2.03325">
        <ele>45.7</ele>
        <time>2022-06-28T10:04:17Z</time>
      </trkpt>
      <trkpt lat="49.02765" lon="2.0333">
        <ele>44.5</ele>
        <time>2022-06-28T10:04:21Z</time>
      </trkpt>
      <trkpt lat="49.02761" lon="2.03334">
        <ele>44.9</ele>
        <time>2022-06-28T10:04:25Z</time>
      </trkpt>
      <trkpt lat="49.02757" lon="2.03338">
        <ele>44.8</ele>
        <time>2022-06-28T10:04:43Z</time>
      </trkpt>
      <trkpt lat="49.02752" lon="2.03337">
        <ele>43.5</ele>
        <time>2022-06-28T10:05:01Z</time>
      </trkpt>
      <trkpt lat="49.02749" lon="2.03343">
        <ele>45.6</ele>
        <time>2022-06-28T10:05:15Z</time>
      </trkpt>
      <trkpt lat="49.02744" lon="2.03348">
        <ele>45.1</ele>
        <time>2022-06-28T10:05:20Z</time>
      </trkpt>
      <trkpt lat="49.02739" lon="2.0335">
        <ele>45.1</ele>
        <time>2022-06-28T10:05:23Z</time>
      </trkpt>
      <trkpt lat="49.02734" lon="2.03352">
        <ele>44.9</ele>
        <time>2022-06-28T10:05:26Z</time>
      </trkpt>
      <trkpt lat="49.02729" lon="2.03355">
        <ele>44.1</ele>
        <time>2022-06-28T10:05:30Z</time>
      </trkpt>
      <trkpt lat="49.02724" lon="2.03358">
        <ele>45.8</ele>
        <time>2022-06-28T10:05:34Z</time>
      </trkpt>
      <trkpt lat="49.0272" lon="2.03363">
        <ele>44.3</ele>
        <time>2022-06-28T10:05:38Z</time>
      </trkpt>
      <trkpt lat="49.02716" lon="2.03368">
        <ele>44.5</ele>
        <time>2022-06-28T10:05:42Z</time>
      </trkpt>
      <trkpt lat="49.02712" lon="2.03372">
        <ele>43.3</ele>
        <time>2022-06-28T10:05:46Z</time>
      </trkpt>
      <trkpt lat="49.02709" lon="2.03377">
        <ele>43.5</ele>
        <time>2022-06-28T10:05:50Z</time>
      </trkpt>
      <trkpt lat="49.02704" lon="2.03382">
        <ele>42.7</ele>
        <time>2022-06-28T10:05:55Z</time>
      </trkpt>
      <trkpt lat="49.027" lon="2.03387">
        <ele>43.6</ele>
        <time>2022-06-28T10:05:59Z</time>
      </trkpt>
      <trkpt lat="49.02696" lon="2.03391">
        <ele>42.6</ele>
        <time>2022-06-28T10:06:03Z</time>
      </trkpt>
      <trkpt lat="49.02691" lon="2.03395">
        <ele>41.7</ele>
        <time>2022-06-28T10:06:07Z</time>
      </trkpt>
      <trkpt lat="49.02686" lon="2.034">
        <ele>40.1</ele>
        <time>2022-06-28T10:06:12Z</time>
      </trkpt>
      <trkpt lat="49.02682" lon="2.03403">
        <ele>39.7</ele>
        <time>2022-06-28T10:06:15Z</time>
      </trkpt>
      <trkpt lat="49.02677" lon="2.03408">
        <ele>39.6</ele>
        <time>2022-06-28T10:06:19Z</time>
      </trkpt>
      <trkpt lat="49.02672" lon="2.03413">
        <ele>41.1</ele>
        <time>2022-06-28T10:06:23Z</time>
      </trkpt>
      <trkpt lat="49.02667" lon="2.03418">
        <ele>40.7</ele>
        <time>2022-06-28T10:06:27Z</time>
      </trkpt>
      <trkpt lat="49.02663" lon="2.03423">
        <ele>38.9</ele>
        <time>2022-06-28T10:06:30Z</time>
      </trkpt>
      <trkpt lat="49.02659" lon="2.03427">
        <ele>40.8</ele>
        <time>2022-06-28T10:06:34Z</time>
      </trkpt>
      <trkpt lat="49.02654" lon="2.03432">
        <ele>42.1</ele>
        <time>2022-06-28T10:06:38Z</time>
      </trkpt>
      <trkpt lat="49.0265" lon="2.03437">
        <ele>40.8</ele>
        <time>2022-06-28T10:06:42Z</time>
      </trkpt>
      <trkpt lat="49.02645" lon="2.03442">
        <ele>42.5</ele>
        <time>2022-06-28T10:06:46Z</time>
      </trkpt>
      <trkpt lat="49.0264" lon="2.03447">
        <ele>43.6</ele>
        <time>2022-06-28T10:06:50Z</time>
      </trkpt>
      <trkpt lat="49.02635" lon="2.03451">
        <ele>42.7</ele>
        <time>2022-06-28T10:06:54Z</time>
      </trkpt>
      <trkpt lat="49.0263" lon="2.03456">
        <ele>39.9</ele>
        <time>2022-06-28T10:06:58Z</time>
      </trkpt>
      <trkpt lat="49.02626" lon="2.0346">
        <ele>41.1</ele>
        <time>2022-06-28T10:07:01Z</time>
      </trkpt>
      <trkpt lat="49.02621" lon="2.03466">
        <ele>41.2</ele>
        <time>2022-06-28T10:07:06Z</time>
      </trkpt>
      <trkpt lat="49.02616" lon="2.03472">
        <ele>40.7</ele>
        <time>2022-06-28T10:07:11Z</time>
      </trkpt>
      <trkpt lat="49.02611" lon="2.03478">
        <ele>41</ele>
        <time>2022-06-28T10:07:15Z</time>
      </trkpt>
      <trkpt lat="49.02607" lon="2.03482">
        <ele>42.2</ele>
        <time>2022-06-28T10:07:18Z</time>
      </trkpt>
      <trkpt lat="49.02603" lon="2.03485">
        <ele>44.3</ele>
        <time>2022-06-28T10:07:22Z</time>
      </trkpt>
      <trkpt lat="49.02598" lon="2.03489">
        <ele>41.9</ele>
        <time>2022-06-28T10:07:26Z</time>
      </trkpt>
      <trkpt lat="49.02594" lon="2.03493">
        <ele>40.8</ele>
        <time>2022-06-28T10:07:30Z</time>
      </trkpt>
      <trkpt lat="49.0259" lon="2.03498">
        <ele>38.6</ele>
        <time>2022-06-28T10:07:34Z</time>
      </trkpt>
      <trkpt lat="49.02586" lon="2.03502">
        <ele>39.8</ele>
        <time>2022-06-28T10:07:38Z</time>
      </trkpt>
      <trkpt lat="49.02582" lon="2.03506">
        <ele>42.7</ele>
        <time>2022-06-28T10:07:42Z</time>
      </trkpt>
      <trkpt lat="49.02577" lon="2.03509">
        <ele>43.2</ele>
        <time>2022-06-28T10:07:46Z</time>
      </trkpt>
      <trkpt lat="49.02573" lon="2.03513">
        <ele>43.7</ele>
        <time>2022-06-28T10:07:50Z</time>
      </trkpt>
      <trkpt lat="49.02568" lon="2.03516">
        <ele>41.9</ele>
        <time>2022-06-28T10:07:54Z</time>
      </trkpt>
      <trkpt lat="49.02564" lon="2.03521">
        <ele>42.1</ele>
        <time>2022-06-28T10:07:58Z</time>
      </trkpt>
      <trkpt lat="49.0256" lon="2.03525">
        <ele>42</ele>
        <time>2022-06-28T10:08:02Z</time>
      </trkpt>
      <trkpt lat="49.02556" lon="2.0353">
        <ele>43.4</ele>
        <time>2022-06-28T10:08:06Z</time>
      </trkpt>
      <trkpt lat="49.02552" lon="2.03535">
        <ele>45.5</ele>
        <time>2022-06-28T10:08:11Z</time>
      </trkpt>
      <trkpt lat="49.02547" lon="2.03541">
        <ele>46.4</ele>
        <time>2022-06-28T10:08:16Z</time>
      </trkpt>
      <trkpt lat="49.02543" lon="2.03545">
        <ele>44.7</ele>
        <time>2022-06-28T10:08:20Z</time>
      </trkpt>
      <trkpt lat="49.02539" lon="2.0354">
        <ele>45.4</ele>
        <time>2022-06-28T10:08:32Z</time>
      </trkpt>
      <trkpt lat="49.02534" lon="2.03542">
        <ele>46.4</ele>
        <time>2022-06-28T10:08:36Z</time>
      </trkpt>
      <trkpt lat="49.0253" lon="2.03545">
        <ele>43.1</ele>
        <time>2022-06-28T10:08:40Z</time>
      </trkpt>
      <trkpt lat="49.02525" lon="2.03551">
        <ele>41.6</ele>
        <time>2022-06-28T10:08:45Z</time>
      </trkpt>
      <trkpt lat="49.02521" lon="2.03556">
        <ele>44.7</ele>
        <time>2022-06-28T10:08:49Z</time>
      </trkpt>
      <trkpt lat="49.02517" lon="2.03561">
        <ele>44.9</ele>
        <time>2022-06-28T10:08:53Z</time>
      </trkpt>
      <trkpt lat="49.02511" lon="2.03564">
        <ele>45.9</ele>
        <time>2022-06-28T10:08:57Z</time>
      </trkpt>
      <trkpt lat="49.02507" lon="2.03567">
        <ele>47</ele>
        <time>2022-06-28T10:09:01Z</time>
      </trkpt>
      <trkpt lat="49.02503" lon="2.03571">
        <ele>48.6</ele>
        <time>2022-06-28T10:09:05Z</time>
      </trkpt>
      <trkpt lat="49.02499" lon="2.03575">
        <ele>50.1</ele>
        <time>2022-06-28T10:09:09Z</time>
      </trkpt>
      <trkpt lat="49.02494" lon="2.0358">
        <ele>49.1</ele>
        <time>2022-06-28T10:09:13Z</time>
      </trkpt>
      <trkpt lat="49.0249" lon="2.03585">
        <ele>44.8</ele>
        <time>2022-06-28T10:09:18Z</time>
      </trkpt>
      <trkpt lat="49.02486" lon="2.03591">
        <ele>42.4</ele>
        <time>2022-06-28T10:09:22Z</time>
      </trkpt>
      <trkpt lat="49.02481" lon="2.03596">
        <ele>43.2</ele>
        <time>2022-06-28T10:09:26Z</time>
      </trkpt>
      <trkpt lat="49.02477" lon="2.036">
        <ele>44.5</ele>
        <time>2022-06-28T10:09:30Z</time>
      </trkpt>
      <trkpt lat="49.02472" lon="2.03604">
        <ele>44</ele>
        <time>2022-06-28T10:09:34Z</time>
      </trkpt>
      <trkpt lat="49.02468" lon="2.03609">
        <ele>40.5</ele>
        <time>2022-06-28T10:09:39Z</time>
      </trkpt>
      <trkpt lat="49.02464" lon="2.03614">
        <ele>38.8</ele>
        <time>2022-06-28T10:09:43Z</time>
      </trkpt>
      <trkpt lat="49.0246" lon="2.03618">
        <ele>40.4</ele>
        <time>2022-06-28T10:09:47Z</time>
      </trkpt>
      <trkpt lat="49.02455" lon="2.03623">
        <ele>40.8</ele>
        <time>2022-06-28T10:09:52Z</time>
      </trkpt>
      <trkpt lat="49.02451" lon="2.03627">
        <ele>39.8</ele>
        <time>2022-06-28T10:09:56Z</time>
      </trkpt>
      <trkpt lat="49.02447" lon="2.03631">
        <ele>41.7</ele>
        <time>2022-06-28T10:10:00Z</time>
      </trkpt>
      <trkpt lat="49.02443" lon="2.03635">
        <ele>45.4</ele>
        <time>2022-06-28T10:10:05Z</time>
      </trkpt>
      <trkpt lat="49.0244" lon="2.0364">
        <ele>45.1</ele>
        <time>2022-06-28T10:10:10Z</time>
      </trkpt>
      <trkpt lat="49.02436" lon="2.03644">
        <ele>45.3</ele>
        <time>2022-06-28T10:10:15Z</time>
      </trkpt>
      <trkpt lat="49.02432" lon="2.0365">
        <ele>45.7</ele>
        <time>2022-06-28T10:10:19Z</time>
      </trkpt>
      <trkpt lat="49.02428" lon="2.03655">
        <ele>43.8</ele>
        <time>2022-06-28T10:10:23Z</time>
      </trkpt>
      <trkpt lat="49.02424" lon="2.03659">
        <ele>44.6</ele>
        <time>2022-06-28T10:10:27Z</time>
      </trkpt>
      <trkpt lat="49.0242" lon="2.03664">
        <ele>43.6</ele>
        <time>2022-06-28T10:10:32Z</time>
      </trkpt>
      <trkpt lat="49.02415" lon="2.03668">
        <ele>42.8</ele>
        <time>2022-06-28T10:10:36Z</time>
      </trkpt>
      <trkpt lat="49.0241" lon="2.03672">
        <ele>42.5</ele>
        <time>2022-06-28T10:10:41Z</time>
      </trkpt>
      <trkpt lat="49.02407" lon="2.03676">
        <ele>42.2</ele>
        <time>2022-06-28T10:10:45Z</time>
      </trkpt>
      <trkpt lat="49.02403" lon="2.03681">
        <ele>43.3</ele>
        <time>2022-06-28T10:10:49Z</time>
      </trkpt>
      <trkpt lat="49.02399" lon="2.03686">
        <ele>41.8</ele>
        <time>2022-06-28T10:10:53Z</time>
      </trkpt>
      <trkpt lat="49.02395" lon="2.03691">
        <ele>39.7</ele>
        <time>2022-06-28T10:10:58Z</time>
      </trkpt>
      <trkpt lat="49.02391" lon="2.03694">
        <ele>38.1</ele>
        <time>2022-06-28T10:11:03Z</time>
      </trkpt>
      <trkpt lat="49.02385" lon="2.03696">
        <ele>38.5</ele>
        <time>2022-06-28T10:11:08Z</time>
      </trkpt>
      <trkpt lat="49.02381" lon="2.037">
        <ele>38.2</ele>
        <time>2022-06-28T10:11:14Z</time>
      </trkpt>
      <trkpt lat="49.02377" lon="2.03705">
        <ele>38.1</ele>
        <time>2022-06-28T10:11:18Z</time>
      </trkpt>
      <trkpt lat="49.02372" lon="2.03707">
        <ele>38.1</ele>
        <time>2022-06-28T10:11:22Z</time>
      </trkpt>
      <trkpt lat="49.0237" lon="2.03714">
        <ele>40.4</ele>
        <time>2022-06-28T10:11:28Z</time>
      </trkpt>
      <trkpt lat="49.02367" lon="2.03721">
        <ele>42.5</ele>
        <time>2022-06-28T10:11:34Z</time>
      </trkpt>
      <trkpt lat="49.02363" lon="2.03716">
        <ele>41.7</ele>
        <time>2022-06-28T10:11:44Z</time>
      </trkpt>
      <trkpt lat="49.02358" lon="2.03718">
        <ele>40.4</ele>
        <time>2022-06-28T10:11:48Z</time>
      </trkpt>
      <trkpt lat="49.02353" lon="2.03721">
        <ele>40.7</ele>
        <time>2022-06-28T10:11:51Z</time>
      </trkpt>
      <trkpt lat="49.0235" lon="2.03725">
        <ele>38.6</ele>
        <time>2022-06-28T10:11:55Z</time>
      </trkpt>
      <trkpt lat="49.02345" lon="2.0373">
        <ele>39.8</ele>
        <time>2022-06-28T10:11:59Z</time>
      </trkpt>
      <trkpt lat="49.02341" lon="2.03734">
        <ele>42.8</ele>
        <time>2022-06-28T10:12:03Z</time>
      </trkpt>
      <trkpt lat="49.02337" lon="2.03737">
        <ele>43</ele>
        <time>2022-06-28T10:12:07Z</time>
      </trkpt>
      <trkpt lat="49.02332" lon="2.03741">
        <ele>42.5</ele>
        <time>2022-06-28T10:12:11Z</time>
      </trkpt>
      <trkpt lat="49.02328" lon="2.03745">
        <ele>44.5</ele>
        <time>2022-06-28T10:12:15Z</time>
      </trkpt>
      <trkpt lat="49.02325" lon="2.0375">
        <ele>44.7</ele>
        <time>2022-06-28T10:12:19Z</time>
      </trkpt>
      <trkpt lat="49.02321" lon="2.03755">
        <ele>46.9</ele>
        <time>2022-06-28T10:12:23Z</time>
      </trkpt>
      <trkpt lat="49.02316" lon="2.0376">
        <ele>44.4</ele>
        <time>2022-06-28T10:12:28Z</time>
      </trkpt>
      <trkpt lat="49.02311" lon="2.03765">
        <ele>45.1</ele>
        <time>2022-06-28T10:12:33Z</time>
      </trkpt>
      <trkpt lat="49.02306" lon="2.0377">
        <ele>42.7</ele>
        <time>2022-06-28T10:12:38Z</time>
      </trkpt>
      <trkpt lat="49.02302" lon="2.03774">
        <ele>43</ele>
        <time>2022-06-28T10:12:42Z</time>
      </trkpt>
      <trkpt lat="49.02297" lon="2.03779">
        <ele>43.8</ele>
        <time>2022-06-28T10:12:46Z</time>
      </trkpt>
      <trkpt lat="49.02293" lon="2.03782">
        <ele>43</ele>
        <time>2022-06-28T10:12:50Z</time>
      </trkpt>
      <trkpt lat="49.02288" lon="2.03786">
        <ele>43.4</ele>
        <time>2022-06-28T10:12:54Z</time>
      </trkpt>
      <trkpt lat="49.02283" lon="2.03791">
        <ele>45</ele>
        <time>2022-06-28T10:12:58Z</time>
      </trkpt>
      <trkpt lat="49.02279" lon="2.03795">
        <ele>42.5</ele>
        <time>2022-06-28T10:13:02Z</time>
      </trkpt>
      <trkpt lat="49.02274" lon="2.03801">
        <ele>43.5</ele>
        <time>2022-06-28T10:13:06Z</time>
      </trkpt>
      <trkpt lat="49.0227" lon="2.03806">
        <ele>42.9</ele>
        <time>2022-06-28T10:13:10Z</time>
      </trkpt>
      <trkpt lat="49.02266" lon="2.0381">
        <ele>43.1</ele>
        <time>2022-06-28T10:13:14Z</time>
      </trkpt>
      <trkpt lat="49.02262" lon="2.03815">
        <ele>46</ele>
        <time>2022-06-28T10:13:18Z</time>
      </trkpt>
      <trkpt lat="49.02257" lon="2.0382">
        <ele>46.2</ele>
        <time>2022-06-28T10:13:22Z</time>
      </trkpt>
      <trkpt lat="49.02253" lon="2.03824">
        <ele>45.9</ele>
        <time>2022-06-28T10:13:26Z</time>
      </trkpt>
      <trkpt lat="49.02248" lon="2.03829">
        <ele>43.6</ele>
        <time>2022-06-28T10:13:30Z</time>
      </trkpt>
      <trkpt lat="49.02243" lon="2.03833">
        <ele>47</ele>
        <time>2022-06-28T10:13:35Z</time>
      </trkpt>
      <trkpt lat="49.02239" lon="2.03837">
        <ele>46.9</ele>
        <time>2022-06-28T10:13:39Z</time>
      </trkpt>
      <trkpt lat="49.02237" lon="2.03844">
        <ele>46.3</ele>
        <time>2022-06-28T10:13:43Z</time>
      </trkpt>
      <trkpt lat="49.02236" lon="2.03852">
        <ele>47.9</ele>
        <time>2022-06-28T10:13:47Z</time>
      </trkpt>
      <trkpt lat="49.02235" lon="2.03859">
        <ele>48.7</ele>
        <time>2022-06-28T10:13:50Z</time>
      </trkpt>
      <trkpt lat="49.02233" lon="2.03865">
        <ele>47.2</ele>
        <time>2022-06-28T10:13:54Z</time>
      </trkpt>
      <trkpt lat="49.02232" lon="2.03872">
        <ele>47.9</ele>
        <time>2022-06-28T10:13:57Z</time>
      </trkpt>
      <trkpt lat="49.02229" lon="2.03877">
        <ele>48.3</ele>
        <time>2022-06-28T10:14:01Z</time>
      </trkpt>
      <trkpt lat="49.02224" lon="2.0388">
        <ele>43.7</ele>
        <time>2022-06-28T10:14:06Z</time>
      </trkpt>
      <trkpt lat="49.0222" lon="2.0388">
        <ele>38</ele>
        <time>2022-06-28T10:14:20Z</time>
      </trkpt>
      <trkpt lat="49.02218" lon="2.03888">
        <ele>40.2</ele>
        <time>2022-06-28T10:14:41Z</time>
      </trkpt>
      <trkpt lat="49.02217" lon="2.03895">
        <ele>42.5</ele>
        <time>2022-06-28T10:14:44Z</time>
      </trkpt>
      <trkpt lat="49.02217" lon="2.03903">
        <ele>41.2</ele>
        <time>2022-06-28T10:14:48Z</time>
      </trkpt>
      <trkpt lat="49.02216" lon="2.03912">
        <ele>38.5</ele>
        <time>2022-06-28T10:14:52Z</time>
      </trkpt>
      <trkpt lat="49.02213" lon="2.03919">
        <ele>36.4</ele>
        <time>2022-06-28T10:14:56Z</time>
      </trkpt>
      <trkpt lat="49.02209" lon="2.03924">
        <ele>35.9</ele>
        <time>2022-06-28T10:15:01Z</time>
      </trkpt>
      <trkpt lat="49.02205" lon="2.03928">
        <ele>35.8</ele>
        <time>2022-06-28T10:15:05Z</time>
      </trkpt>
      <trkpt lat="49.022" lon="2.03932">
        <ele>36.6</ele>
        <time>2022-06-28T10:15:10Z</time>
      </trkpt>
      <trkpt lat="49.02195" lon="2.03929">
        <ele>37.6</ele>
        <time>2022-06-28T10:15:14Z</time>
      </trkpt>
      <trkpt lat="49.0219" lon="2.03926">
        <ele>35.3</ele>
        <time>2022-06-28T10:15:18Z</time>
      </trkpt>
      <trkpt lat="49.02186" lon="2.03925">
        <ele>33.7</ele>
        <time>2022-06-28T10:15:22Z</time>
      </trkpt>
      <trkpt lat="49.0218" lon="2.03926">
        <ele>32.3</ele>
        <time>2022-06-28T10:15:26Z</time>
      </trkpt>
      <trkpt lat="49.02175" lon="2.03928">
        <ele>32.2</ele>
        <time>2022-06-28T10:15:31Z</time>
      </trkpt>
      <trkpt lat="49.02171" lon="2.03933">
        <ele>32.4</ele>
        <time>2022-06-28T10:15:36Z</time>
      </trkpt>
      <trkpt lat="49.02167" lon="2.03936">
        <ele>32.3</ele>
        <time>2022-06-28T10:15:40Z</time>
      </trkpt>
      <trkpt lat="49.02162" lon="2.0394">
        <ele>31.6</ele>
        <time>2022-06-28T10:15:45Z</time>
      </trkpt>
      <trkpt lat="49.02157" lon="2.03942">
        <ele>31.1</ele>
        <time>2022-06-28T10:15:50Z</time>
      </trkpt>
      <trkpt lat="49.02153" lon="2.03946">
        <ele>30.7</ele>
        <time>2022-06-28T10:15:54Z</time>
      </trkpt>
      <trkpt lat="49.02149" lon="2.03949">
        <ele>30.8</ele>
        <time>2022-06-28T10:15:59Z</time>
      </trkpt>
      <trkpt lat="49.02144" lon="2.03952">
        <ele>29.5</ele>
        <time>2022-06-28T10:16:03Z</time>
      </trkpt>
      <trkpt lat="49.0214" lon="2.03956">
        <ele>27.5</ele>
        <time>2022-06-28T10:16:08Z</time>
      </trkpt>
      <trkpt lat="49.02136" lon="2.0396">
        <ele>28.6</ele>
        <time>2022-06-28T10:16:14Z</time>
      </trkpt>
      <trkpt lat="49.02132" lon="2.03965">
        <ele>28.9</ele>
        <time>2022-06-28T10:16:18Z</time>
      </trkpt>
      <trkpt lat="49.02128" lon="2.03968">
        <ele>29.4</ele>
        <time>2022-06-28T10:16:23Z</time>
      </trkpt>
      <trkpt lat="49.02123" lon="2.03972">
        <ele>30.9</ele>
        <time>2022-06-28T10:16:27Z</time>
      </trkpt>
      <trkpt lat="49.02118" lon="2.03975">
        <ele>32.2</ele>
        <time>2022-06-28T10:16:32Z</time>
      </trkpt>
      <trkpt lat="49.02112" lon="2.0398">
        <ele>32.4</ele>
        <time>2022-06-28T10:16:37Z</time>
      </trkpt>
      <trkpt lat="49.02107" lon="2.03984">
        <ele>33.6</ele>
        <time>2022-06-28T10:16:41Z</time>
      </trkpt>
      <trkpt lat="49.02102" lon="2.03989">
        <ele>35.1</ele>
        <time>2022-06-28T10:16:46Z</time>
      </trkpt>
      <trkpt lat="49.02097" lon="2.03992">
        <ele>33.6</ele>
        <time>2022-06-28T10:16:51Z</time>
      </trkpt>
      <trkpt lat="49.02093" lon="2.03995">
        <ele>32.1</ele>
        <time>2022-06-28T10:16:55Z</time>
      </trkpt>
      <trkpt lat="49.02088" lon="2.04">
        <ele>31.9</ele>
        <time>2022-06-28T10:17:00Z</time>
      </trkpt>
      <trkpt lat="49.02084" lon="2.04003">
        <ele>32</ele>
        <time>2022-06-28T10:17:04Z</time>
      </trkpt>
      <trkpt lat="49.0208" lon="2.04007">
        <ele>32</ele>
        <time>2022-06-28T10:17:09Z</time>
      </trkpt>
      <trkpt lat="49.02075" lon="2.04013">
        <ele>33.8</ele>
        <time>2022-06-28T10:17:14Z</time>
      </trkpt>
      <trkpt lat="49.0207" lon="2.04011">
        <ele>34.7</ele>
        <time>2022-06-28T10:17:19Z</time>
      </trkpt>
      <trkpt lat="49.02066" lon="2.04008">
        <ele>36</ele>
        <time>2022-06-28T10:17:23Z</time>
      </trkpt>
      <trkpt lat="49.02061" lon="2.0401">
        <ele>36.5</ele>
        <time>2022-06-28T10:17:26Z</time>
      </trkpt>
      <trkpt lat="49.02056" lon="2.04012">
        <ele>35.9</ele>
        <time>2022-06-28T10:17:31Z</time>
      </trkpt>
      <trkpt lat="49.02051" lon="2.04016">
        <ele>36.5</ele>
        <time>2022-06-28T10:17:35Z</time>
      </trkpt>
      <trkpt lat="49.02048" lon="2.04022">
        <ele>34.2</ele>
        <time>2022-06-28T10:17:39Z</time>
      </trkpt>
      <trkpt lat="49.02044" lon="2.04027">
        <ele>33.1</ele>
        <time>2022-06-28T10:17:44Z</time>
      </trkpt>
      <trkpt lat="49.02039" lon="2.04032">
        <ele>33.3</ele>
        <time>2022-06-28T10:17:49Z</time>
      </trkpt>
      <trkpt lat="49.02035" lon="2.04036">
        <ele>33.3</ele>
        <time>2022-06-28T10:17:53Z</time>
      </trkpt>
      <trkpt lat="49.02031" lon="2.0404">
        <ele>34</ele>
        <time>2022-06-28T10:17:57Z</time>
      </trkpt>
      <trkpt lat="49.02025" lon="2.04044">
        <ele>34.6</ele>
        <time>2022-06-28T10:18:03Z</time>
      </trkpt>
      <trkpt lat="49.02021" lon="2.04049">
        <ele>35.3</ele>
        <time>2022-06-28T10:18:07Z</time>
      </trkpt>
      <trkpt lat="49.02018" lon="2.04053">
        <ele>34.2</ele>
        <time>2022-06-28T10:18:11Z</time>
      </trkpt>
      <trkpt lat="49.02013" lon="2.04057">
        <ele>33.4</ele>
        <time>2022-06-28T10:18:16Z</time>
      </trkpt>
      <trkpt lat="49.02008" lon="2.04062">
        <ele>31.7</ele>
        <time>2022-06-28T10:18:21Z</time>
      </trkpt>
      <trkpt lat="49.02005" lon="2.04066">
        <ele>31.2</ele>
        <time>2022-06-28T10:18:25Z</time>
      </trkpt>
      <trkpt lat="49.02" lon="2.0407">
        <ele>31.4</ele>
        <time>2022-06-28T10:18:31Z</time>
      </trkpt>
      <trkpt lat="49.01995" lon="2.04075">
        <ele>31.7</ele>
        <time>2022-06-28T10:18:36Z</time>
      </trkpt>
      <trkpt lat="49.01991" lon="2.04079">
        <ele>30.7</ele>
        <time>2022-06-28T10:18:40Z</time>
      </trkpt>
      <trkpt lat="49.01987" lon="2.04084">
        <ele>30.4</ele>
        <time>2022-06-28T10:18:44Z</time>
      </trkpt>
      <trkpt lat="49.01983" lon="2.04088">
        <ele>29.8</ele>
        <time>2022-06-28T10:18:48Z</time>
      </trkpt>
      <trkpt lat="49.01978" lon="2.04092">
        <ele>29.8</ele>
        <time>2022-06-28T10:18:53Z</time>
      </trkpt>
      <trkpt lat="49.01974" lon="2.04097">
        <ele>28.7</ele>
        <time>2022-06-28T10:18:57Z</time>
      </trkpt>
      <trkpt lat="49.01969" lon="2.04102">
        <ele>28.5</ele>
        <time>2022-06-28T10:19:01Z</time>
      </trkpt>
      <trkpt lat="49.01964" lon="2.04106">
        <ele>29.5</ele>
        <time>2022-06-28T10:19:05Z</time>
      </trkpt>
      <trkpt lat="49.01961" lon="2.04111">
        <ele>29.5</ele>
        <time>2022-06-28T10:19:10Z</time>
      </trkpt>
      <trkpt lat="49.01956" lon="2.04114">
        <ele>29.2</ele>
        <time>2022-06-28T10:19:14Z</time>
      </trkpt>
      <trkpt lat="49.01951" lon="2.04117">
        <ele>29.1</ele>
        <time>2022-06-28T10:19:27Z</time>
      </trkpt>
      <trkpt lat="49.01947" lon="2.04122">
        <ele>29.8</ele>
        <time>2022-06-28T10:19:31Z</time>
      </trkpt>
      <trkpt lat="49.01944" lon="2.04126">
        <ele>30</ele>
        <time>2022-06-28T10:19:35Z</time>
      </trkpt>
      <trkpt lat="49.0194" lon="2.04131">
        <ele>30.1</ele>
        <time>2022-06-28T10:19:39Z</time>
      </trkpt>
      <trkpt lat="49.01936" lon="2.04135">
        <ele>29.6</ele>
        <time>2022-06-28T10:19:43Z</time>
      </trkpt>
      <trkpt lat="49.01932" lon="2.0414">
        <ele>29.7</ele>
        <time>2022-06-28T10:19:47Z</time>
      </trkpt>
      <trkpt lat="49.01928" lon="2.04143">
        <ele>29.4</ele>
        <time>2022-06-28T10:19:52Z</time>
      </trkpt>
      <trkpt lat="49.01923" lon="2.04147">
        <ele>30.2</ele>
        <time>2022-06-28T10:19:56Z</time>
      </trkpt>
      <trkpt lat="49.01919" lon="2.04151">
        <ele>30.4</ele>
        <time>2022-06-28T10:20:00Z</time>
      </trkpt>
      <trkpt lat="49.01916" lon="2.04156">
        <ele>29.1</ele>
        <time>2022-06-28T10:20:04Z</time>
      </trkpt>
      <trkpt lat="49.01911" lon="2.04161">
        <ele>30.8</ele>
        <time>2022-06-28T10:20:08Z</time>
      </trkpt>
      <trkpt lat="49.01907" lon="2.04165">
        <ele>32.2</ele>
        <time>2022-06-28T10:20:13Z</time>
      </trkpt>
      <trkpt lat="49.01902" lon="2.04168">
        <ele>33.1</ele>
        <time>2022-06-28T10:20:17Z</time>
      </trkpt>
      <trkpt lat="49.01898" lon="2.0417">
        <ele>33.5</ele>
        <time>2022-06-28T10:20:21Z</time>
      </trkpt>
      <trkpt lat="49.01892" lon="2.04174">
        <ele>34.1</ele>
        <time>2022-06-28T10:20:26Z</time>
      </trkpt>
      <trkpt lat="49.01888" lon="2.04176">
        <ele>34.1</ele>
        <time>2022-06-28T10:20:30Z</time>
      </trkpt>
      <trkpt lat="49.01883" lon="2.0418">
        <ele>36.4</ele>
        <time>2022-06-28T10:20:34Z</time>
      </trkpt>
      <trkpt lat="49.01879" lon="2.04184">
        <ele>37.8</ele>
        <time>2022-06-28T10:20:38Z</time>
      </trkpt>
      <trkpt lat="49.01876" lon="2.04188">
        <ele>37.2</ele>
        <time>2022-06-28T10:20:42Z</time>
      </trkpt>
      <trkpt lat="49.01872" lon="2.04192">
        <ele>37.6</ele>
        <time>2022-06-28T10:20:46Z</time>
      </trkpt>
      <trkpt lat="49.01866" lon="2.04193">
        <ele>35.5</ele>
        <time>2022-06-28T10:20:57Z</time>
      </trkpt>
      <trkpt lat="49.01861" lon="2.04198">
        <ele>35.5</ele>
        <time>2022-06-28T10:21:01Z</time>
      </trkpt>
      <trkpt lat="49.01857" lon="2.04204">
        <ele>36.4</ele>
        <time>2022-06-28T10:21:05Z</time>
      </trkpt>
      <trkpt lat="49.01853" lon="2.0421">
        <ele>37.7</ele>
        <time>2022-06-28T10:21:08Z</time>
      </trkpt>
      <trkpt lat="49.01849" lon="2.04216">
        <ele>36.6</ele>
        <time>2022-06-28T10:21:12Z</time>
      </trkpt>
      <trkpt lat="49.01846" lon="2.0422">
        <ele>36.4</ele>
        <time>2022-06-28T10:21:15Z</time>
      </trkpt>
      <trkpt lat="49.01841" lon="2.04226">
        <ele>36.8</ele>
        <time>2022-06-28T10:21:19Z</time>
      </trkpt>
      <trkpt lat="49.01837" lon="2.0423">
        <ele>35.8</ele>
        <time>2022-06-28T10:21:24Z</time>
      </trkpt>
      <trkpt lat="49.01832" lon="2.04234">
        <ele>33.9</ele>
        <time>2022-06-28T10:21:28Z</time>
      </trkpt>
      <trkpt lat="49.01828" lon="2.04238">
        <ele>35.8</ele>
        <time>2022-06-28T10:21:32Z</time>
      </trkpt>
      <trkpt lat="49.01824" lon="2.04241">
        <ele>35.7</ele>
        <time>2022-06-28T10:21:36Z</time>
      </trkpt>
      <trkpt lat="49.01819" lon="2.04245">
        <ele>34</ele>
        <time>2022-06-28T10:21:41Z</time>
      </trkpt>
      <trkpt lat="49.01815" lon="2.04249">
        <ele>36.3</ele>
        <time>2022-06-28T10:21:45Z</time>
      </trkpt>
      <trkpt lat="49.01811" lon="2.04253">
        <ele>37.6</ele>
        <time>2022-06-28T10:21:49Z</time>
      </trkpt>
      <trkpt lat="49.01807" lon="2.04258">
        <ele>38.6</ele>
        <time>2022-06-28T10:21:53Z</time>
      </trkpt>
      <trkpt lat="49.01803" lon="2.04263">
        <ele>37.8</ele>
        <time>2022-06-28T10:21:58Z</time>
      </trkpt>
      <trkpt lat="49.01799" lon="2.04267">
        <ele>37.4</ele>
        <time>2022-06-28T10:22:02Z</time>
      </trkpt>
      <trkpt lat="49.01794" lon="2.04273">
        <ele>38.3</ele>
        <time>2022-06-28T10:22:07Z</time>
      </trkpt>
      <trkpt lat="49.0179" lon="2.04278">
        <ele>38.1</ele>
        <time>2022-06-28T10:22:11Z</time>
      </trkpt>
      <trkpt lat="49.01786" lon="2.04282">
        <ele>42.3</ele>
        <time>2022-06-28T10:22:15Z</time>
      </trkpt>
      <trkpt lat="49.01782" lon="2.04285">
        <ele>42.3</ele>
        <time>2022-06-28T10:22:20Z</time>
      </trkpt>
      <trkpt lat="49.01777" lon="2.04289">
        <ele>42.6</ele>
        <time>2022-06-28T10:22:24Z</time>
      </trkpt>
      <trkpt lat="49.01772" lon="2.04293">
        <ele>43.8</ele>
        <time>2022-06-28T10:22:28Z</time>
      </trkpt>
      <trkpt lat="49.01768" lon="2.04298">
        <ele>43</ele>
        <time>2022-06-28T10:22:33Z</time>
      </trkpt>
      <trkpt lat="49.01764" lon="2.04303">
        <ele>42</ele>
        <time>2022-06-28T10:22:37Z</time>
      </trkpt>
      <trkpt lat="49.0176" lon="2.04307">
        <ele>44.7</ele>
        <time>2022-06-28T10:22:41Z</time>
      </trkpt>
      <trkpt lat="49.01756" lon="2.04312">
        <ele>44.5</ele>
        <time>2022-06-28T10:22:46Z</time>
      </trkpt>
      <trkpt lat="49.01752" lon="2.04316">
        <ele>43</ele>
        <time>2022-06-28T10:22:50Z</time>
      </trkpt>
      <trkpt lat="49.01748" lon="2.04321">
        <ele>47.6</ele>
        <time>2022-06-28T10:22:55Z</time>
      </trkpt>
      <trkpt lat="49.01744" lon="2.04326">
        <ele>45.4</ele>
        <time>2022-06-28T10:23:00Z</time>
      </trkpt>
      <trkpt lat="49.01739" lon="2.04329">
        <ele>45.7</ele>
        <time>2022-06-28T10:23:06Z</time>
      </trkpt>
      <trkpt lat="49.01741" lon="2.04336">
        <ele>44.8</ele>
        <time>2022-06-28T10:23:12Z</time>
      </trkpt>
      <trkpt lat="49.01736" lon="2.04341">
        <ele>44.7</ele>
        <time>2022-06-28T10:23:18Z</time>
      </trkpt>
      <trkpt lat="49.01732" lon="2.04346">
        <ele>43.6</ele>
        <time>2022-06-28T10:23:22Z</time>
      </trkpt>
      <trkpt lat="49.01728" lon="2.0435">
        <ele>41.3</ele>
        <time>2022-06-28T10:23:27Z</time>
      </trkpt>
      <trkpt lat="49.01724" lon="2.04354">
        <ele>42.7</ele>
        <time>2022-06-28T10:23:32Z</time>
      </trkpt>
      <trkpt lat="49.0172" lon="2.04358">
        <ele>44.2</ele>
        <time>2022-06-28T10:23:36Z</time>
      </trkpt>
      <trkpt lat="49.01717" lon="2.04362">
        <ele>45.9</ele>
        <time>2022-06-28T10:23:41Z</time>
      </trkpt>
      <trkpt lat="49.01712" lon="2.04368">
        <ele>46.4</ele>
        <time>2022-06-28T10:23:46Z</time>
      </trkpt>
      <trkpt lat="49.01708" lon="2.04373">
        <ele>46.7</ele>
        <time>2022-06-28T10:23:51Z</time>
      </trkpt>
      <trkpt lat="49.01705" lon="2.04377">
        <ele>45.9</ele>
        <time>2022-06-28T10:23:56Z</time>
      </trkpt>
      <trkpt lat="49.01701" lon="2.04382">
        <ele>48.3</ele>
        <time>2022-06-28T10:24:01Z</time>
      </trkpt>
      <trkpt lat="49.01697" lon="2.04387">
        <ele>49</ele>
        <time>2022-06-28T10:24:06Z</time>
      </trkpt>
      <trkpt lat="49.01693" lon="2.04392">
        <ele>49</ele>
        <time>2022-06-28T10:24:11Z</time>
      </trkpt>
      <trkpt lat="49.01689" lon="2.04396">
        <ele>48.1</ele>
        <time>2022-06-28T10:24:15Z</time>
      </trkpt>
      <trkpt lat="49.01684" lon="2.04401">
        <ele>48.5</ele>
        <time>2022-06-28T10:24:21Z</time>
      </trkpt>
      <trkpt lat="49.01679" lon="2.04404">
        <ele>47.2</ele>
        <time>2022-06-28T10:24:25Z</time>
      </trkpt>
      <trkpt lat="49.01676" lon="2.04409">
        <ele>44.1</ele>
        <time>2022-06-28T10:24:29Z</time>
      </trkpt>
      <trkpt lat="49.01672" lon="2.04414">
        <ele>43.7</ele>
        <time>2022-06-28T10:24:34Z</time>
      </trkpt>
      <trkpt lat="49.01668" lon="2.0442">
        <ele>44.5</ele>
        <time>2022-06-28T10:24:39Z</time>
      </trkpt>
      <trkpt lat="49.01664" lon="2.04425">
        <ele>44.9</ele>
        <time>2022-06-28T10:24:44Z</time>
      </trkpt>
      <trkpt lat="49.01661" lon="2.0443">
        <ele>46.2</ele>
        <time>2022-06-28T10:24:48Z</time>
      </trkpt>
      <trkpt lat="49.01656" lon="2.04436">
        <ele>46.8</ele>
        <time>2022-06-28T10:24:53Z</time>
      </trkpt>
      <trkpt lat="49.01653" lon="2.04441">
        <ele>46.5</ele>
        <time>2022-06-28T10:24:57Z</time>
      </trkpt>
      <trkpt lat="49.01649" lon="2.04446">
        <ele>46.2</ele>
        <time>2022-06-28T10:25:01Z</time>
      </trkpt>
      <trkpt lat="49.01645" lon="2.0445">
        <ele>48.2</ele>
        <time>2022-06-28T10:25:05Z</time>
      </trkpt>
      <trkpt lat="49.0164" lon="2.04455">
        <ele>48.3</ele>
        <time>2022-06-28T10:25:09Z</time>
      </trkpt>
      <trkpt lat="49.01636" lon="2.04459">
        <ele>48.3</ele>
        <time>2022-06-28T10:25:14Z</time>
      </trkpt>
      <trkpt lat="49.01632" lon="2.04464">
        <ele>47.8</ele>
        <time>2022-06-28T10:25:18Z</time>
      </trkpt>
      <trkpt lat="49.01628" lon="2.0447">
        <ele>49.2</ele>
        <time>2022-06-28T10:25:22Z</time>
      </trkpt>
      <trkpt lat="49.01625" lon="2.04477">
        <ele>46.3</ele>
        <time>2022-06-28T10:25:26Z</time>
      </trkpt>
      <trkpt lat="49.01622" lon="2.04483">
        <ele>45.3</ele>
        <time>2022-06-28T10:25:31Z</time>
      </trkpt>
      <trkpt lat="49.01618" lon="2.04489">
        <ele>44.6</ele>
        <time>2022-06-28T10:25:35Z</time>
      </trkpt>
      <trkpt lat="49.01614" lon="2.04494">
        <ele>43.9</ele>
        <time>2022-06-28T10:25:39Z</time>
      </trkpt>
      <trkpt lat="49.01611" lon="2.04499">
        <ele>46.6</ele>
        <time>2022-06-28T10:25:43Z</time>
      </trkpt>
      <trkpt lat="49.01608" lon="2.04505">
        <ele>45.2</ele>
        <time>2022-06-28T10:25:47Z</time>
      </trkpt>
      <trkpt lat="49.01605" lon="2.0451">
        <ele>46.4</ele>
        <time>2022-06-28T10:25:52Z</time>
      </trkpt>
      <trkpt lat="49.01601" lon="2.04514">
        <ele>46.4</ele>
        <time>2022-06-28T10:25:56Z</time>
      </trkpt>
      <trkpt lat="49.01597" lon="2.0452">
        <ele>48.7</ele>
        <time>2022-06-28T10:26:01Z</time>
      </trkpt>
      <trkpt lat="49.01593" lon="2.04526">
        <ele>50</ele>
        <time>2022-06-28T10:26:06Z</time>
      </trkpt>
      <trkpt lat="49.01589" lon="2.04532">
        <ele>49.3</ele>
        <time>2022-06-28T10:26:10Z</time>
      </trkpt>
      <trkpt lat="49.01584" lon="2.04538">
        <ele>49.6</ele>
        <time>2022-06-28T10:26:15Z</time>
      </trkpt>
      <trkpt lat="49.0158" lon="2.04544">
        <ele>49.5</ele>
        <time>2022-06-28T10:26:20Z</time>
      </trkpt>
      <trkpt lat="49.01577" lon="2.04551">
        <ele>47.7</ele>
        <time>2022-06-28T10:26:25Z</time>
      </trkpt>
      <trkpt lat="49.01573" lon="2.04556">
        <ele>45.7</ele>
        <time>2022-06-28T10:26:30Z</time>
      </trkpt>
      <trkpt lat="49.01571" lon="2.04562">
        <ele>45.1</ele>
        <time>2022-06-28T10:26:34Z</time>
      </trkpt>
      <trkpt lat="49.01567" lon="2.04567">
        <ele>48.6</ele>
        <time>2022-06-28T10:26:39Z</time>
      </trkpt>
      <trkpt lat="49.01563" lon="2.04573">
        <ele>47.1</ele>
        <time>2022-06-28T10:26:44Z</time>
      </trkpt>
      <trkpt lat="49.0156" lon="2.04579">
        <ele>48</ele>
        <time>2022-06-28T10:26:49Z</time>
      </trkpt>
      <trkpt lat="49.01561" lon="2.04588">
        <ele>50.2</ele>
        <time>2022-06-28T10:26:55Z</time>
      </trkpt>
      <trkpt lat="49.01561" lon="2.04595">
        <ele>49.1</ele>
        <time>2022-06-28T10:26:59Z</time>
      </trkpt>
      <trkpt lat="49.01566" lon="2.04593">
        <ele>47.7</ele>
        <time>2022-06-28T10:27:14Z</time>
      </trkpt>
      <trkpt lat="49.0157" lon="2.04587">
        <ele>47.7</ele>
        <time>2022-06-28T10:27:17Z</time>
      </trkpt>
      <trkpt lat="49.01574" lon="2.04587">
        <ele>50.2</ele>
        <time>2022-06-28T10:27:24Z</time>
      </trkpt>
      <trkpt lat="49.01579" lon="2.04588">
        <ele>49.7</ele>
        <time>2022-06-28T10:27:30Z</time>
      </trkpt>
      <trkpt lat="49.0158" lon="2.04595">
        <ele>49</ele>
        <time>2022-06-28T10:27:39Z</time>
      </trkpt>
      <trkpt lat="49.01581" lon="2.04602">
        <ele>46.8</ele>
        <time>2022-06-28T10:27:52Z</time>
      </trkpt>
      <trkpt lat="49.01584" lon="2.04609">
        <ele>47.3</ele>
        <time>2022-06-28T10:27:57Z</time>
      </trkpt>
      <trkpt lat="49.01587" lon="2.04614">
        <ele>45.6</ele>
        <time>2022-06-28T10:28:02Z</time>
      </trkpt>
      <trkpt lat="49.0159" lon="2.0462">
        <ele>45.4</ele>
        <time>2022-06-28T10:28:07Z</time>
      </trkpt>
      <trkpt lat="49.01594" lon="2.04625">
        <ele>45.6</ele>
        <time>2022-06-28T10:28:12Z</time>
      </trkpt>
      <trkpt lat="49.01598" lon="2.0463">
        <ele>45.7</ele>
        <time>2022-06-28T10:28:17Z</time>
      </trkpt>
      <trkpt lat="49.01601" lon="2.04636">
        <ele>43.9</ele>
        <time>2022-06-28T10:28:23Z</time>
      </trkpt>
      <trkpt lat="49.01604" lon="2.04643">
        <ele>42.4</ele>
        <time>2022-06-28T10:28:28Z</time>
      </trkpt>
      <trkpt lat="49.01607" lon="2.04649">
        <ele>43.8</ele>
        <time>2022-06-28T10:28:33Z</time>
      </trkpt>
      <trkpt lat="49.0161" lon="2.04657">
        <ele>43.9</ele>
        <time>2022-06-28T10:28:38Z</time>
      </trkpt>
      <trkpt lat="49.01613" lon="2.04663">
        <ele>43.8</ele>
        <time>2022-06-28T10:28:44Z</time>
      </trkpt>
      <trkpt lat="49.01617" lon="2.04668">
        <ele>41.8</ele>
        <time>2022-06-28T10:28:49Z</time>
      </trkpt>
      <trkpt lat="49.01622" lon="2.04666">
        <ele>40.1</ele>
        <time>2022-06-28T10:28:56Z</time>
      </trkpt>
      <trkpt lat="49.01627" lon="2.04663">
        <ele>39.2</ele>
        <time>2022-06-28T10:29:01Z</time>
      </trkpt>
      <trkpt lat="49.01631" lon="2.04658">
        <ele>41.1</ele>
        <time>2022-06-28T10:29:05Z</time>
      </trkpt>
      <trkpt lat="49.01634" lon="2.04652">
        <ele>42.8</ele>
        <time>2022-06-28T10:29:20Z</time>
      </trkpt>
      <trkpt lat="49.01639" lon="2.04656">
        <ele>42.3</ele>
        <time>2022-06-28T10:30:00Z</time>
      </trkpt>
      <trkpt lat="49.01639" lon="2.04663">
        <ele>41.1</ele>
        <time>2022-06-28T10:30:05Z</time>
      </trkpt>
      <trkpt lat="49.01637" lon="2.0467">
        <ele>38.2</ele>
        <time>2022-06-28T10:30:09Z</time>
      </trkpt>
      <trkpt lat="49.01637" lon="2.04678">
        <ele>37.7</ele>
        <time>2022-06-28T10:30:14Z</time>
      </trkpt>
      <trkpt lat="49.01641" lon="2.04679">
        <ele>34.8</ele>
        <time>2022-06-28T10:30:19Z</time>
      </trkpt>
      <trkpt lat="49.01645" lon="2.04674">
        <ele>33.3</ele>
        <time>2022-06-28T10:30:23Z</time>
      </trkpt>
      <trkpt lat="49.01649" lon="2.0467">
        <ele>35.4</ele>
        <time>2022-06-28T10:30:43Z</time>
      </trkpt>
      <trkpt lat="49.01656" lon="2.04663">
        <ele>33.2</ele>
        <time>2022-06-28T10:30:52Z</time>
      </trkpt>
      <trkpt lat="49.01661" lon="2.0466">
        <ele>31.7</ele>
        <time>2022-06-28T10:30:55Z</time>
      </trkpt>
      <trkpt lat="49.01666" lon="2.04657">
        <ele>33.4</ele>
        <time>2022-06-28T10:30:59Z</time>
      </trkpt>
      <trkpt lat="49.01671" lon="2.04655">
        <ele>31.8</ele>
        <time>2022-06-28T10:31:04Z</time>
      </trkpt>
      <trkpt lat="49.01675" lon="2.04658">
        <ele>31.4</ele>
        <time>2022-06-28T10:31:09Z</time>
      </trkpt>
      <trkpt lat="49.01673" lon="2.04666">
        <ele>30.9</ele>
        <time>2022-06-28T10:31:13Z</time>
      </trkpt>
      <trkpt lat="49.01668" lon="2.04672">
        <ele>28.7</ele>
        <time>2022-06-28T10:31:17Z</time>
      </trkpt>
      <trkpt lat="49.01665" lon="2.04683">
        <ele>31</ele>
        <time>2022-06-28T10:31:29Z</time>
      </trkpt>
      <trkpt lat="49.01663" lon="2.04689">
        <ele>32.7</ele>
        <time>2022-06-28T10:31:33Z</time>
      </trkpt>
      <trkpt lat="49.01661" lon="2.04696">
        <ele>31.8</ele>
        <time>2022-06-28T10:31:38Z</time>
      </trkpt>
      <trkpt lat="49.01658" lon="2.04703">
        <ele>32.6</ele>
        <time>2022-06-28T10:31:42Z</time>
      </trkpt>
      <trkpt lat="49.01656" lon="2.04709">
        <ele>29.8</ele>
        <time>2022-06-28T10:31:46Z</time>
      </trkpt>
      <trkpt lat="49.01654" lon="2.04716">
        <ele>31.2</ele>
        <time>2022-06-28T10:31:50Z</time>
      </trkpt>
      <trkpt lat="49.01656" lon="2.04722">
        <ele>29.5</ele>
        <time>2022-06-28T10:31:55Z</time>
      </trkpt>
      <trkpt lat="49.01658" lon="2.04729">
        <ele>31.7</ele>
        <time>2022-06-28T10:31:59Z</time>
      </trkpt>
      <trkpt lat="49.01659" lon="2.04736">
        <ele>30.3</ele>
        <time>2022-06-28T10:32:04Z</time>
      </trkpt>
      <trkpt lat="49.01661" lon="2.04743">
        <ele>29.9</ele>
        <time>2022-06-28T10:32:08Z</time>
      </trkpt>
      <trkpt lat="49.01663" lon="2.04752">
        <ele>28.8</ele>
        <time>2022-06-28T10:32:13Z</time>
      </trkpt>
      <trkpt lat="49.01664" lon="2.04761">
        <ele>30.4</ele>
        <time>2022-06-28T10:32:18Z</time>
      </trkpt>
      <trkpt lat="49.01665" lon="2.04768">
        <ele>29.7</ele>
        <time>2022-06-28T10:32:23Z</time>
      </trkpt>
      <trkpt lat="49.01666" lon="2.04776">
        <ele>30.8</ele>
        <time>2022-06-28T10:32:27Z</time>
      </trkpt>
      <trkpt lat="49.01669" lon="2.04784">
        <ele>29</ele>
        <time>2022-06-28T10:32:32Z</time>
      </trkpt>
      <trkpt lat="49.01668" lon="2.04791">
        <ele>27.5</ele>
        <time>2022-06-28T10:32:36Z</time>
      </trkpt>
      <trkpt lat="49.01666" lon="2.04798">
        <ele>26.3</ele>
        <time>2022-06-28T10:32:40Z</time>
      </trkpt>
      <trkpt lat="49.01662" lon="2.04805">
        <ele>23.8</ele>
        <time>2022-06-28T10:32:45Z</time>
      </trkpt>
      <trkpt lat="49.01659" lon="2.0481">
        <ele>25.2</ele>
        <time>2022-06-28T10:32:50Z</time>
      </trkpt>
      <trkpt lat="49.01655" lon="2.04815">
        <ele>23.4</ele>
        <time>2022-06-28T10:32:54Z</time>
      </trkpt>
      <trkpt lat="49.01651" lon="2.04821">
        <ele>23.4</ele>
        <time>2022-06-28T10:32:58Z</time>
      </trkpt>
      <trkpt lat="49.01647" lon="2.04827">
        <ele>21.1</ele>
        <time>2022-06-28T10:33:04Z</time>
      </trkpt>
      <trkpt lat="49.01645" lon="2.04833">
        <ele>20.6</ele>
        <time>2022-06-28T10:33:08Z</time>
      </trkpt>
      <trkpt lat="49.01646" lon="2.04842">
        <ele>23.4</ele>
        <time>2022-06-28T10:33:13Z</time>
      </trkpt>
      <trkpt lat="49.01649" lon="2.04849">
        <ele>21.5</ele>
        <time>2022-06-28T10:33:17Z</time>
      </trkpt>
      <trkpt lat="49.01653" lon="2.04854">
        <ele>21.8</ele>
        <time>2022-06-28T10:33:20Z</time>
      </trkpt>
      <trkpt lat="49.01656" lon="2.04861">
        <ele>20.8</ele>
        <time>2022-06-28T10:33:24Z</time>
      </trkpt>
      <trkpt lat="49.01659" lon="2.04867">
        <ele>21.8</ele>
        <time>2022-06-28T10:33:28Z</time>
      </trkpt>
      <trkpt lat="49.01662" lon="2.04873">
        <ele>21.1</ele>
        <time>2022-06-28T10:33:31Z</time>
      </trkpt>
      <trkpt lat="49.01664" lon="2.04879">
        <ele>20.4</ele>
        <time>2022-06-28T10:33:34Z</time>
      </trkpt>
      <trkpt lat="49.01666" lon="2.04888">
        <ele>22.5</ele>
        <time>2022-06-28T10:33:38Z</time>
      </trkpt>
      <trkpt lat="49.01665" lon="2.04894">
        <ele>21</ele>
        <time>2022-06-28T10:33:56Z</time>
      </trkpt>
      <trkpt lat="49.01668" lon="2.04902">
        <ele>20.3</ele>
        <time>2022-06-28T10:34:00Z</time>
      </trkpt>
      <trkpt lat="49.01671" lon="2.04909">
        <ele>21.7</ele>
        <time>2022-06-28T10:34:03Z</time>
      </trkpt>
      <trkpt lat="49.01674" lon="2.04917">
        <ele>20.9</ele>
        <time>2022-06-28T10:34:06Z</time>
      </trkpt>
      <trkpt lat="49.01677" lon="2.04923">
        <ele>21</ele>
        <time>2022-06-28T10:34:09Z</time>
      </trkpt>
      <trkpt lat="49.01681" lon="2.0493">
        <ele>20.5</ele>
        <time>2022-06-28T10:34:13Z</time>
      </trkpt>
      <trkpt lat="49.01684" lon="2.04936">
        <ele>21.2</ele>
        <time>2022-06-28T10:34:17Z</time>
      </trkpt>
      <trkpt lat="49.01687" lon="2.04943">
        <ele>20.8</ele>
        <time>2022-06-28T10:34:21Z</time>
      </trkpt>
      <trkpt lat="49.01691" lon="2.04949">
        <ele>19.9</ele>
        <time>2022-06-28T10:34:25Z</time>
      </trkpt>
      <trkpt lat="49.01694" lon="2.04956">
        <ele>22.1</ele>
        <time>2022-06-28T10:34:29Z</time>
      </trkpt>
      <trkpt lat="49.01697" lon="2.04964">
        <ele>19.8</ele>
        <time>2022-06-28T10:34:33Z</time>
      </trkpt>
      <trkpt lat="49.017" lon="2.04971">
        <ele>19.6</ele>
        <time>2022-06-28T10:34:37Z</time>
      </trkpt>
      <trkpt lat="49.01705" lon="2.04976">
        <ele>19.2</ele>
        <time>2022-06-28T10:34:41Z</time>
      </trkpt>
      <trkpt lat="49.0171" lon="2.04981">
        <ele>19.8</ele>
        <time>2022-06-28T10:34:46Z</time>
      </trkpt>
      <trkpt lat="49.01714" lon="2.04986">
        <ele>21.7</ele>
        <time>2022-06-28T10:34:51Z</time>
      </trkpt>
      <trkpt lat="49.01718" lon="2.04992">
        <ele>23</ele>
        <time>2022-06-28T10:34:55Z</time>
      </trkpt>
      <trkpt lat="49.0172" lon="2.04998">
        <ele>21.8</ele>
        <time>2022-06-28T10:34:59Z</time>
      </trkpt>
      <trkpt lat="49.01722" lon="2.05005">
        <ele>23.6</ele>
        <time>2022-06-28T10:35:03Z</time>
      </trkpt>
      <trkpt lat="49.01722" lon="2.05013">
        <ele>22.7</ele>
        <time>2022-06-28T10:35:08Z</time>
      </trkpt>
      <trkpt lat="49.01718" lon="2.05019">
        <ele>24.2</ele>
        <time>2022-06-28T10:35:12Z</time>
      </trkpt>
      <trkpt lat="49.01713" lon="2.05024">
        <ele>23.8</ele>
        <time>2022-06-28T10:35:16Z</time>
      </trkpt>
      <trkpt lat="49.01708" lon="2.05027">
        <ele>23.6</ele>
        <time>2022-06-28T10:35:20Z</time>
      </trkpt>
      <trkpt lat="49.01702" lon="2.05028">
        <ele>22.4</ele>
        <time>2022-06-28T10:35:24Z</time>
      </trkpt>
      <trkpt lat="49.01698" lon="2.0503">
        <ele>22.9</ele>
        <time>2022-06-28T10:35:28Z</time>
      </trkpt>
      <trkpt lat="49.01693" lon="2.05035">
        <ele>23.4</ele>
        <time>2022-06-28T10:35:32Z</time>
      </trkpt>
      <trkpt lat="49.01689" lon="2.05041">
        <ele>23.1</ele>
        <time>2022-06-28T10:35:36Z</time>
      </trkpt>
      <trkpt lat="49.01685" lon="2.05047">
        <ele>20.2</ele>
        <time>2022-06-28T10:35:40Z</time>
      </trkpt>
      <trkpt lat="49.01682" lon="2.05053">
        <ele>18.8</ele>
        <time>2022-06-28T10:35:43Z</time>
      </trkpt>
      <trkpt lat="49.01678" lon="2.05059">
        <ele>19.5</ele>
        <time>2022-06-28T10:35:47Z</time>
      </trkpt>
      <trkpt lat="49.01675" lon="2.05064">
        <ele>20.5</ele>
        <time>2022-06-28T10:35:50Z</time>
      </trkpt>
      <trkpt lat="49.01671" lon="2.05068">
        <ele>21.4</ele>
        <time>2022-06-28T10:35:54Z</time>
      </trkpt>
      <trkpt lat="49.01668" lon="2.05074">
        <ele>23.5</ele>
        <time>2022-06-28T10:35:58Z</time>
      </trkpt>
      <trkpt lat="49.01664" lon="2.05082">
        <ele>24.6</ele>
        <time>2022-06-28T10:36:03Z</time>
      </trkpt>
      <trkpt lat="49.01663" lon="2.05089">
        <ele>24</ele>
        <time>2022-06-28T10:36:07Z</time>
      </trkpt>
      <trkpt lat="49.01662" lon="2.05097">
        <ele>24.6</ele>
        <time>2022-06-28T10:36:11Z</time>
      </trkpt>
      <trkpt lat="49.01659" lon="2.05103">
        <ele>23.7</ele>
        <time>2022-06-28T10:36:15Z</time>
      </trkpt>
      <trkpt lat="49.01655" lon="2.05108">
        <ele>22.9</ele>
        <time>2022-06-28T10:36:19Z</time>
      </trkpt>
      <trkpt lat="49.01651" lon="2.05114">
        <ele>24.1</ele>
        <time>2022-06-28T10:36:24Z</time>
      </trkpt>
      <trkpt lat="49.01647" lon="2.0512">
        <ele>23.8</ele>
        <time>2022-06-28T10:36:29Z</time>
      </trkpt>
      <trkpt lat="49.01645" lon="2.05127">
        <ele>27.6</ele>
        <time>2022-06-28T10:36:32Z</time>
      </trkpt>
      <trkpt lat="49.01641" lon="2.05134">
        <ele>27.6</ele>
        <time>2022-06-28T10:36:37Z</time>
      </trkpt>
      <trkpt lat="49.01638" lon="2.0514">
        <ele>27.1</ele>
        <time>2022-06-28T10:36:41Z</time>
      </trkpt>
      <trkpt lat="49.01636" lon="2.05146">
        <ele>24.7</ele>
        <time>2022-06-28T10:36:45Z</time>
      </trkpt>
      <trkpt lat="49.01632" lon="2.05151">
        <ele>25.4</ele>
        <time>2022-06-28T10:36:49Z</time>
      </trkpt>
      <trkpt lat="49.01627" lon="2.05156">
        <ele>22.3</ele>
        <time>2022-06-28T10:36:54Z</time>
      </trkpt>
      <trkpt lat="49.01623" lon="2.05161">
        <ele>20.8</ele>
        <time>2022-06-28T10:36:57Z</time>
      </trkpt>
      <trkpt lat="49.01619" lon="2.05166">
        <ele>21.1</ele>
        <time>2022-06-28T10:37:02Z</time>
      </trkpt>
      <trkpt lat="49.01616" lon="2.05171">
        <ele>22.3</ele>
        <time>2022-06-28T10:37:06Z</time>
      </trkpt>
      <trkpt lat="49.01612" lon="2.05178">
        <ele>20.3</ele>
        <time>2022-06-28T10:37:10Z</time>
      </trkpt>
      <trkpt lat="49.01609" lon="2.05184">
        <ele>21.6</ele>
        <time>2022-06-28T10:37:14Z</time>
      </trkpt>
      <trkpt lat="49.01605" lon="2.0519">
        <ele>22.5</ele>
        <time>2022-06-28T10:37:18Z</time>
      </trkpt>
      <trkpt lat="49.01601" lon="2.05196">
        <ele>21.6</ele>
        <time>2022-06-28T10:37:22Z</time>
      </trkpt>
      <trkpt lat="49.01597" lon="2.05201">
        <ele>19.5</ele>
        <time>2022-06-28T10:37:26Z</time>
      </trkpt>
      <trkpt lat="49.01593" lon="2.05206">
        <ele>21</ele>
        <time>2022-06-28T10:37:29Z</time>
      </trkpt>
      <trkpt lat="49.0159" lon="2.05211">
        <ele>18.8</ele>
        <time>2022-06-28T10:37:34Z</time>
      </trkpt>
      <trkpt lat="49.01586" lon="2.05218">
        <ele>18.3</ele>
        <time>2022-06-28T10:37:40Z</time>
      </trkpt>
      <trkpt lat="49.01583" lon="2.05224">
        <ele>18.4</ele>
        <time>2022-06-28T10:37:44Z</time>
      </trkpt>
      <trkpt lat="49.01579" lon="2.05229">
        <ele>18.9</ele>
        <time>2022-06-28T10:37:49Z</time>
      </trkpt>
      <trkpt lat="49.01575" lon="2.05233">
        <ele>18.3</ele>
        <time>2022-06-28T10:37:54Z</time>
      </trkpt>
      <trkpt lat="49.01571" lon="2.05239">
        <ele>18.8</ele>
        <time>2022-06-28T10:37:59Z</time>
      </trkpt>
      <trkpt lat="49.01567" lon="2.05247">
        <ele>19.6</ele>
        <time>2022-06-28T10:38:04Z</time>
      </trkpt>
      <trkpt lat="49.01562" lon="2.05253">
        <ele>20</ele>
        <time>2022-06-28T10:38:09Z</time>
      </trkpt>
      <trkpt lat="49.01557" lon="2.05258">
        <ele>17.3</ele>
        <time>2022-06-28T10:38:15Z</time>
      </trkpt>
      <trkpt lat="49.01553" lon="2.05262">
        <ele>17.7</ele>
        <time>2022-06-28T10:38:19Z</time>
      </trkpt>
      <trkpt lat="49.0155" lon="2.05267">
        <ele>19.4</ele>
        <time>2022-06-28T10:38:23Z</time>
      </trkpt>
      <trkpt lat="49.01546" lon="2.05272">
        <ele>19.8</ele>
        <time>2022-06-28T10:38:27Z</time>
      </trkpt>
      <trkpt lat="49.01542" lon="2.05278">
        <ele>19.4</ele>
        <time>2022-06-28T10:38:31Z</time>
      </trkpt>
      <trkpt lat="49.0154" lon="2.05284">
        <ele>18.8</ele>
        <time>2022-06-28T10:38:35Z</time>
      </trkpt>
      <trkpt lat="49.01536" lon="2.05291">
        <ele>17.4</ele>
        <time>2022-06-28T10:38:40Z</time>
      </trkpt>
      <trkpt lat="49.01531" lon="2.05296">
        <ele>17.8</ele>
        <time>2022-06-28T10:38:45Z</time>
      </trkpt>
      <trkpt lat="49.01527" lon="2.05303">
        <ele>21</ele>
        <time>2022-06-28T10:38:49Z</time>
      </trkpt>
      <trkpt lat="49.01524" lon="2.0531">
        <ele>21</ele>
        <time>2022-06-28T10:38:54Z</time>
      </trkpt>
      <trkpt lat="49.01521" lon="2.05316">
        <ele>21.4</ele>
        <time>2022-06-28T10:38:59Z</time>
      </trkpt>
      <trkpt lat="49.01516" lon="2.0532">
        <ele>20.3</ele>
        <time>2022-06-28T10:39:04Z</time>
      </trkpt>
      <trkpt lat="49.01512" lon="2.05328">
        <ele>20.9</ele>
        <time>2022-06-28T10:39:09Z</time>
      </trkpt>
      <trkpt lat="49.01508" lon="2.05334">
        <ele>21.9</ele>
        <time>2022-06-28T10:39:14Z</time>
      </trkpt>
      <trkpt lat="49.01505" lon="2.05339">
        <ele>20.6</ele>
        <time>2022-06-28T10:39:18Z</time>
      </trkpt>
      <trkpt lat="49.01501" lon="2.05345">
        <ele>19.9</ele>
        <time>2022-06-28T10:39:23Z</time>
      </trkpt>
      <trkpt lat="49.01497" lon="2.0535">
        <ele>20.2</ele>
        <time>2022-06-28T10:39:27Z</time>
      </trkpt>
      <trkpt lat="49.01494" lon="2.05357">
        <ele>19</ele>
        <time>2022-06-28T10:39:32Z</time>
      </trkpt>
      <trkpt lat="49.01492" lon="2.05364">
        <ele>20.9</ele>
        <time>2022-06-28T10:39:36Z</time>
      </trkpt>
      <trkpt lat="49.01489" lon="2.05369">
        <ele>19.9</ele>
        <time>2022-06-28T10:39:40Z</time>
      </trkpt>
      <trkpt lat="49.01485" lon="2.05376">
        <ele>21.5</ele>
        <time>2022-06-28T10:39:45Z</time>
      </trkpt>
      <trkpt lat="49.01483" lon="2.05382">
        <ele>22.6</ele>
        <time>2022-06-28T10:39:49Z</time>
      </trkpt>
      <trkpt lat="49.0148" lon="2.05389">
        <ele>24.4</ele>
        <time>2022-06-28T10:39:54Z</time>
      </trkpt>
      <trkpt lat="49.01478" lon="2.05397">
        <ele>22.5</ele>
        <time>2022-06-28T10:39:59Z</time>
      </trkpt>
      <trkpt lat="49.01475" lon="2.05403">
        <ele>20.9</ele>
        <time>2022-06-28T10:40:03Z</time>
      </trkpt>
      <trkpt lat="49.01472" lon="2.05408">
        <ele>21.8</ele>
        <time>2022-06-28T10:40:07Z</time>
      </trkpt>
      <trkpt lat="49.01468" lon="2.05414">
        <ele>21.5</ele>
        <time>2022-06-28T10:40:11Z</time>
      </trkpt>
      <trkpt lat="49.01465" lon="2.05421">
        <ele>20.6</ele>
        <time>2022-06-28T10:40:16Z</time>
      </trkpt>
      <trkpt lat="49.01461" lon="2.05427">
        <ele>18.2</ele>
        <time>2022-06-28T10:40:21Z</time>
      </trkpt>
      <trkpt lat="49.01459" lon="2.05434">
        <ele>21.3</ele>
        <time>2022-06-28T10:40:25Z</time>
      </trkpt>
      <trkpt lat="49.01457" lon="2.05442">
        <ele>20.1</ele>
        <time>2022-06-28T10:40:29Z</time>
      </trkpt>
      <trkpt lat="49.01454" lon="2.05449">
        <ele>18.5</ele>
        <time>2022-06-28T10:40:33Z</time>
      </trkpt>
      <trkpt lat="49.01451" lon="2.05456">
        <ele>17.8</ele>
        <time>2022-06-28T10:40:38Z</time>
      </trkpt>
      <trkpt lat="49.01448" lon="2.05462">
        <ele>17.7</ele>
        <time>2022-06-28T10:40:43Z</time>
      </trkpt>
      <trkpt lat="49.01445" lon="2.05468">
        <ele>18.9</ele>
        <time>2022-06-28T10:40:47Z</time>
      </trkpt>
      <trkpt lat="49.01441" lon="2.05475">
        <ele>18.8</ele>
        <time>2022-06-28T10:40:52Z</time>
      </trkpt>
      <trkpt lat="49.01438" lon="2.05482">
        <ele>18.6</ele>
        <time>2022-06-28T10:40:56Z</time>
      </trkpt>
      <trkpt lat="49.01436" lon="2.05488">
        <ele>16.2</ele>
        <time>2022-06-28T10:41:00Z</time>
      </trkpt>
      <trkpt lat="49.01433" lon="2.05495">
        <ele>16.3</ele>
        <time>2022-06-28T10:41:04Z</time>
      </trkpt>
      <trkpt lat="49.01428" lon="2.055">
        <ele>17.3</ele>
        <time>2022-06-28T10:41:09Z</time>
      </trkpt>
      <trkpt lat="49.01425" lon="2.05507">
        <ele>17</ele>
        <time>2022-06-28T10:41:14Z</time>
      </trkpt>
      <trkpt lat="49.01423" lon="2.05514">
        <ele>18.5</ele>
        <time>2022-06-28T10:41:18Z</time>
      </trkpt>
      <trkpt lat="49.01419" lon="2.05521">
        <ele>20.2</ele>
        <time>2022-06-28T10:41:23Z</time>
      </trkpt>
      <trkpt lat="49.01415" lon="2.05527">
        <ele>17.8</ele>
        <time>2022-06-28T10:41:27Z</time>
      </trkpt>
      <trkpt lat="49.01412" lon="2.05532">
        <ele>17.2</ele>
        <time>2022-06-28T10:41:31Z</time>
      </trkpt>
      <trkpt lat="49.0141" lon="2.05538">
        <ele>16.8</ele>
        <time>2022-06-28T10:41:35Z</time>
      </trkpt>
      <trkpt lat="49.01407" lon="2.05545">
        <ele>15.6</ele>
        <time>2022-06-28T10:41:39Z</time>
      </trkpt>
      <trkpt lat="49.01405" lon="2.05552">
        <ele>14.8</ele>
        <time>2022-06-28T10:41:44Z</time>
      </trkpt>
      <trkpt lat="49.01402" lon="2.05557">
        <ele>15.9</ele>
        <time>2022-06-28T10:41:48Z</time>
      </trkpt>
      <trkpt lat="49.01399" lon="2.05563">
        <ele>19.4</ele>
        <time>2022-06-28T10:41:52Z</time>
      </trkpt>
      <trkpt lat="49.01396" lon="2.05569">
        <ele>19.9</ele>
        <time>2022-06-28T10:41:57Z</time>
      </trkpt>
      <trkpt lat="49.01392" lon="2.05575">
        <ele>20.3</ele>
        <time>2022-06-28T10:42:01Z</time>
      </trkpt>
      <trkpt lat="49.01388" lon="2.05581">
        <ele>18.1</ele>
        <time>2022-06-28T10:42:06Z</time>
      </trkpt>
      <trkpt lat="49.01386" lon="2.05573">
        <ele>19.2</ele>
        <time>2022-06-28T10:42:12Z</time>
      </trkpt>
      <trkpt lat="49.01383" lon="2.05566">
        <ele>21.2</ele>
        <time>2022-06-28T10:42:17Z</time>
      </trkpt>
      <trkpt lat="49.01387" lon="2.05563">
        <ele>22</ele>
        <time>2022-06-28T10:42:26Z</time>
      </trkpt>
      <trkpt lat="49.01388" lon="2.0557">
        <ele>21.9</ele>
        <time>2022-06-28T10:42:42Z</time>
      </trkpt>
      <trkpt lat="49.01391" lon="2.05576">
        <ele>22.8</ele>
        <time>2022-06-28T10:43:09Z</time>
      </trkpt>
      <trkpt lat="49.01388" lon="2.0557">
        <ele>17.6</ele>
        <time>2022-06-28T10:43:38Z</time>
      </trkpt>
      <trkpt lat="49.01384" lon="2.05564">
        <ele>16.8</ele>
        <time>2022-06-28T10:43:42Z</time>
      </trkpt>
      <trkpt lat="49.0138" lon="2.0556">
        <ele>13.8</ele>
        <time>2022-06-28T10:43:45Z</time>
      </trkpt>
      <trkpt lat="49.01374" lon="2.05557">
        <ele>13.6</ele>
        <time>2022-06-28T10:43:50Z</time>
      </trkpt>
      <trkpt lat="49.01369" lon="2.05559">
        <ele>17.3</ele>
        <time>2022-06-28T10:43:55Z</time>
      </trkpt>
      <trkpt lat="49.01366" lon="2.05565">
        <ele>18.1</ele>
        <time>2022-06-28T10:43:59Z</time>
      </trkpt>
      <trkpt lat="49.01363" lon="2.05569">
        <ele>19.7</ele>
        <time>2022-06-28T10:44:02Z</time>
      </trkpt>
      <trkpt lat="49.01358" lon="2.05572">
        <ele>20.8</ele>
        <time>2022-06-28T10:44:06Z</time>
      </trkpt>
      <trkpt lat="49.01353" lon="2.05573">
        <ele>19.5</ele>
        <time>2022-06-28T10:44:10Z</time>
      </trkpt>
      <trkpt lat="49.01347" lon="2.05575">
        <ele>19.9</ele>
        <time>2022-06-28T10:44:16Z</time>
      </trkpt>
      <trkpt lat="49.01342" lon="2.05578">
        <ele>18.7</ele>
        <time>2022-06-28T10:44:20Z</time>
      </trkpt>
      <trkpt lat="49.01338" lon="2.0558">
        <ele>19</ele>
        <time>2022-06-28T10:44:26Z</time>
      </trkpt>
      <trkpt lat="49.01336" lon="2.05587">
        <ele>18.6</ele>
        <time>2022-06-28T10:44:32Z</time>
      </trkpt>
      <trkpt lat="49.01338" lon="2.05594">
        <ele>21.3</ele>
        <time>2022-06-28T10:44:36Z</time>
      </trkpt>
      <trkpt lat="49.01342" lon="2.05598">
        <ele>24</ele>
        <time>2022-06-28T10:44:40Z</time>
      </trkpt>
      <trkpt lat="49.01346" lon="2.05603">
        <ele>26.1</ele>
        <time>2022-06-28T10:44:44Z</time>
      </trkpt>
      <trkpt lat="49.0135" lon="2.0561">
        <ele>27.6</ele>
        <time>2022-06-28T10:44:49Z</time>
      </trkpt>
      <trkpt lat="49.01353" lon="2.05616">
        <ele>28.1</ele>
        <time>2022-06-28T10:44:53Z</time>
      </trkpt>
      <trkpt lat="49.01356" lon="2.05622">
        <ele>29.8</ele>
        <time>2022-06-28T10:44:57Z</time>
      </trkpt>
      <trkpt lat="49.01359" lon="2.05629">
        <ele>30.3</ele>
        <time>2022-06-28T10:45:01Z</time>
      </trkpt>
      <trkpt lat="49.01363" lon="2.05637">
        <ele>30.9</ele>
        <time>2022-06-28T10:45:06Z</time>
      </trkpt>
      <trkpt lat="49.01367" lon="2.05643">
        <ele>31.3</ele>
        <time>2022-06-28T10:45:10Z</time>
      </trkpt>
      <trkpt lat="49.01368" lon="2.0565">
        <ele>31.1</ele>
        <time>2022-06-28T10:45:17Z</time>
      </trkpt>
      <trkpt lat="49.01371" lon="2.05656">
        <ele>31.1</ele>
        <time>2022-06-28T10:45:23Z</time>
      </trkpt>
      <trkpt lat="49.01375" lon="2.05664">
        <ele>30.5</ele>
        <time>2022-06-28T10:45:27Z</time>
      </trkpt>
      <trkpt lat="49.0138" lon="2.05671">
        <ele>32.2</ele>
        <time>2022-06-28T10:45:32Z</time>
      </trkpt>
      <trkpt lat="49.01383" lon="2.05677">
        <ele>31.8</ele>
        <time>2022-06-28T10:45:37Z</time>
      </trkpt>
      <trkpt lat="49.01387" lon="2.05683">
        <ele>31.2</ele>
        <time>2022-06-28T10:45:41Z</time>
      </trkpt>
      <trkpt lat="49.01391" lon="2.0569">
        <ele>31.6</ele>
        <time>2022-06-28T10:45:45Z</time>
      </trkpt>
      <trkpt lat="49.01394" lon="2.05696">
        <ele>31.5</ele>
        <time>2022-06-28T10:45:48Z</time>
      </trkpt>
      <trkpt lat="49.01398" lon="2.05703">
        <ele>31.2</ele>
        <time>2022-06-28T10:45:52Z</time>
      </trkpt>
      <trkpt lat="49.01401" lon="2.05709">
        <ele>31.5</ele>
        <time>2022-06-28T10:45:56Z</time>
      </trkpt>
      <trkpt lat="49.01404" lon="2.05717">
        <ele>31.4</ele>
        <time>2022-06-28T10:46:00Z</time>
      </trkpt>
      <trkpt lat="49.01408" lon="2.05723">
        <ele>31.4</ele>
        <time>2022-06-28T10:46:04Z</time>
      </trkpt>
      <trkpt lat="49.01411" lon="2.05729">
        <ele>31.9</ele>
        <time>2022-06-28T10:46:09Z</time>
      </trkpt>
      <trkpt lat="49.01415" lon="2.05734">
        <ele>31.6</ele>
        <time>2022-06-28T10:46:14Z</time>
      </trkpt>
      <trkpt lat="49.01418" lon="2.0574">
        <ele>31</ele>
        <time>2022-06-28T10:46:18Z</time>
      </trkpt>
      <trkpt lat="49.01414" lon="2.05739">
        <ele>28.8</ele>
        <time>2022-06-28T10:46:28Z</time>
      </trkpt>
      <trkpt lat="49.01408" lon="2.05739">
        <ele>27.6</ele>
        <time>2022-06-28T10:46:35Z</time>
      </trkpt>
      <trkpt lat="49.01405" lon="2.05747">
        <ele>26.9</ele>
        <time>2022-06-28T10:46:39Z</time>
      </trkpt>
      <trkpt lat="49.01407" lon="2.05753">
        <ele>27.1</ele>
        <time>2022-06-28T10:46:42Z</time>
      </trkpt>
      <trkpt lat="49.01406" lon="2.05762">
        <ele>26.9</ele>
        <time>2022-06-28T10:46:47Z</time>
      </trkpt>
      <trkpt lat="49.01401" lon="2.05766">
        <ele>25.7</ele>
        <time>2022-06-28T10:46:52Z</time>
      </trkpt>
      <trkpt lat="49.01397" lon="2.0577">
        <ele>25.6</ele>
        <time>2022-06-28T10:46:58Z</time>
      </trkpt>
      <trkpt lat="49.014" lon="2.05774">
        <ele>25.7</ele>
        <time>2022-06-28T10:47:06Z</time>
      </trkpt>
      <trkpt lat="49.01405" lon="2.05779">
        <ele>24.7</ele>
        <time>2022-06-28T10:47:11Z</time>
      </trkpt>
      <trkpt lat="49.01409" lon="2.05784">
        <ele>23.2</ele>
        <time>2022-06-28T10:47:16Z</time>
      </trkpt>
      <trkpt lat="49.01412" lon="2.0579">
        <ele>22.8</ele>
        <time>2022-06-28T10:47:21Z</time>
      </trkpt>
      <trkpt lat="49.01413" lon="2.05797">
        <ele>23</ele>
        <time>2022-06-28T10:47:25Z</time>
      </trkpt>
      <trkpt lat="49.01416" lon="2.05804">
        <ele>24.7</ele>
        <time>2022-06-28T10:47:31Z</time>
      </trkpt>
      <trkpt lat="49.01419" lon="2.0581">
        <ele>24.4</ele>
        <time>2022-06-28T10:47:36Z</time>
      </trkpt>
      <trkpt lat="49.01422" lon="2.05818">
        <ele>24.1</ele>
        <time>2022-06-28T10:47:41Z</time>
      </trkpt>
      <trkpt lat="49.01425" lon="2.05824">
        <ele>23.8</ele>
        <time>2022-06-28T10:47:46Z</time>
      </trkpt>
      <trkpt lat="49.01428" lon="2.0583">
        <ele>24.1</ele>
        <time>2022-06-28T10:47:50Z</time>
      </trkpt>
      <trkpt lat="49.01432" lon="2.05835">
        <ele>24.5</ele>
        <time>2022-06-28T10:47:55Z</time>
      </trkpt>
      <trkpt lat="49.01433" lon="2.05843">
        <ele>24.6</ele>
        <time>2022-06-28T10:47:59Z</time>
      </trkpt>
    </trkseg>
  </trk>
</gpx>